Darstellungsparameter: Aktuell verwendete Einstellungen:
Skalierung der Graphiken ... ?
xyx+y,   Skalierungsfaktor:      Skalierung: Modus: x, Faktor: 1
Darstellungszeitraum ... ?
Vom - - bis: - -   Zeitraum: 27.02.2014 - 26.08.2014
Min/Max/Avg-Anzeige ... ?
Zeige MMA aktuell
Zeige MMA Monat
Zeige MMA alles
Zeige --A aktuell
Zeige --A Monat
Zeige --A alles
Keine MMA-Anzeige
MMA:
Minimum Maximum Average (ber die Originaldaten)
MMA-Basis: 27.02.2014 - 26.08.2014
Quicknavigation für Darstellung... ?
Tage:      1T, 2T, 3T, 5T -1T -2T -3T -5T +1T +2T +3T +5T
Wochen: 1W, 2W, 3W -1W -2W -3W +1W +2W +3W
Monate: 1M, 3M, 6M -1M -3M -6M +1M +3M +6M
Jahre:    1J, 3J, 5J, 10J -1J -3J -5J -10J +1J +3J +5J +10J
Nutze für die Darstellung ... ?
Originaldaten oder Mittelwerte auf ...
Stundenbasis Tagesbasis Wochenbasis
Monatsbasis Jahresbasis      Datenbasis: Original-Daten
Darstellen als:
Statistik (Auto) Statistik J:M      Darstellung:
Zur Graphik,    zurück zur Übersicht aller Sensoren.
 
Tabellarische Datenbersicht: ?
 
Sensor: Nr:Datum:Temp:Feuchte:Taupunkt:
Aussen-T/F 1 27-02-2014 00:00:00 6.3 C 88 % 4.46 C
2 27-02-2014 00:05:00 6.3 C 88 % 4.46 C
3 27-02-2014 00:10:00 6.3 C 89 % 4.62 C
4 27-02-2014 00:15:00 6.2 C 88 % 4.36 C
5 27-02-2014 00:20:00 6.1 C 89 % 4.43 C
6 27-02-2014 00:25:00 5.9 C 89 % 4.23 C
7 27-02-2014 00:30:00 5.8 C 90 % 4.29 C
8 27-02-2014 00:35:00 5.8 C 90 % 4.29 C
9 27-02-2014 00:40:00 5.8 C 90 % 4.29 C
10 27-02-2014 00:45:00 5.7 C 90 % 4.19 C
11 27-02-2014 00:50:00 5.6 C 90 % 4.09 C
12 27-02-2014 00:55:00 5.6 C 90 % 4.09 C
13 27-02-2014 01:00:00 5.5 C 91 % 4.15 C
14 27-02-2014 01:05:00 5.6 C 91 % 4.25 C
15 27-02-2014 01:10:00 5.6 C 91 % 4.25 C
16 27-02-2014 01:15:00 5.4 C 90 % 3.89 C
17 27-02-2014 01:20:00 5.3 C 90 % 3.8 C
18 27-02-2014 01:25:00 5.1 C 90 % 3.6 C
19 27-02-2014 01:30:00 4.9 C 91 % 3.56 C
20 27-02-2014 01:35:00 4.7 C 91 % 3.36 C
21 27-02-2014 01:40:00 4.6 C 92 % 3.42 C
22 27-02-2014 01:45:00 4.6 C 92 % 3.42 C
23 27-02-2014 01:50:00 4.4 C 92 % 3.22 C
24 27-02-2014 01:55:00 4.3 C 92 % 3.12 C
25 27-02-2014 02:00:00 4.2 C 92 % 3.02 C
Sensor: Nr:Datum:Temp:Feuchte:Taupunkt:
Aussen-T/F 26 27-02-2014 02:05:00 4.2 C 93 % 3.17 C
27 27-02-2014 02:10:00 4.2 C 93 % 3.17 C
28 27-02-2014 02:15:00 4.1 C 93 % 3.07 C
29 27-02-2014 02:20:00 4.1 C 93 % 3.07 C
30 27-02-2014 02:25:00 4.1 C 93 % 3.07 C
31 27-02-2014 02:30:00 4.1 C 93 % 3.07 C
32 27-02-2014 02:35:00 4.1 C 93 % 3.07 C
33 27-02-2014 02:40:00 3.9 C 93 % 2.87 C
34 27-02-2014 02:45:00 3.8 C 93 % 2.77 C
35 27-02-2014 02:50:00 3.8 C 93 % 2.77 C
36 27-02-2014 02:55:00 3.8 C 93 % 2.77 C
37 27-02-2014 03:00:00 3.8 C 93 % 2.77 C
38 27-02-2014 03:05:00 3.5 C 93 % 2.48 C
39 27-02-2014 03:10:00 3.4 C 94 % 2.53 C
40 27-02-2014 03:15:00 3.4 C 94 % 2.53 C
41 27-02-2014 03:20:00 3.3 C 94 % 2.43 C
42 27-02-2014 03:25:00 3.3 C 94 % 2.43 C
43 27-02-2014 03:30:00 3.2 C 94 % 2.33 C
44 27-02-2014 03:35:00 3.2 C 94 % 2.33 C
45 27-02-2014 03:40:00 3.1 C 94 % 2.23 C
46 27-02-2014 03:45:00 3.1 C 94 % 2.23 C
47 27-02-2014 03:50:00 2.9 C 94 % 2.03 C
48 27-02-2014 03:55:00 2.9 C 94 % 2.03 C
49 27-02-2014 04:00:00 2.8 C 94 % 1.93 C
50 27-02-2014 04:05:00 2.8 C 94 % 1.93 C
Sensor: Nr:Datum:Temp:Feuchte:Taupunkt:
Aussen-T/F 51 27-02-2014 04:10:00 2.7 C 94 % 1.83 C
52 27-02-2014 04:15:00 2.6 C 94 % 1.73 C
53 27-02-2014 04:20:00 2.4 C 95 % 1.68 C
54 27-02-2014 04:25:00 2.4 C 95 % 1.68 C
55 27-02-2014 04:30:00 2.6 C 95 % 1.88 C
56 27-02-2014 04:35:00 2.7 C 96 % 2.13 C
57 27-02-2014 04:40:00 2.8 C 96 % 2.23 C
58 27-02-2014 04:45:00 2.8 C 95 % 2.08 C
59 27-02-2014 04:50:00 2.7 C 95 % 1.98 C
60 27-02-2014 04:55:00 2.6 C 95 % 1.88 C
61 27-02-2014 05:00:00 2.4 C 95 % 1.68 C
62 27-02-2014 05:05:00 2.2 C 95 % 1.48 C
63 27-02-2014 05:10:00 2.1 C 95 % 1.38 C
64 27-02-2014 05:15:00 2 C 95 % 1.29 C
65 27-02-2014 05:20:00 1.9 C 95 % 1.19 C
66 27-02-2014 05:25:00 1.9 C 95 % 1.19 C
67 27-02-2014 05:30:00 1.8 C 95 % 1.09 C
68 27-02-2014 05:35:00 1.9 C 95 % 1.19 C
69 27-02-2014 05:40:00 1.8 C 95 % 1.09 C
70 27-02-2014 05:45:00 1.7 C 95 % 0.99 C
71 27-02-2014 05:50:00 1.7 C 95 % 0.99 C
72 27-02-2014 05:55:00 1.6 C 95 % 0.89 C
73 27-02-2014 06:00:00 1.6 C 96 % 1.03 C
74 27-02-2014 06:05:00 1.7 C 96 % 1.13 C
75 27-02-2014 06:10:00 1.7 C 96 % 1.13 C
Sensor: Nr:Datum:Temp:Feuchte:Taupunkt:
Aussen-T/F 76 27-02-2014 06:15:00 1.7 C 96 % 1.13 C
77 27-02-2014 06:20:00 1.7 C 96 % 1.13 C
78 27-02-2014 06:25:00 1.7 C 96 % 1.13 C
79 27-02-2014 06:30:00 1.5 C 96 % 0.93 C
80 27-02-2014 06:35:00 1.4 C 95 % 0.69 C
81 27-02-2014 06:40:00 1.4 C 96 % 0.83 C
82 27-02-2014 06:45:00 1.5 C 96 % 0.93 C
83 27-02-2014 06:50:00 1.5 C 96 % 0.93 C
84 27-02-2014 06:55:00 1.5 C 96 % 0.93 C
85 27-02-2014 07:00:00 1.4 C 96 % 0.83 C
86 27-02-2014 07:05:00 1.4 C 96 % 0.83 C
87 27-02-2014 07:10:00 1.4 C 96 % 0.83 C
88 27-02-2014 07:15:00 1.4 C 96 % 0.83 C
89 27-02-2014 07:20:00 1.4 C 96 % 0.83 C
90 27-02-2014 07:25:00 1.3 C 96 % 0.73 C
91 27-02-2014 07:30:00 1.3 C 96 % 0.73 C
92 27-02-2014 07:35:00 1.3 C 96 % 0.73 C
93 27-02-2014 07:40:00 1.3 C 96 % 0.73 C
94 27-02-2014 07:45:00 1.2 C 96 % 0.63 C
95 27-02-2014 07:50:00 1.2 C 96 % 0.63 C
96 27-02-2014 07:55:00 1.2 C 96 % 0.63 C
97 27-02-2014 08:00:00 1.1 C 96 % 0.54 C
98 27-02-2014 08:05:00 1.1 C 96 % 0.54 C
99 27-02-2014 08:10:00 1.1 C 96 % 0.54 C
100 27-02-2014 08:15:00 1.1 C 96 % 0.54 C
Sensor: Nr:Datum:Temp:Feuchte:Taupunkt:
Aussen-T/F 101 27-02-2014 09:20:00 1.6 C 97 % 1.18 C
102 27-02-2014 09:25:00 1.6 C 97 % 1.18 C
103 27-02-2014 09:30:00 1.6 C 97 % 1.18 C
104 27-02-2014 11:20:00 5.9 C 100 % 5.9 C
105 27-02-2014 11:25:00 6.4 C 92 % 5.2 C
106 27-02-2014 11:30:00 6.7 C 92 % 5.49 C
107 27-02-2014 11:35:00 7.1 C 90 % 5.57 C
108 27-02-2014 11:40:00 7.8 C 84 % 5.27 C
109 27-02-2014 11:45:00 8.4 C 78 % 4.79 C
110 27-02-2014 11:50:00 8.8 C 75 % 4.62 C
111 27-02-2014 11:55:00 9.1 C 73 % 4.52 C
112 27-02-2014 12:00:00 9.3 C 71 % 4.32 C
113 27-02-2014 12:05:00 9.4 C 71 % 4.42 C
114 27-02-2014 12:10:00 9.6 C 70 % 4.41 C
115 27-02-2014 12:15:00 9.7 C 71 % 4.7 C
116 27-02-2014 12:20:00 9.8 C 71 % 4.8 C
117 27-02-2014 12:25:00 10.1 C 69 % 4.68 C
118 27-02-2014 12:30:00 10.1 C 68 % 4.47 C
119 27-02-2014 12:35:00 10.1 C 68 % 4.47 C
120 27-02-2014 12:40:00 10.1 C 67 % 4.26 C
121 27-02-2014 12:45:00 9.9 C 67 % 4.07 C
122 27-02-2014 12:50:00 10 C 69 % 4.58 C
123 27-02-2014 12:55:00 10.1 C 67 % 4.26 C
124 27-02-2014 13:00:00 10 C 68 % 4.38 C
125 27-02-2014 13:05:00 10.1 C 68 % 4.47 C
Sensor: Nr:Datum:Temp:Feuchte:Taupunkt:
Aussen-T/F 126 27-02-2014 13:10:00 10.1 C 67 % 4.26 C
127 27-02-2014 13:15:00 10.1 C 67 % 4.26 C
128 27-02-2014 13:20:00 10 C 66 % 3.95 C
129 27-02-2014 13:25:00 9.9 C 66 % 3.86 C
130 27-02-2014 13:30:00 9.7 C 66 % 3.67 C
131 27-02-2014 13:35:00 9.6 C 67 % 3.78 C
132 27-02-2014 13:40:00 9.6 C 67 % 3.78 C
133 27-02-2014 13:45:00 9.6 C 68 % 3.99 C
134 27-02-2014 13:50:00 9.6 C 68 % 3.99 C
135 27-02-2014 13:55:00 9.6 C 68 % 3.99 C
136 27-02-2014 14:00:00 9.6 C 68 % 3.99 C
137 27-02-2014 14:05:00 9.7 C 69 % 4.3 C
138 27-02-2014 14:10:00 9.8 C 67 % 3.97 C
139 27-02-2014 14:15:00 9.9 C 67 % 4.07 C
140 27-02-2014 14:20:00 10 C 66 % 3.95 C
141 27-02-2014 14:25:00 10.1 C 67 % 4.26 C
142 27-02-2014 14:30:00 10.1 C 68 % 4.47 C
143 27-02-2014 14:35:00 10.2 C 65 % 3.92 C
144 27-02-2014 14:40:00 10.2 C 65 % 3.92 C
145 27-02-2014 14:45:00 10.2 C 65 % 3.92 C
146 27-02-2014 14:50:00 10.3 C 65 % 4.02 C
147 27-02-2014 14:55:00 10.4 C 65 % 4.11 C
148 27-02-2014 15:00:00 10.6 C 63 % 3.86 C
149 27-02-2014 15:05:00 10.7 C 65 % 4.4 C
150 27-02-2014 15:10:00 10.7 C 63 % 3.95 C
Sensor: Nr:Datum:Temp:Feuchte:Taupunkt:
Aussen-T/F 151 27-02-2014 15:15:00 10.7 C 63 % 3.95 C
152 27-02-2014 15:20:00 10.7 C 62 % 3.73 C
153 27-02-2014 15:25:00 10.7 C 62 % 3.73 C
154 27-02-2014 15:30:00 10.6 C 62 % 3.63 C
155 27-02-2014 15:35:00 10.6 C 62 % 3.63 C
156 27-02-2014 15:40:00 10.6 C 62 % 3.63 C
157 27-02-2014 15:45:00 10.5 C 62 % 3.54 C
158 27-02-2014 15:50:00 10.4 C 62 % 3.44 C
159 27-02-2014 15:55:00 10.4 C 61 % 3.21 C
160 27-02-2014 16:00:00 10.3 C 61 % 3.12 C
161 27-02-2014 16:05:00 10.2 C 60 % 2.79 C
162 27-02-2014 16:10:00 10.1 C 60 % 2.7 C
163 27-02-2014 16:15:00 10 C 60 % 2.6 C
164 27-02-2014 16:20:00 9.9 C 62 % 2.97 C
165 27-02-2014 16:25:00 9.8 C 61 % 2.65 C
166 27-02-2014 16:30:00 9.8 C 60 % 2.42 C
167 27-02-2014 16:35:00 9.8 C 61 % 2.65 C
168 27-02-2014 16:40:00 9.7 C 61 % 2.55 C
169 27-02-2014 16:45:00 9.7 C 61 % 2.55 C
170 27-02-2014 16:50:00 9.6 C 63 % 2.91 C
171 27-02-2014 16:55:00 9.6 C 63 % 2.91 C
172 27-02-2014 17:00:00 9.5 C 64 % 3.04 C
173 27-02-2014 17:05:00 9.4 C 65 % 3.16 C
174 27-02-2014 17:10:00 9.4 C 64 % 2.95 C
175 27-02-2014 17:15:00 9.4 C 64 % 2.95 C
Sensor: Nr:Datum:Temp:Feuchte:Taupunkt:
Aussen-T/F 176 27-02-2014 17:20:00 9.3 C 66 % 3.28 C
177 27-02-2014 17:25:00 9.3 C 65 % 3.07 C
178 27-02-2014 17:30:00 9.3 C 65 % 3.07 C
179 27-02-2014 17:35:00 9.3 C 64 % 2.85 C
180 27-02-2014 17:40:00 9.3 C 64 % 2.85 C
181 27-02-2014 17:45:00 9.2 C 66 % 3.19 C
182 27-02-2014 17:50:00 9.1 C 66 % 3.09 C
183 27-02-2014 17:55:00 9.1 C 67 % 3.31 C
184 27-02-2014 18:00:00 8.9 C 67 % 3.12 C
185 27-02-2014 18:05:00 8.9 C 67 % 3.12 C
186 27-02-2014 18:10:00 8.8 C 68 % 3.23 C
187 27-02-2014 18:15:00 8.4 C 74 % 4.04 C
188 27-02-2014 18:20:00 7.9 C 77 % 4.12 C
189 27-02-2014 18:25:00 7.6 C 80 % 4.38 C
190 27-02-2014 18:30:00 7.3 C 80 % 4.09 C
191 27-02-2014 18:35:00 7.2 C 81 % 4.16 C
192 27-02-2014 18:40:00 7.2 C 80 % 3.99 C
193 27-02-2014 18:45:00 7.1 C 82 % 4.24 C
194 27-02-2014 18:50:00 7 C 81 % 3.97 C
195 27-02-2014 18:55:00 6.9 C 83 % 4.22 C
196 27-02-2014 19:00:00 6.8 C 83 % 4.12 C
197 27-02-2014 19:05:00 6.8 C 84 % 4.29 C
198 27-02-2014 19:10:00 6.7 C 83 % 4.02 C
199 27-02-2014 19:15:00 6.7 C 84 % 4.19 C
200 27-02-2014 19:20:00 6.5 C 85 % 4.17 C
Sensor: Nr:Datum:Temp:Feuchte:Taupunkt:
Aussen-T/F 201 27-02-2014 19:25:00 6.4 C 85 % 4.07 C
202 27-02-2014 19:30:00 6.3 C 86 % 4.14 C
203 27-02-2014 19:35:00 6.2 C 86 % 4.04 C
204 27-02-2014 19:40:00 6.1 C 88 % 4.27 C
205 27-02-2014 19:45:00 6 C 87 % 4 C
206 27-02-2014 19:50:00 5.9 C 87 % 3.91 C
207 27-02-2014 19:55:00 5.9 C 88 % 4.07 C
208 27-02-2014 20:00:00 5.9 C 89 % 4.23 C
209 27-02-2014 20:05:00 5.8 C 89 % 4.13 C
210 27-02-2014 20:10:00 5.7 C 90 % 4.19 C
211 27-02-2014 20:15:00 5.6 C 91 % 4.25 C
212 27-02-2014 20:20:00 5.5 C 90 % 3.99 C
213 27-02-2014 20:25:00 5.5 C 91 % 4.15 C
214 27-02-2014 20:30:00 5.4 C 92 % 4.21 C
215 27-02-2014 20:35:00 5.4 C 92 % 4.21 C
216 27-02-2014 20:40:00 5.3 C 92 % 4.11 C
217 27-02-2014 20:45:00 5.2 C 93 % 4.16 C
218 27-02-2014 20:50:00 5.2 C 93 % 4.16 C
219 27-02-2014 20:55:00 5.2 C 94 % 4.32 C
220 27-02-2014 21:00:00 5.1 C 94 % 4.22 C
221 27-02-2014 21:05:00 5.1 C 94 % 4.22 C
222 27-02-2014 21:10:00 5.1 C 94 % 4.22 C
223 27-02-2014 21:15:00 5 C 94 % 4.12 C
224 27-02-2014 21:20:00 5 C 94 % 4.12 C
225 27-02-2014 21:25:00 4.9 C 95 % 4.17 C
Sensor: Nr:Datum:Temp:Feuchte:Taupunkt:
Aussen-T/F 226 27-02-2014 21:30:00 4.9 C 95 % 4.17 C
227 27-02-2014 21:35:00 4.9 C 95 % 4.17 C
228 27-02-2014 21:40:00 4.9 C 95 % 4.17 C
229 27-02-2014 21:45:00 4.9 C 95 % 4.17 C
230 27-02-2014 21:50:00 4.9 C 95 % 4.17 C
231 27-02-2014 21:55:00 4.9 C 95 % 4.17 C
232 27-02-2014 22:00:00 4.8 C 95 % 4.07 C
233 27-02-2014 22:05:00 4.8 C 95 % 4.07 C
234 27-02-2014 22:10:00 4.8 C 95 % 4.07 C
235 27-02-2014 22:15:00 4.7 C 95 % 3.97 C
236 27-02-2014 22:20:00 4.7 C 95 % 3.97 C
237 27-02-2014 22:25:00 4.6 C 95 % 3.87 C
238 27-02-2014 22:30:00 4.6 C 95 % 3.87 C
239 27-02-2014 22:35:00 4.5 C 95 % 3.77 C
240 27-02-2014 22:40:00 4.5 C 95 % 3.77 C
241 27-02-2014 22:45:00 4.5 C 94 % 3.62 C
242 27-02-2014 22:50:00 4.5 C 94 % 3.62 C
243 27-02-2014 22:55:00 4.5 C 94 % 3.62 C
244 27-02-2014 23:00:00 4.5 C 93 % 3.47 C
245 27-02-2014 23:05:00 4.5 C 94 % 3.62 C
246 27-02-2014 23:10:00 4.5 C 93 % 3.47 C
247 27-02-2014 23:15:00 4.4 C 93 % 3.37 C
248 27-02-2014 23:20:00 4.4 C 93 % 3.37 C
249 27-02-2014 23:25:00 4.4 C 93 % 3.37 C
250 27-02-2014 23:30:00 4.4 C 93 % 3.37 C
Sensor: Nr:Datum:Temp:Feuchte:Taupunkt:
Aussen-T/F 251 27-02-2014 23:35:00 4.3 C 93 % 3.27 C
252 27-02-2014 23:40:00 4.3 C 93 % 3.27 C
253 27-02-2014 23:45:00 4.4 C 93 % 3.37 C
254 27-02-2014 23:50:00 4.4 C 93 % 3.37 C
255 27-02-2014 23:55:00 4.4 C 93 % 3.37 C
256 28-02-2014 00:00:00 4.5 C 93 % 3.47 C
257 28-02-2014 00:05:00 4.5 C 93 % 3.47 C
258 28-02-2014 00:10:00 4.5 C 93 % 3.47 C
259 28-02-2014 00:15:00 4.5 C 93 % 3.47 C
260 28-02-2014 00:20:00 4.5 C 93 % 3.47 C
261 28-02-2014 00:25:00 4.5 C 92 % 3.32 C
262 28-02-2014 00:30:00 4.5 C 93 % 3.47 C
263 28-02-2014 00:35:00 4.4 C 93 % 3.37 C
264 28-02-2014 00:40:00 4.4 C 93 % 3.37 C
265 28-02-2014 00:45:00 4.4 C 93 % 3.37 C
266 28-02-2014 00:50:00 4.5 C 93 % 3.47 C
267 28-02-2014 00:55:00 4.6 C 93 % 3.57 C
268 28-02-2014 01:00:00 4.7 C 93 % 3.67 C
269 28-02-2014 01:05:00 4.7 C 93 % 3.67 C
270 28-02-2014 01:10:00 4.7 C 93 % 3.67 C
271 28-02-2014 01:15:00 4.7 C 93 % 3.67 C
272 28-02-2014 01:20:00 4.7 C 93 % 3.67 C
273 28-02-2014 01:25:00 4.7 C 93 % 3.67 C
274 28-02-2014 01:30:00 4.8 C 93 % 3.77 C
275 28-02-2014 01:35:00 4.8 C 93 % 3.77 C
Sensor: Nr:Datum:Temp:Feuchte:Taupunkt:
Aussen-T/F 276 28-02-2014 01:40:00 4.8 C 92 % 3.61 C
277 28-02-2014 01:45:00 4.9 C 92 % 3.71 C
278 28-02-2014 01:50:00 4.9 C 92 % 3.71 C
279 28-02-2014 01:55:00 4.9 C 92 % 3.71 C
280 28-02-2014 02:00:00 5 C 91 % 3.66 C
281 28-02-2014 02:05:00 5 C 91 % 3.66 C
282 28-02-2014 02:10:00 5 C 91 % 3.66 C
283 28-02-2014 02:15:00 5 C 91 % 3.66 C
284 28-02-2014 02:20:00 4.9 C 90 % 3.4 C
285 28-02-2014 02:25:00 4.9 C 90 % 3.4 C
286 28-02-2014 02:30:00 4.8 C 91 % 3.46 C
287 28-02-2014 02:35:00 4.8 C 91 % 3.46 C
288 28-02-2014 02:40:00 4.7 C 91 % 3.36 C
289 28-02-2014 02:45:00 4.7 C 90 % 3.2 C
290 28-02-2014 02:50:00 4.7 C 90 % 3.2 C
291 28-02-2014 02:55:00 4.7 C 90 % 3.2 C
292 28-02-2014 03:00:00 4.6 C 90 % 3.1 C
293 28-02-2014 03:05:00 4.6 C 90 % 3.1 C
294 28-02-2014 03:10:00 4.7 C 90 % 3.2 C
295 28-02-2014 03:15:00 4.6 C 91 % 3.26 C
296 28-02-2014 03:20:00 4.4 C 91 % 3.06 C
297 28-02-2014 03:25:00 4.3 C 91 % 2.96 C
298 28-02-2014 03:30:00 4.1 C 92 % 2.92 C
299 28-02-2014 03:35:00 3.8 C 92 % 2.62 C
300 28-02-2014 03:40:00 3.6 C 93 % 2.58 C
Sensor: Nr:Datum:Temp:Feuchte:Taupunkt:
Aussen-T/F 301 28-02-2014 03:45:00 3.5 C 94 % 2.63 C
302 28-02-2014 03:50:00 3.4 C 94 % 2.53 C
303 28-02-2014 03:55:00 3.6 C 95 % 2.88 C
304 28-02-2014 04:00:00 3.7 C 94 % 2.83 C
305 28-02-2014 04:05:00 3.8 C 95 % 3.07 C
306 28-02-2014 04:10:00 3.9 C 94 % 3.02 C
307 28-02-2014 04:15:00 4 C 94 % 3.12 C
308 28-02-2014 04:20:00 4.1 C 94 % 3.22 C
309 28-02-2014 04:25:00 4.1 C 93 % 3.07 C
310 28-02-2014 04:30:00 4.2 C 93 % 3.17 C
311 28-02-2014 04:35:00 4.2 C 93 % 3.17 C
312 28-02-2014 04:40:00 4 C 93 % 2.97 C
313 28-02-2014 04:45:00 3.8 C 94 % 2.93 C
314 28-02-2014 04:50:00 3.7 C 94 % 2.83 C
315 28-02-2014 04:55:00 3.5 C 94 % 2.63 C
316 28-02-2014 05:00:00 3.5 C 95 % 2.78 C
317 28-02-2014 05:05:00 3.5 C 95 % 2.78 C
318 28-02-2014 05:10:00 3.5 C 95 % 2.78 C
319 28-02-2014 05:15:00 3.6 C 95 % 2.88 C
320 28-02-2014 05:20:00 3.6 C 95 % 2.88 C
321 28-02-2014 05:25:00 3.6 C 95 % 2.88 C
322 28-02-2014 05:30:00 3.6 C 95 % 2.88 C
323 28-02-2014 05:35:00 3.6 C 95 % 2.88 C
324 28-02-2014 05:40:00 3.6 C 95 % 2.88 C
325 28-02-2014 05:45:00 3.6 C 95 % 2.88 C
Sensor: Nr:Datum:Temp:Feuchte:Taupunkt:
Aussen-T/F 326 28-02-2014 05:50:00 3.6 C 96 % 3.02 C
327 28-02-2014 05:55:00 3.7 C 96 % 3.12 C
328 28-02-2014 06:00:00 3.7 C 96 % 3.12 C
329 28-02-2014 06:05:00 3.7 C 96 % 3.12 C
330 28-02-2014 06:10:00 3.8 C 96 % 3.22 C
331 28-02-2014 06:15:00 3.8 C 96 % 3.22 C
332 28-02-2014 06:20:00 3.9 C 96 % 3.32 C
333 28-02-2014 06:25:00 3.9 C 96 % 3.32 C
334 28-02-2014 06:30:00 3.9 C 95 % 3.17 C
335 28-02-2014 06:35:00 3.9 C 95 % 3.17 C
336 28-02-2014 06:40:00 3.9 C 95 % 3.17 C
337 28-02-2014 06:45:00 3.9 C 95 % 3.17 C
338 28-02-2014 06:50:00 4 C 96 % 3.42 C
339 28-02-2014 06:55:00 4 C 96 % 3.42 C
340 28-02-2014 07:00:00 4.1 C 96 % 3.52 C
341 28-02-2014 07:05:00 4.1 C 96 % 3.52 C
342 28-02-2014 07:10:00 4.1 C 96 % 3.52 C
343 28-02-2014 07:15:00 4.1 C 96 % 3.52 C
344 28-02-2014 07:20:00 4.1 C 96 % 3.52 C
345 28-02-2014 07:25:00 4.1 C 96 % 3.52 C
346 28-02-2014 07:30:00 4.2 C 96 % 3.62 C
347 28-02-2014 07:35:00 4.2 C 96 % 3.62 C
348 28-02-2014 07:40:00 4.2 C 96 % 3.62 C
349 28-02-2014 07:45:00 4.1 C 96 % 3.52 C
350 28-02-2014 07:50:00 4.1 C 95 % 3.37 C
Sensor: Nr:Datum:Temp:Feuchte:Taupunkt:
Aussen-T/F 351 28-02-2014 07:55:00 4.1 C 95 % 3.37 C
352 28-02-2014 08:00:00 4.2 C 96 % 3.62 C
353 28-02-2014 08:05:00 4.3 C 95 % 3.57 C
354 28-02-2014 08:10:00 4.4 C 95 % 3.67 C
355 28-02-2014 08:15:00 4.4 C 95 % 3.67 C
356 28-02-2014 08:20:00 4.6 C 95 % 3.87 C
357 28-02-2014 08:25:00 4.7 C 95 % 3.97 C
358 28-02-2014 08:30:00 4.7 C 95 % 3.97 C
359 28-02-2014 08:35:00 4.8 C 94 % 3.92 C
360 28-02-2014 08:40:00 4.9 C 94 % 4.02 C
361 28-02-2014 08:45:00 5 C 93 % 3.96 C
362 28-02-2014 08:50:00 5.1 C 93 % 4.06 C
363 28-02-2014 08:55:00 5.2 C 92 % 4.01 C
364 28-02-2014 09:00:00 5.3 C 92 % 4.11 C
365 28-02-2014 09:05:00 5.4 C 92 % 4.21 C
366 28-02-2014 09:10:00 5.6 C 91 % 4.25 C
367 28-02-2014 09:15:00 5.6 C 91 % 4.25 C
368 28-02-2014 09:20:00 5.6 C 90 % 4.09 C
369 28-02-2014 09:25:00 5.7 C 90 % 4.19 C
370 28-02-2014 09:30:00 5.7 C 90 % 4.19 C
371 28-02-2014 09:35:00 5.7 C 90 % 4.19 C
372 28-02-2014 09:40:00 5.8 C 89 % 4.13 C
373 28-02-2014 09:45:00 5.8 C 90 % 4.29 C
374 28-02-2014 09:50:00 5.9 C 89 % 4.23 C
375 28-02-2014 09:55:00 6.1 C 89 % 4.43 C
Sensor: Nr:Datum:Temp:Feuchte:Taupunkt:
Aussen-T/F 376 28-02-2014 10:00:00 6.2 C 89 % 4.53 C
377 28-02-2014 10:05:00 6.4 C 89 % 4.72 C
378 28-02-2014 10:10:00 6.6 C 88 % 4.76 C
379 28-02-2014 10:15:00 6.7 C 87 % 4.69 C
380 28-02-2014 10:20:00 6.8 C 87 % 4.79 C
381 28-02-2014 10:25:00 6.8 C 85 % 4.46 C
382 28-02-2014 10:30:00 6.8 C 86 % 4.63 C
383 28-02-2014 10:35:00 6.9 C 86 % 4.72 C
384 28-02-2014 10:40:00 6.9 C 86 % 4.72 C
385 28-02-2014 10:45:00 6.9 C 86 % 4.72 C
386 28-02-2014 10:50:00 7 C 86 % 4.82 C
387 28-02-2014 10:55:00 7.1 C 85 % 4.75 C
388 28-02-2014 11:00:00 7.2 C 86 % 5.02 C
389 28-02-2014 11:05:00 7.4 C 84 % 4.88 C
390 28-02-2014 11:10:00 7.6 C 83 % 4.9 C
391 28-02-2014 11:15:00 7.7 C 82 % 4.83 C
392 28-02-2014 11:20:00 7.7 C 82 % 4.83 C
393 28-02-2014 11:25:00 7.7 C 81 % 4.65 C
394 28-02-2014 11:30:00 7.7 C 82 % 4.83 C
395 28-02-2014 11:35:00 7.9 C 83 % 5.2 C
396 28-02-2014 11:40:00 8 C 82 % 5.12 C
397 28-02-2014 11:45:00 8.1 C 82 % 5.22 C
398 28-02-2014 11:50:00 8.2 C 81 % 5.14 C
399 28-02-2014 11:55:00 8.2 C 82 % 5.32 C
400 28-02-2014 12:00:00 8.2 C 80 % 4.96 C
Sensor: Nr:Datum:Temp:Feuchte:Taupunkt:
Aussen-T/F 401 28-02-2014 12:05:00 8.2 C 80 % 4.96 C
402 28-02-2014 12:10:00 8.2 C 81 % 5.14 C
403 28-02-2014 12:15:00 8.3 C 80 % 5.06 C
404 28-02-2014 12:20:00 8.2 C 80 % 4.96 C
405 28-02-2014 12:25:00 8 C 80 % 4.77 C
406 28-02-2014 12:30:00 7.9 C 81 % 4.85 C
407 28-02-2014 12:35:00 7.9 C 83 % 5.2 C
408 28-02-2014 12:40:00 7.8 C 83 % 5.1 C
409 28-02-2014 12:45:00 7.7 C 86 % 5.51 C
410 28-02-2014 12:50:00 7.7 C 84 % 5.17 C
411 28-02-2014 12:55:00 7.8 C 87 % 5.78 C
412 28-02-2014 13:00:00 7.8 C 85 % 5.44 C
413 28-02-2014 13:05:00 7.9 C 85 % 5.54 C
414 28-02-2014 13:10:00 8.1 C 85 % 5.73 C
415 28-02-2014 13:15:00 8.2 C 81 % 5.14 C
416 28-02-2014 13:20:00 8.4 C 82 % 5.51 C
417 28-02-2014 13:25:00 8.6 C 80 % 5.35 C
418 28-02-2014 13:30:00 8.5 C 79 % 5.07 C
419 28-02-2014 13:35:00 8.5 C 77 % 4.71 C
420 28-02-2014 13:40:00 8.8 C 80 % 5.55 C
421 28-02-2014 13:45:00 8.9 C 78 % 5.28 C
422 28-02-2014 13:50:00 9 C 76 % 5 C
423 28-02-2014 13:55:00 9.1 C 77 % 5.29 C
424 28-02-2014 14:00:00 9.1 C 76 % 5.1 C
425 28-02-2014 14:05:00 9.1 C 77 % 5.29 C
Sensor: Nr:Datum:Temp:Feuchte:Taupunkt:
Aussen-T/F 426 28-02-2014 14:10:00 9.3 C 75 % 5.1 C
427 28-02-2014 14:15:00 9.4 C 71 % 4.42 C
428 28-02-2014 14:20:00 9.2 C 73 % 4.62 C
429 28-02-2014 14:25:00 9.2 C 76 % 5.2 C
430 28-02-2014 14:30:00 9.4 C 77 % 5.58 C
431 28-02-2014 14:35:00 9.7 C 76 % 5.68 C
432 28-02-2014 14:40:00 9.8 C 71 % 4.8 C
433 28-02-2014 14:45:00 9.7 C 74 % 5.3 C
434 28-02-2014 14:50:00 9.7 C 72 % 4.9 C
435 28-02-2014 14:55:00 9.6 C 71 % 4.61 C
436 28-02-2014 15:00:00 9.5 C 73 % 4.91 C
437 28-02-2014 15:05:00 9.4 C 73 % 4.81 C
438 28-02-2014 15:10:00 9.3 C 73 % 4.72 C
439 28-02-2014 15:15:00 9.2 C 72 % 4.42 C
440 28-02-2014 15:20:00 9.1 C 73 % 4.52 C
441 28-02-2014 15:25:00 9.1 C 74 % 4.72 C
442 28-02-2014 15:30:00 9.1 C 74 % 4.72 C
443 28-02-2014 15:35:00 9.1 C 74 % 4.72 C
444 28-02-2014 16:15:00 9.3 C 74 % 4.91 C
445 28-02-2014 16:20:00 9.3 C 72 % 4.52 C
446 28-02-2014 16:25:00 9.3 C 72 % 4.52 C
447 28-02-2014 17:05:00 9.4 C 73 % 4.81 C
448 28-02-2014 17:10:00 9.4 C 74 % 5.01 C
449 28-02-2014 17:15:00 9.3 C 74 % 4.91 C
450 28-02-2014 17:20:00 9.2 C 74 % 4.81 C
Sensor: Nr:Datum:Temp:Feuchte:Taupunkt:
Aussen-T/F 451 28-02-2014 17:25:00 9.1 C 75 % 4.91 C
452 28-02-2014 17:30:00 9.1 C 75 % 4.91 C
453 28-02-2014 17:35:00 9 C 74 % 4.62 C
454 28-02-2014 17:40:00 8.9 C 76 % 4.91 C
455 28-02-2014 17:45:00 8.9 C 77 % 5.09 C
456 28-02-2014 17:50:00 8.8 C 77 % 5 C
457 28-02-2014 17:55:00 8.7 C 77 % 4.9 C
458 28-02-2014 18:00:00 8.7 C 78 % 5.08 C
459 28-02-2014 18:05:00 8.6 C 77 % 4.8 C
460 28-02-2014 18:10:00 8.5 C 79 % 5.07 C
461 28-02-2014 18:15:00 8.3 C 80 % 5.06 C
462 28-02-2014 18:20:00 8.2 C 81 % 5.14 C
463 28-02-2014 18:25:00 8.1 C 82 % 5.22 C
464 28-02-2014 18:30:00 7.9 C 82 % 5.02 C
465 28-02-2014 18:35:00 7.8 C 81 % 4.75 C
466 28-02-2014 18:40:00 7.9 C 82 % 5.02 C
467 28-02-2014 18:45:00 7.8 C 83 % 5.1 C
468 28-02-2014 18:50:00 7.7 C 83 % 5 C
469 28-02-2014 18:55:00 7.7 C 84 % 5.17 C
470 28-02-2014 19:00:00 7.6 C 82 % 4.73 C
471 28-02-2014 19:05:00 7.6 C 83 % 4.9 C
472 28-02-2014 19:10:00 7.6 C 84 % 5.07 C
473 28-02-2014 19:15:00 7.4 C 84 % 4.88 C
474 28-02-2014 19:20:00 7.2 C 85 % 4.85 C
475 28-02-2014 19:25:00 7 C 85 % 4.66 C
Sensor: Nr:Datum:Temp:Feuchte:Taupunkt:
Aussen-T/F 476 28-02-2014 19:30:00 6.8 C 85 % 4.46 C
477 28-02-2014 19:35:00 6.7 C 87 % 4.69 C
478 28-02-2014 19:40:00 6.7 C 86 % 4.53 C
479 28-02-2014 19:45:00 6.6 C 87 % 4.6 C
480 28-02-2014 19:50:00 6.5 C 87 % 4.5 C
481 28-02-2014 19:55:00 6.4 C 88 % 4.56 C
482 28-02-2014 20:00:00 6.4 C 88 % 4.56 C
483 28-02-2014 20:05:00 6.4 C 88 % 4.56 C
484 28-02-2014 20:10:00 6.5 C 88 % 4.66 C
485 28-02-2014 20:15:00 6.6 C 89 % 4.92 C
486 28-02-2014 20:20:00 6.6 C 89 % 4.92 C
487 28-02-2014 20:25:00 6.6 C 89 % 4.92 C
488 28-02-2014 20:30:00 6.7 C 89 % 5.02 C
489 28-02-2014 20:35:00 6.7 C 88 % 4.86 C
490 28-02-2014 20:40:00 6.7 C 88 % 4.86 C
491 28-02-2014 20:45:00 6.7 C 88 % 4.86 C
492 28-02-2014 20:50:00 6.8 C 87 % 4.79 C
493 28-02-2014 20:55:00 6.9 C 86 % 4.72 C
494 28-02-2014 21:00:00 7.1 C 87 % 5.09 C
495 28-02-2014 21:05:00 7.1 C 86 % 4.92 C
496 28-02-2014 21:10:00 7.1 C 87 % 5.09 C
497 28-02-2014 21:15:00 7.1 C 87 % 5.09 C
498 28-02-2014 21:20:00 7 C 88 % 5.15 C
499 28-02-2014 21:25:00 6.9 C 88 % 5.05 C
500 28-02-2014 21:30:00 6.9 C 89 % 5.22 C
Sensor: Nr:Datum:Temp:Feuchte:Taupunkt:
Aussen-T/F 501 28-02-2014 21:35:00 6.8 C 90 % 5.28 C
502 28-02-2014 21:40:00 6.8 C 90 % 5.28 C
503 28-02-2014 21:45:00 6.7 C 91 % 5.34 C
504 28-02-2014 21:50:00 6.6 C 92 % 5.4 C
505 28-02-2014 21:55:00 6.6 C 92 % 5.4 C
506 28-02-2014 22:00:00 6.5 C 92 % 5.3 C
507 28-02-2014 22:05:00 6.4 C 93 % 5.35 C
508 28-02-2014 22:10:00 6.4 C 93 % 5.35 C
509 28-02-2014 22:15:00 6.4 C 93 % 5.35 C
510 28-02-2014 22:20:00 6.4 C 93 % 5.35 C
511 28-02-2014 22:25:00 6.4 C 94 % 5.51 C
512 28-02-2014 22:30:00 6.3 C 94 % 5.41 C
513 28-02-2014 22:35:00 6.2 C 93 % 5.15 C
514 28-02-2014 22:40:00 6.2 C 92 % 5 C
515 28-02-2014 22:45:00 6.2 C 92 % 5 C
516 28-02-2014 22:50:00 6.1 C 93 % 5.06 C
517 28-02-2014 22:55:00 6.1 C 93 % 5.06 C
518 28-02-2014 23:00:00 5.9 C 94 % 5.01 C
519 28-02-2014 23:05:00 5.9 C 94 % 5.01 C
520 28-02-2014 23:10:00 5.8 C 94 % 4.91 C
521 28-02-2014 23:15:00 5.8 C 94 % 4.91 C
522 28-02-2014 23:20:00 5.8 C 94 % 4.91 C
523 28-02-2014 23:25:00 5.7 C 94 % 4.81 C
524 28-02-2014 23:30:00 5.7 C 95 % 4.96 C
525 28-02-2014 23:35:00 5.6 C 95 % 4.86 C
Sensor: Nr:Datum:Temp:Feuchte:Taupunkt:
Aussen-T/F 526 28-02-2014 23:40:00 5.5 C 95 % 4.76 C
527 28-02-2014 23:45:00 5.4 C 95 % 4.66 C
528 28-02-2014 23:50:00 5.4 C 95 % 4.66 C
529 28-02-2014 23:55:00 5.3 C 95 % 4.57 C
530 01-03-2014 00:00:00 5.3 C 95 % 4.57 C
531 01-03-2014 00:05:00 5.3 C 95 % 4.57 C
532 01-03-2014 00:10:00 5.3 C 95 % 4.57 C
533 01-03-2014 00:15:00 5.3 C 96 % 4.72 C
534 01-03-2014 00:20:00 5.3 C 96 % 4.72 C
535 01-03-2014 00:25:00 5.3 C 96 % 4.72 C
536 01-03-2014 00:30:00 5.3 C 96 % 4.72 C
537 01-03-2014 00:35:00 5.3 C 96 % 4.72 C
538 01-03-2014 00:40:00 5.3 C 96 % 4.72 C
539 01-03-2014 00:45:00 5.3 C 96 % 4.72 C
540 01-03-2014 00:50:00 5.3 C 96 % 4.72 C
541 01-03-2014 00:55:00 5.2 C 96 % 4.62 C
542 01-03-2014 01:00:00 5.2 C 96 % 4.62 C
543 01-03-2014 01:05:00 5.2 C 96 % 4.62 C
544 01-03-2014 01:10:00 5.1 C 96 % 4.52 C
545 01-03-2014 01:15:00 5 C 96 % 4.42 C
546 01-03-2014 01:20:00 4.9 C 96 % 4.32 C
547 01-03-2014 01:25:00 4.8 C 96 % 4.22 C
548 01-03-2014 01:30:00 4.8 C 96 % 4.22 C
549 01-03-2014 01:35:00 4.7 C 96 % 4.12 C
550 01-03-2014 01:40:00 4.6 C 96 % 4.02 C
Sensor: Nr:Datum:Temp:Feuchte:Taupunkt:
Aussen-T/F 551 01-03-2014 01:45:00 4.5 C 96 % 3.92 C
552 01-03-2014 01:50:00 4.5 C 96 % 3.92 C
553 01-03-2014 01:55:00 4.6 C 96 % 4.02 C
554 01-03-2014 02:00:00 4.7 C 96 % 4.12 C
555 01-03-2014 02:05:00 4.7 C 97 % 4.27 C
556 01-03-2014 02:10:00 4.8 C 97 % 4.37 C
557 01-03-2014 02:15:00 4.8 C 97 % 4.37 C
558 01-03-2014 02:20:00 4.9 C 97 % 4.46 C
559 01-03-2014 02:25:00 4.9 C 97 % 4.46 C
560 01-03-2014 02:30:00 4.9 C 97 % 4.46 C
561 01-03-2014 02:35:00 4.9 C 96 % 4.32 C
562 01-03-2014 02:40:00 4.9 C 96 % 4.32 C
563 01-03-2014 02:45:00 4.9 C 96 % 4.32 C
564 01-03-2014 02:50:00 4.9 C 96 % 4.32 C
565 01-03-2014 02:55:00 4.9 C 96 % 4.32 C
566 01-03-2014 03:00:00 4.8 C 96 % 4.22 C
567 01-03-2014 03:05:00 4.6 C 96 % 4.02 C
568 01-03-2014 03:10:00 4.4 C 96 % 3.82 C
569 01-03-2014 03:15:00 4.3 C 96 % 3.72 C
570 01-03-2014 03:20:00 4.3 C 96 % 3.72 C
571 01-03-2014 03:25:00 4.2 C 96 % 3.62 C
572 01-03-2014 03:30:00 4.1 C 96 % 3.52 C
573 01-03-2014 03:35:00 4 C 96 % 3.42 C
574 01-03-2014 03:40:00 3.9 C 96 % 3.32 C
575 01-03-2014 03:45:00 3.9 C 96 % 3.32 C
Sensor: Nr:Datum:Temp:Feuchte:Taupunkt:
Aussen-T/F 576 01-03-2014 03:50:00 3.9 C 96 % 3.32 C
577 01-03-2014 03:55:00 3.9 C 96 % 3.32 C
578 01-03-2014 04:00:00 3.9 C 96 % 3.32 C
579 01-03-2014 04:05:00 4 C 96 % 3.42 C
580 01-03-2014 04:10:00 4 C 96 % 3.42 C
581 01-03-2014 04:15:00 3.9 C 96 % 3.32 C
582 01-03-2014 04:20:00 3.9 C 96 % 3.32 C
583 01-03-2014 04:25:00 3.9 C 96 % 3.32 C
584 01-03-2014 04:30:00 3.8 C 96 % 3.22 C
585 01-03-2014 04:35:00 3.7 C 96 % 3.12 C
586 01-03-2014 04:40:00 3.5 C 96 % 2.92 C
587 01-03-2014 04:45:00 3.3 C 96 % 2.72 C
588 01-03-2014 04:50:00 3.2 C 96 % 2.63 C
589 01-03-2014 04:55:00 3 C 96 % 2.43 C
590 01-03-2014 05:00:00 2.9 C 96 % 2.33 C
591 01-03-2014 05:05:00 2.9 C 96 % 2.33 C
592 01-03-2014 05:10:00 2.8 C 96 % 2.23 C
593 01-03-2014 05:15:00 2.8 C 96 % 2.23 C
594 01-03-2014 05:20:00 2.7 C 96 % 2.13 C
595 01-03-2014 05:25:00 2.7 C 96 % 2.13 C
596 01-03-2014 05:30:00 2.6 C 96 % 2.03 C
597 01-03-2014 05:35:00 2.6 C 96 % 2.03 C
598 01-03-2014 05:40:00 2.5 C 96 % 1.93 C
599 01-03-2014 05:45:00 2.4 C 96 % 1.83 C
600 01-03-2014 05:50:00 2.4 C 96 % 1.83 C
Sensor: Nr:Datum:Temp:Feuchte:Taupunkt:
Aussen-T/F 601 01-03-2014 05:55:00 2.4 C 96 % 1.83 C
602 01-03-2014 06:00:00 2.4 C 96 % 1.83 C
603 01-03-2014 06:05:00 2.5 C 96 % 1.93 C
604 01-03-2014 06:10:00 2.5 C 96 % 1.93 C
605 01-03-2014 06:15:00 2.6 C 96 % 2.03 C
606 01-03-2014 06:20:00 2.6 C 97 % 2.17 C
607 01-03-2014 06:25:00 2.6 C 97 % 2.17 C
608 01-03-2014 06:30:00 2.6 C 97 % 2.17 C
609 01-03-2014 06:35:00 2.6 C 97 % 2.17 C
610 01-03-2014 06:40:00 2.6 C 97 % 2.17 C
611 01-03-2014 06:45:00 2.6 C 97 % 2.17 C
612 01-03-2014 06:50:00 2.6 C 97 % 2.17 C
613 01-03-2014 06:55:00 2.6 C 97 % 2.17 C
614 01-03-2014 07:00:00 2.7 C 97 % 2.27 C
615 01-03-2014 07:05:00 2.7 C 97 % 2.27 C
616 01-03-2014 07:10:00 2.7 C 97 % 2.27 C
617 01-03-2014 07:15:00 2.7 C 97 % 2.27 C
618 01-03-2014 07:20:00 2.7 C 97 % 2.27 C
619 01-03-2014 07:25:00 2.7 C 97 % 2.27 C
620 01-03-2014 07:30:00 2.8 C 97 % 2.37 C
621 01-03-2014 07:35:00 2.8 C 97 % 2.37 C
622 01-03-2014 07:40:00 2.8 C 97 % 2.37 C
623 01-03-2014 07:45:00 2.8 C 97 % 2.37 C
624 01-03-2014 07:50:00 2.8 C 97 % 2.37 C
625 01-03-2014 07:55:00 2.8 C 97 % 2.37 C
Sensor: Nr:Datum:Temp:Feuchte:Taupunkt:
Aussen-T/F 626 01-03-2014 08:00:00 2.9 C 97 % 2.47 C
627 01-03-2014 08:05:00 2.9 C 97 % 2.47 C
628 01-03-2014 08:10:00 2.9 C 97 % 2.47 C
629 01-03-2014 08:15:00 2.9 C 97 % 2.47 C
630 01-03-2014 08:20:00 3 C 97 % 2.57 C
631 01-03-2014 08:25:00 3.1 C 97 % 2.67 C
632 01-03-2014 08:30:00 3.2 C 97 % 2.77 C
633 01-03-2014 08:35:00 3.2 C 97 % 2.77 C
634 01-03-2014 08:40:00 3.3 C 97 % 2.87 C
635 01-03-2014 08:45:00 3.3 C 97 % 2.87 C
636 01-03-2014 08:50:00 3.4 C 97 % 2.97 C
637 01-03-2014 08:55:00 3.5 C 97 % 3.07 C
638 01-03-2014 09:00:00 3.6 C 97 % 3.17 C
639 01-03-2014 09:05:00 3.6 C 97 % 3.17 C
640 01-03-2014 09:10:00 3.6 C 97 % 3.17 C
641 01-03-2014 09:15:00 3.6 C 97 % 3.17 C
642 01-03-2014 09:20:00 3.6 C 97 % 3.17 C
643 01-03-2014 09:25:00 3.6 C 97 % 3.17 C
644 01-03-2014 09:30:00 3.7 C 97 % 3.27 C
645 01-03-2014 09:35:00 3.8 C 97 % 3.37 C
646 01-03-2014 09:40:00 3.9 C 97 % 3.47 C
647 01-03-2014 09:45:00 4.1 C 97 % 3.67 C
648 01-03-2014 09:50:00 4.2 C 97 % 3.77 C
649 01-03-2014 09:55:00 4.3 C 97 % 3.87 C
650 01-03-2014 10:00:00 4.5 C 97 % 4.07 C
Sensor: Nr:Datum:Temp:Feuchte:Taupunkt:
Aussen-T/F 651 01-03-2014 10:05:00 4.7 C 97 % 4.27 C
652 01-03-2014 10:10:00 4.8 C 97 % 4.37 C
653 01-03-2014 10:15:00 5.1 C 97 % 4.66 C
654 01-03-2014 10:20:00 5.2 C 96 % 4.62 C
655 01-03-2014 10:25:00 5.4 C 96 % 4.81 C
656 01-03-2014 10:30:00 5.5 C 95 % 4.76 C
657 01-03-2014 10:35:00 5.7 C 95 % 4.96 C
658 01-03-2014 10:40:00 5.8 C 94 % 4.91 C
659 01-03-2014 10:45:00 5.9 C 93 % 4.86 C
660 01-03-2014 10:50:00 6.1 C 91 % 4.74 C
661 01-03-2014 10:55:00 6.3 C 91 % 4.94 C
662 01-03-2014 11:00:00 6.4 C 88 % 4.56 C
663 01-03-2014 11:05:00 6.6 C 87 % 4.6 C
664 01-03-2014 11:10:00 6.8 C 87 % 4.79 C
665 01-03-2014 11:15:00 6.9 C 86 % 4.72 C
666 01-03-2014 11:20:00 7.1 C 85 % 4.75 C
667 01-03-2014 11:25:00 7.2 C 85 % 4.85 C
668 01-03-2014 11:30:00 7.3 C 83 % 4.61 C
669 01-03-2014 11:35:00 7.4 C 83 % 4.71 C
670 01-03-2014 11:40:00 7.6 C 84 % 5.07 C
671 01-03-2014 11:45:00 7.7 C 83 % 5 C
672 01-03-2014 11:50:00 7.8 C 82 % 4.92 C
673 01-03-2014 11:55:00 7.8 C 82 % 4.92 C
674 01-03-2014 12:00:00 7.8 C 82 % 4.92 C
675 01-03-2014 12:05:00 7.9 C 81 % 4.85 C
Sensor: Nr:Datum:Temp:Feuchte:Taupunkt:
Aussen-T/F 676 01-03-2014 12:10:00 7.9 C 80 % 4.67 C
677 01-03-2014 12:15:00 8 C 81 % 4.94 C
678 01-03-2014 12:20:00 8.1 C 81 % 5.04 C
679 01-03-2014 12:25:00 8.3 C 80 % 5.06 C
680 01-03-2014 12:30:00 8.3 C 80 % 5.06 C
681 01-03-2014 12:35:00 8.3 C 80 % 5.06 C
682 01-03-2014 12:40:00 8.4 C 82 % 5.51 C
683 01-03-2014 12:45:00 8.6 C 81 % 5.53 C
684 01-03-2014 12:50:00 8.7 C 80 % 5.45 C
685 01-03-2014 12:55:00 8.7 C 80 % 5.45 C
686 01-03-2014 13:00:00 8.8 C 80 % 5.55 C
687 01-03-2014 13:05:00 8.8 C 78 % 5.18 C
688 01-03-2014 13:10:00 8.8 C 76 % 4.81 C
689 01-03-2014 13:15:00 8.8 C 77 % 5 C
690 01-03-2014 13:20:00 8.9 C 76 % 4.91 C
691 01-03-2014 13:25:00 9 C 76 % 5 C
692 01-03-2014 13:30:00 9.1 C 74 % 4.72 C
693 01-03-2014 13:35:00 9.1 C 74 % 4.72 C
694 01-03-2014 13:40:00 9 C 73 % 4.43 C
695 01-03-2014 13:45:00 9.1 C 75 % 4.91 C
696 01-03-2014 13:50:00 9.1 C 74 % 4.72 C
697 01-03-2014 13:55:00 9.2 C 73 % 4.62 C
698 01-03-2014 14:00:00 9.3 C 73 % 4.72 C
699 01-03-2014 14:05:00 9.3 C 69 % 3.91 C
700 01-03-2014 14:10:00 9.3 C 71 % 4.32 C
Sensor: Nr:Datum:Temp:Feuchte:Taupunkt:
Aussen-T/F 701 01-03-2014 14:15:00 9.4 C 71 % 4.42 C
702 01-03-2014 14:20:00 9.3 C 68 % 3.71 C
703 01-03-2014 14:25:00 9.2 C 68 % 3.61 C
704 01-03-2014 14:30:00 9.2 C 70 % 4.02 C
705 01-03-2014 14:35:00 9.3 C 69 % 3.91 C
706 01-03-2014 14:40:00 9.3 C 68 % 3.71 C
707 01-03-2014 14:45:00 9.3 C 70 % 4.12 C
708 01-03-2014 14:50:00 9.3 C 70 % 4.12 C
709 01-03-2014 14:55:00 9.3 C 70 % 4.12 C
710 01-03-2014 15:00:00 9.4 C 69 % 4.01 C
711 01-03-2014 15:05:00 9.5 C 69 % 4.11 C
712 01-03-2014 15:10:00 9.6 C 69 % 4.2 C
713 01-03-2014 15:15:00 9.6 C 69 % 4.2 C
714 01-03-2014 15:20:00 9.5 C 68 % 3.9 C
715 01-03-2014 15:25:00 9.4 C 67 % 3.59 C
716 01-03-2014 15:30:00 9.4 C 66 % 3.38 C
717 01-03-2014 15:35:00 9.3 C 67 % 3.5 C
718 01-03-2014 15:40:00 9.3 C 67 % 3.5 C
719 01-03-2014 15:45:00 9.3 C 69 % 3.91 C
720 01-03-2014 15:50:00 9.3 C 69 % 3.91 C
721 01-03-2014 15:55:00 9.3 C 69 % 3.91 C
722 01-03-2014 16:00:00 9.2 C 69 % 3.82 C
723 01-03-2014 16:05:00 9.2 C 69 % 3.82 C
724 01-03-2014 16:10:00 9.2 C 69 % 3.82 C
725 01-03-2014 16:15:00 9.1 C 68 % 3.52 C
Sensor: Nr:Datum:Temp:Feuchte:Taupunkt:
Aussen-T/F 726 01-03-2014 16:20:00 9.1 C 68 % 3.52 C
727 01-03-2014 16:25:00 9.1 C 68 % 3.52 C
728 01-03-2014 16:30:00 9.1 C 68 % 3.52 C
729 01-03-2014 16:35:00 9.1 C 68 % 3.52 C
730 01-03-2014 16:40:00 9 C 68 % 3.42 C
731 01-03-2014 16:45:00 8.9 C 68 % 3.32 C
732 01-03-2014 16:50:00 8.9 C 71 % 3.94 C
733 01-03-2014 16:55:00 8.8 C 73 % 4.24 C
734 01-03-2014 17:00:00 8.7 C 72 % 3.94 C
735 01-03-2014 17:05:00 8.6 C 71 % 3.65 C
736 01-03-2014 17:10:00 8.6 C 72 % 3.85 C
737 01-03-2014 17:15:00 8.4 C 74 % 4.04 C
738 01-03-2014 17:20:00 8.2 C 75 % 4.04 C
739 01-03-2014 17:25:00 7.9 C 77 % 4.12 C
740 01-03-2014 17:30:00 7.8 C 77 % 4.03 C
741 01-03-2014 17:35:00 7.6 C 78 % 4.02 C
742 01-03-2014 17:40:00 7.5 C 79 % 4.1 C
743 01-03-2014 17:45:00 7.4 C 79 % 4 C
744 01-03-2014 17:50:00 7.4 C 80 % 4.18 C
745 01-03-2014 17:55:00 7.4 C 80 % 4.18 C
746 01-03-2014 18:00:00 7.4 C 80 % 4.18 C
747 01-03-2014 18:05:00 7.4 C 81 % 4.36 C
748 01-03-2014 18:10:00 7.3 C 81 % 4.26 C
749 01-03-2014 18:15:00 7.3 C 82 % 4.44 C
750 01-03-2014 18:20:00 7.2 C 82 % 4.34 C
Sensor: Nr:Datum:Temp:Feuchte:Taupunkt:
Aussen-T/F 751 01-03-2014 18:25:00 7.1 C 83 % 4.41 C
752 01-03-2014 18:30:00 6.9 C 84 % 4.39 C
753 01-03-2014 18:35:00 6.8 C 85 % 4.46 C
754 01-03-2014 18:40:00 6.7 C 85 % 4.36 C
755 01-03-2014 18:45:00 6.6 C 86 % 4.43 C
756 01-03-2014 18:50:00 6.5 C 86 % 4.33 C
757 01-03-2014 18:55:00 6.4 C 87 % 4.4 C
758 01-03-2014 19:00:00 6.4 C 88 % 4.56 C
759 01-03-2014 19:05:00 6.3 C 88 % 4.46 C
760 01-03-2014 19:10:00 6.3 C 88 % 4.46 C
761 01-03-2014 19:15:00 6.3 C 88 % 4.46 C
762 01-03-2014 19:20:00 6.3 C 88 % 4.46 C
763 01-03-2014 19:25:00 6.3 C 88 % 4.46 C
764 01-03-2014 19:30:00 6.2 C 88 % 4.36 C
765 01-03-2014 19:35:00 6.1 C 88 % 4.27 C
766 01-03-2014 19:40:00 6 C 88 % 4.17 C
767 01-03-2014 19:45:00 5.9 C 88 % 4.07 C
768 01-03-2014 19:50:00 5.9 C 89 % 4.23 C
769 01-03-2014 19:55:00 5.9 C 89 % 4.23 C
770 01-03-2014 20:00:00 5.8 C 88 % 3.97 C
771 01-03-2014 20:05:00 5.8 C 89 % 4.13 C
772 01-03-2014 20:10:00 5.7 C 89 % 4.03 C
773 01-03-2014 20:15:00 5.5 C 88 % 3.67 C
774 01-03-2014 20:20:00 5.4 C 89 % 3.74 C
775 01-03-2014 20:25:00 5.2 C 89 % 3.54 C
Sensor: Nr:Datum:Temp:Feuchte:Taupunkt:
Aussen-T/F 776 01-03-2014 20:30:00 5.2 C 90 % 3.7 C
777 01-03-2014 20:35:00 5.1 C 90 % 3.6 C
778 01-03-2014 20:40:00 4.9 C 90 % 3.4 C
779 01-03-2014 20:45:00 4.8 C 90 % 3.3 C
780 01-03-2014 20:50:00 4.6 C 90 % 3.1 C
781 01-03-2014 20:55:00 4.4 C 91 % 3.06 C
782 01-03-2014 21:00:00 4.2 C 90 % 2.71 C
783 01-03-2014 21:05:00 4.1 C 91 % 2.77 C
784 01-03-2014 21:10:00 3.9 C 91 % 2.57 C
785 01-03-2014 21:15:00 3.8 C 91 % 2.47 C
786 01-03-2014 21:20:00 3.7 C 92 % 2.52 C
787 01-03-2014 21:25:00 3.6 C 92 % 2.42 C
788 01-03-2014 21:30:00 3.5 C 91 % 2.17 C
789 01-03-2014 21:35:00 3.4 C 92 % 2.23 C
790 01-03-2014 21:40:00 3.3 C 92 % 2.13 C
791 01-03-2014 21:45:00 3.2 C 92 % 2.03 C
792 01-03-2014 21:50:00 3.1 C 92 % 1.93 C
793 01-03-2014 21:55:00 3.1 C 93 % 2.08 C
794 01-03-2014 22:00:00 3 C 93 % 1.98 C
795 01-03-2014 22:05:00 2.9 C 93 % 1.88 C
796 01-03-2014 22:10:00 2.9 C 93 % 1.88 C
797 01-03-2014 22:15:00 2.8 C 93 % 1.78 C
798 01-03-2014 22:20:00 2.7 C 93 % 1.68 C
799 01-03-2014 22:25:00 2.8 C 94 % 1.93 C
800 01-03-2014 22:30:00 2.8 C 94 % 1.93 C
Sensor: Nr:Datum:Temp:Feuchte:Taupunkt:
Aussen-T/F 801 01-03-2014 22:35:00 2.8 C 94 % 1.93 C
802 01-03-2014 22:40:00 2.9 C 94 % 2.03 C
803 01-03-2014 22:45:00 2.9 C 94 % 2.03 C
804 01-03-2014 22:50:00 2.9 C 94 % 2.03 C
805 01-03-2014 22:55:00 2.9 C 94 % 2.03 C
806 01-03-2014 23:00:00 3 C 94 % 2.13 C
807 01-03-2014 23:05:00 2.9 C 93 % 1.88 C
808 01-03-2014 23:10:00 2.8 C 94 % 1.93 C
809 01-03-2014 23:15:00 2.8 C 94 % 1.93 C
810 01-03-2014 23:20:00 2.7 C 93 % 1.68 C
811 01-03-2014 23:25:00 2.6 C 94 % 1.73 C
812 01-03-2014 23:30:00 2.6 C 94 % 1.73 C
813 01-03-2014 23:35:00 2.5 C 93 % 1.49 C
814 01-03-2014 23:40:00 2.4 C 94 % 1.54 C
815 01-03-2014 23:45:00 2.4 C 94 % 1.54 C
816 01-03-2014 23:50:00 2.3 C 94 % 1.44 C
817 01-03-2014 23:55:00 2.1 C 94 % 1.24 C
818 02-03-2014 00:00:00 2.1 C 94 % 1.24 C
819 02-03-2014 00:05:00 2.1 C 94 % 1.24 C
820 02-03-2014 00:10:00 2 C 94 % 1.14 C
821 02-03-2014 00:15:00 1.9 C 94 % 1.04 C
822 02-03-2014 00:20:00 1.8 C 94 % 0.94 C
823 02-03-2014 00:25:00 1.7 C 94 % 0.84 C
824 02-03-2014 00:30:00 1.7 C 95 % 0.99 C
825 02-03-2014 00:35:00 1.8 C 95 % 1.09 C
Sensor: Nr:Datum:Temp:Feuchte:Taupunkt:
Aussen-T/F 826 02-03-2014 00:40:00 1.8 C 95 % 1.09 C
827 02-03-2014 00:45:00 1.7 C 95 % 0.99 C
828 02-03-2014 00:50:00 1.7 C 95 % 0.99 C
829 02-03-2014 00:55:00 1.6 C 95 % 0.89 C
830 02-03-2014 01:00:00 1.6 C 95 % 0.89 C
831 02-03-2014 01:05:00 1.5 C 95 % 0.79 C
832 02-03-2014 01:10:00 1.5 C 95 % 0.79 C
833 02-03-2014 01:15:00 1.6 C 95 % 0.89 C
834 02-03-2014 01:20:00 1.5 C 95 % 0.79 C
835 02-03-2014 01:25:00 1.4 C 95 % 0.69 C
836 02-03-2014 01:30:00 1.4 C 95 % 0.69 C
837 02-03-2014 01:35:00 1.4 C 95 % 0.69 C
838 02-03-2014 01:40:00 1.5 C 96 % 0.93 C
839 02-03-2014 01:45:00 1.5 C 96 % 0.93 C
840 02-03-2014 01:50:00 1.6 C 96 % 1.03 C
841 02-03-2014 01:55:00 1.6 C 96 % 1.03 C
842 02-03-2014 02:00:00 1.6 C 96 % 1.03 C
843 02-03-2014 02:05:00 1.5 C 96 % 0.93 C
844 02-03-2014 02:10:00 1.4 C 95 % 0.69 C
845 02-03-2014 02:15:00 1.4 C 95 % 0.69 C
846 02-03-2014 02:20:00 1.3 C 95 % 0.59 C
847 02-03-2014 02:25:00 1.3 C 95 % 0.59 C
848 02-03-2014 02:30:00 1.3 C 96 % 0.73 C
849 02-03-2014 02:35:00 1.3 C 96 % 0.73 C
850 02-03-2014 02:40:00 1.4 C 96 % 0.83 C
Sensor: Nr:Datum:Temp:Feuchte:Taupunkt:
Aussen-T/F 851 02-03-2014 02:45:00 1.5 C 96 % 0.93 C
852 02-03-2014 02:50:00 1.5 C 96 % 0.93 C
853 02-03-2014 02:55:00 1.6 C 96 % 1.03 C
854 02-03-2014 03:00:00 1.6 C 96 % 1.03 C
855 02-03-2014 03:05:00 1.6 C 96 % 1.03 C
856 02-03-2014 03:10:00 1.7 C 96 % 1.13 C
857 02-03-2014 03:15:00 1.7 C 96 % 1.13 C
858 02-03-2014 03:20:00 1.8 C 96 % 1.23 C
859 02-03-2014 03:25:00 2 C 96 % 1.43 C
860 02-03-2014 03:30:00 2.1 C 96 % 1.53 C
861 02-03-2014 03:35:00 2.2 C 96 % 1.63 C
862 02-03-2014 03:40:00 2.2 C 96 % 1.63 C
863 02-03-2014 03:45:00 2.1 C 96 % 1.53 C
864 02-03-2014 03:50:00 2.2 C 96 % 1.63 C
865 02-03-2014 03:55:00 2.3 C 96 % 1.73 C
866 02-03-2014 04:00:00 2.2 C 96 % 1.63 C
867 02-03-2014 04:05:00 2.1 C 96 % 1.53 C
868 02-03-2014 04:10:00 2 C 96 % 1.43 C
869 02-03-2014 04:15:00 1.9 C 96 % 1.33 C
870 02-03-2014 04:20:00 1.8 C 95 % 1.09 C
871 02-03-2014 04:25:00 1.7 C 95 % 0.99 C
872 02-03-2014 04:30:00 1.6 C 95 % 0.89 C
873 02-03-2014 04:35:00 1.6 C 96 % 1.03 C
874 02-03-2014 04:40:00 1.5 C 96 % 0.93 C
875 02-03-2014 04:45:00 1.4 C 95 % 0.69 C
Sensor: Nr:Datum:Temp:Feuchte:Taupunkt:
Aussen-T/F 876 02-03-2014 04:50:00 1.3 C 95 % 0.59 C
877 02-03-2014 04:55:00 1.2 C 95 % 0.49 C
878 02-03-2014 05:00:00 1.1 C 95 % 0.39 C
879 02-03-2014 05:05:00 0.9 C 95 % 0.19 C
880 02-03-2014 05:10:00 0.9 C 96 % 0.34 C
881 02-03-2014 05:15:00 1 C 96 % 0.44 C
882 02-03-2014 05:20:00 0.9 C 96 % 0.34 C
883 02-03-2014 05:25:00 1 C 96 % 0.44 C
884 02-03-2014 05:30:00 0.9 C 96 % 0.34 C
885 02-03-2014 05:35:00 0.9 C 96 % 0.34 C
886 02-03-2014 05:40:00 0.8 C 96 % 0.24 C
887 02-03-2014 05:45:00 0.7 C 96 % 0.14 C
888 02-03-2014 05:50:00 0.7 C 96 % 0.14 C
889 02-03-2014 05:55:00 0.6 C 96 % 0.04 C
890 02-03-2014 06:00:00 0.5 C 96 % -0.06 C
891 02-03-2014 06:05:00 0.4 C 96 % -0.16 C
892 02-03-2014 06:10:00 0.4 C 96 % -0.16 C
893 02-03-2014 06:15:00 0.3 C 96 % -0.26 C
894 02-03-2014 06:20:00 0.3 C 96 % -0.26 C
895 02-03-2014 06:25:00 0.3 C 96 % -0.26 C
896 02-03-2014 06:30:00 0.3 C 96 % -0.26 C
897 02-03-2014 06:35:00 0.4 C 96 % -0.16 C
898 02-03-2014 06:40:00 0.4 C 96 % -0.16 C
899 02-03-2014 06:45:00 0.5 C 96 % -0.06 C
900 02-03-2014 06:50:00 0.4 C 96 % -0.16 C
Sensor: Nr:Datum:Temp:Feuchte:Taupunkt:
Aussen-T/F 901 02-03-2014 06:55:00 0.3 C 96 % -0.26 C
902 02-03-2014 07:00:00 0.4 C 96 % -0.16 C
903 02-03-2014 07:05:00 0.3 C 96 % -0.26 C
904 02-03-2014 07:10:00 0.2 C 96 % -0.36 C
905 02-03-2014 07:15:00 0.2 C 96 % -0.36 C
906 02-03-2014 07:20:00 0.3 C 97 % -0.12 C
907 02-03-2014 07:25:00 0.3 C 97 % -0.12 C
908 02-03-2014 07:30:00 0.3 C 97 % -0.12 C
909 02-03-2014 07:35:00 0.3 C 97 % -0.12 C
910 02-03-2014 07:40:00 0.3 C 96 % -0.26 C
911 02-03-2014 07:45:00 0.3 C 96 % -0.26 C
912 02-03-2014 07:50:00 0.2 C 96 % -0.36 C
913 02-03-2014 07:55:00 0.3 C 97 % -0.12 C
914 02-03-2014 08:00:00 0.4 C 97 % -0.02 C
915 02-03-2014 08:05:00 0.4 C 97 % -0.02 C
916 02-03-2014 08:10:00 0.5 C 97 % 0.08 C
917 02-03-2014 08:15:00 0.5 C 97 % 0.08 C
918 02-03-2014 08:20:00 0.6 C 97 % 0.18 C
919 02-03-2014 08:25:00 0.6 C 97 % 0.18 C
920 02-03-2014 08:30:00 0.6 C 97 % 0.18 C
921 02-03-2014 08:35:00 0.6 C 97 % 0.18 C
922 02-03-2014 08:40:00 0.6 C 97 % 0.18 C
923 02-03-2014 08:45:00 0.6 C 97 % 0.18 C
924 02-03-2014 08:50:00 0.6 C 97 % 0.18 C
925 02-03-2014 08:55:00 0.7 C 97 % 0.28 C
Sensor: Nr:Datum:Temp:Feuchte:Taupunkt:
Aussen-T/F 926 02-03-2014 09:00:00 0.7 C 97 % 0.28 C
927 02-03-2014 09:05:00 0.8 C 97 % 0.38 C
928 02-03-2014 09:10:00 0.9 C 97 % 0.48 C
929 02-03-2014 09:15:00 1 C 97 % 0.58 C
930 02-03-2014 09:20:00 1.1 C 97 % 0.68 C
931 02-03-2014 09:25:00 1.2 C 97 % 0.78 C
932 02-03-2014 09:30:00 1.3 C 97 % 0.88 C
933 02-03-2014 09:35:00 1.4 C 97 % 0.98 C
934 02-03-2014 09:40:00 1.5 C 97 % 1.08 C
935 02-03-2014 09:45:00 1.6 C 97 % 1.18 C
936 02-03-2014 09:50:00 1.6 C 97 % 1.18 C
937 02-03-2014 09:55:00 1.7 C 97 % 1.28 C
938 02-03-2014 10:00:00 1.8 C 97 % 1.38 C
939 02-03-2014 10:05:00 1.9 C 97 % 1.48 C
940 02-03-2014 10:10:00 2.2 C 98 % 1.92 C
941 02-03-2014 10:15:00 2.4 C 98 % 2.12 C
942 02-03-2014 10:20:00 2.6 C 98 % 2.32 C
943 02-03-2014 10:25:00 2.7 C 98 % 2.42 C
944 02-03-2014 10:30:00 3 C 98 % 2.72 C
945 02-03-2014 10:35:00 3.1 C 98 % 2.82 C
946 02-03-2014 10:40:00 3.3 C 98 % 3.01 C
947 02-03-2014 10:45:00 3.5 C 98 % 3.21 C
948 02-03-2014 10:50:00 3.6 C 98 % 3.31 C
949 02-03-2014 10:55:00 3.7 C 98 % 3.41 C
950 02-03-2014 11:00:00 3.7 C 98 % 3.41 C
Sensor: Nr:Datum:Temp:Feuchte:Taupunkt:
Aussen-T/F 951 02-03-2014 11:05:00 3.7 C 97 % 3.27 C
952 02-03-2014 11:10:00 3.7 C 97 % 3.27 C
953 02-03-2014 11:15:00 3.8 C 97 % 3.37 C
954 02-03-2014 11:20:00 3.8 C 97 % 3.37 C
955 02-03-2014 11:25:00 4 C 97 % 3.57 C
956 02-03-2014 11:30:00 4.2 C 97 % 3.77 C
957 02-03-2014 11:35:00 4.5 C 95 % 3.77 C
958 02-03-2014 11:40:00 4.8 C 94 % 3.92 C
959 02-03-2014 11:45:00 5.3 C 92 % 4.11 C
960 02-03-2014 11:50:00 5.7 C 87 % 3.71 C
961 02-03-2014 11:55:00 5.7 C 83 % 3.04 C
962 02-03-2014 12:00:00 5.8 C 81 % 2.8 C
963 02-03-2014 12:05:00 5.8 C 82 % 2.97 C
964 02-03-2014 12:10:00 5.9 C 81 % 2.9 C
965 02-03-2014 12:15:00 6.1 C 80 % 2.92 C
966 02-03-2014 12:20:00 6.4 C 79 % 3.03 C
967 02-03-2014 12:25:00 6.6 C 78 % 3.05 C
968 02-03-2014 12:30:00 6.6 C 77 % 2.86 C
969 02-03-2014 12:35:00 6.5 C 76 % 2.58 C
970 02-03-2014 12:40:00 6.4 C 76 % 2.49 C
971 02-03-2014 12:45:00 6.3 C 77 % 2.57 C
972 02-03-2014 12:50:00 6.3 C 77 % 2.57 C
973 02-03-2014 12:55:00 6.4 C 78 % 2.85 C
974 02-03-2014 13:00:00 6.7 C 76 % 2.78 C
975 02-03-2014 13:05:00 6.7 C 74 % 2.4 C
Sensor: Nr:Datum:Temp:Feuchte:Taupunkt:
Aussen-T/F 976 02-03-2014 13:10:00 6.8 C 74 % 2.5 C
977 02-03-2014 13:15:00 6.9 C 74 % 2.6 C
978 02-03-2014 13:20:00 7.2 C 74 % 2.89 C
979 02-03-2014 13:25:00 7.4 C 72 % 2.69 C
980 02-03-2014 13:30:00 7.4 C 71 % 2.5 C
981 02-03-2014 13:35:00 7.5 C 71 % 2.59 C
982 02-03-2014 13:40:00 7.4 C 71 % 2.5 C
983 02-03-2014 13:45:00 7.3 C 71 % 2.4 C
984 02-03-2014 13:50:00 7.3 C 70 % 2.2 C
985 02-03-2014 13:55:00 7.4 C 72 % 2.69 C
986 02-03-2014 14:00:00 7.5 C 71 % 2.59 C
987 02-03-2014 14:05:00 7.6 C 69 % 2.29 C
988 02-03-2014 14:10:00 7.6 C 70 % 2.49 C
989 02-03-2014 14:15:00 7.8 C 70 % 2.68 C
990 02-03-2014 14:20:00 8.2 C 69 % 2.86 C
991 02-03-2014 14:25:00 8.2 C 67 % 2.45 C
992 02-03-2014 14:30:00 8.2 C 69 % 2.86 C
993 02-03-2014 14:35:00 8.2 C 67 % 2.45 C
994 02-03-2014 14:40:00 8.2 C 68 % 2.66 C
995 02-03-2014 14:45:00 8.3 C 68 % 2.75 C
996 02-03-2014 14:50:00 8.3 C 68 % 2.75 C
997 02-03-2014 14:55:00 8.3 C 68 % 2.75 C
998 02-03-2014 15:00:00 8.4 C 67 % 2.64 C
999 02-03-2014 15:05:00 8.6 C 67 % 2.83 C
1000 02-03-2014 15:10:00 8.8 C 66 % 2.81 C
Sensor: Nr:Datum:Temp:Feuchte:Taupunkt:
Aussen-T/F 1001 02-03-2014 15:15:00 8.8 C 64 % 2.38 C
1002 02-03-2014 15:20:00 8.8 C 65 % 2.59 C
1003 02-03-2014 15:25:00 8.9 C 64 % 2.47 C
1004 02-03-2014 15:30:00 9.1 C 66 % 3.09 C
1005 02-03-2014 15:35:00 9.2 C 64 % 2.76 C
1006 02-03-2014 15:40:00 9.2 C 64 % 2.76 C
1007 02-03-2014 15:45:00 9.3 C 68 % 3.71 C
1008 02-03-2014 15:50:00 9.4 C 66 % 3.38 C
1009 02-03-2014 15:55:00 9.3 C 66 % 3.28 C
1010 02-03-2014 16:00:00 9.1 C 65 % 2.88 C
1011 02-03-2014 16:05:00 8.9 C 64 % 2.47 C
1012 02-03-2014 16:10:00 8.8 C 65 % 2.59 C
1013 02-03-2014 16:15:00 8.9 C 64 % 2.47 C
1014 02-03-2014 16:20:00 8.9 C 66 % 2.9 C
1015 02-03-2014 16:25:00 9.1 C 65 % 2.88 C
1016 02-03-2014 16:30:00 9.2 C 65 % 2.97 C
1017 02-03-2014 16:35:00 9.3 C 64 % 2.85 C
1018 02-03-2014 16:40:00 9.3 C 63 % 2.63 C
1019 02-03-2014 16:45:00 9.3 C 63 % 2.63 C
1020 02-03-2014 16:50:00 9.3 C 63 % 2.63 C
1021 02-03-2014 16:55:00 9.2 C 63 % 2.53 C
1022 02-03-2014 17:00:00 9.2 C 64 % 2.76 C
1023 02-03-2014 17:05:00 9 C 63 % 2.35 C
1024 02-03-2014 17:10:00 8.8 C 68 % 3.23 C
1025 02-03-2014 17:15:00 8.6 C 66 % 2.62 C
Sensor: Nr:Datum:Temp:Feuchte:Taupunkt:
Aussen-T/F 1026 02-03-2014 17:20:00 8.4 C 67 % 2.64 C
1027 02-03-2014 17:25:00 8.2 C 69 % 2.86 C
1028 02-03-2014 17:30:00 7.9 C 72 % 3.17 C
1029 02-03-2014 17:35:00 7.8 C 73 % 3.27 C
1030 02-03-2014 17:40:00 7.1 C 77 % 3.35 C
1031 02-03-2014 17:45:00 6.8 C 78 % 3.24 C
1032 02-03-2014 17:50:00 6.7 C 78 % 3.14 C
1033 02-03-2014 17:55:00 6.4 C 80 % 3.21 C
1034 02-03-2014 18:00:00 6.1 C 81 % 3.09 C
1035 02-03-2014 18:05:00 5.8 C 81 % 2.8 C
1036 02-03-2014 18:10:00 5.6 C 82 % 2.78 C
1037 02-03-2014 18:15:00 5.4 C 83 % 2.75 C
1038 02-03-2014 18:20:00 5.2 C 83 % 2.56 C
1039 02-03-2014 18:25:00 5 C 84 % 2.53 C
1040 02-03-2014 18:30:00 4.8 C 84 % 2.33 C
1041 02-03-2014 18:35:00 4.6 C 86 % 2.47 C
1042 02-03-2014 18:40:00 4.6 C 85 % 2.3 C
1043 02-03-2014 18:45:00 4.4 C 85 % 2.11 C
1044 02-03-2014 18:50:00 4.2 C 85 % 1.91 C
1045 02-03-2014 18:55:00 4.1 C 85 % 1.81 C
1046 02-03-2014 19:00:00 4 C 85 % 1.71 C
1047 02-03-2014 19:05:00 3.9 C 86 % 1.78 C
1048 02-03-2014 19:10:00 3.8 C 85 % 1.52 C
1049 02-03-2014 19:15:00 3.8 C 85 % 1.52 C
1050 02-03-2014 19:20:00 3.7 C 85 % 1.42 C
Sensor: Nr:Datum:Temp:Feuchte:Taupunkt:
Aussen-T/F 1051 02-03-2014 19:25:00 3.6 C 85 % 1.32 C
1052 02-03-2014 19:30:00 3.5 C 86 % 1.38 C
1053 02-03-2014 19:35:00 3.4 C 86 % 1.29 C
1054 02-03-2014 19:40:00 3.4 C 86 % 1.29 C
1055 02-03-2014 19:45:00 3.3 C 87 % 1.35 C
1056 02-03-2014 19:50:00 3.3 C 87 % 1.35 C
1057 02-03-2014 19:55:00 3.3 C 87 % 1.35 C
1058 02-03-2014 20:00:00 3.2 C 87 % 1.25 C
1059 02-03-2014 20:05:00 3.2 C 87 % 1.25 C
1060 02-03-2014 20:10:00 3.1 C 87 % 1.15 C
1061 02-03-2014 20:15:00 3.1 C 87 % 1.15 C
1062 02-03-2014 20:20:00 3.1 C 87 % 1.15 C
1063 02-03-2014 20:25:00 3 C 87 % 1.05 C
1064 02-03-2014 20:30:00 2.9 C 88 % 1.11 C
1065 02-03-2014 20:35:00 2.9 C 88 % 1.11 C
1066 02-03-2014 20:40:00 2.9 C 88 % 1.11 C
1067 02-03-2014 20:45:00 2.9 C 88 % 1.11 C
1068 02-03-2014 20:50:00 2.8 C 88 % 1.02 C
1069 02-03-2014 20:55:00 2.7 C 88 % 0.92 C
1070 02-03-2014 21:00:00 2.7 C 88 % 0.92 C
1071 02-03-2014 21:05:00 2.7 C 89 % 1.07 C
1072 02-03-2014 21:10:00 2.6 C 88 % 0.82 C
1073 02-03-2014 21:15:00 2.7 C 88 % 0.92 C
1074 02-03-2014 21:20:00 2.7 C 88 % 0.92 C
1075 02-03-2014 21:25:00 2.7 C 89 % 1.07 C
Sensor: Nr:Datum:Temp:Feuchte:Taupunkt:
Aussen-T/F 1076 02-03-2014 21:30:00 2.6 C 89 % 0.97 C
1077 02-03-2014 21:35:00 2.6 C 89 % 0.97 C
1078 02-03-2014 21:40:00 2.6 C 89 % 0.97 C
1079 02-03-2014 21:45:00 2.7 C 90 % 1.23 C
1080 02-03-2014 21:50:00 2.7 C 89 % 1.07 C
1081 02-03-2014 21:55:00 2.6 C 90 % 1.13 C
1082 02-03-2014 22:00:00 2.6 C 90 % 1.13 C
1083 02-03-2014 22:05:00 2.7 C 90 % 1.23 C
1084 02-03-2014 22:10:00 2.8 C 90 % 1.33 C
1085 02-03-2014 22:15:00 2.7 C 90 % 1.23 C
1086 02-03-2014 22:20:00 2.6 C 90 % 1.13 C
1087 02-03-2014 22:25:00 2.6 C 91 % 1.28 C
1088 02-03-2014 22:30:00 2.5 C 91 % 1.18 C
1089 02-03-2014 22:35:00 2.5 C 91 % 1.18 C
1090 02-03-2014 22:40:00 2.4 C 91 % 1.08 C
1091 02-03-2014 22:45:00 2.4 C 91 % 1.08 C
1092 02-03-2014 22:50:00 2.3 C 91 % 0.99 C
1093 02-03-2014 22:55:00 2.2 C 91 % 0.89 C
1094 02-03-2014 23:00:00 2.2 C 92 % 1.04 C
1095 02-03-2014 23:05:00 2.2 C 92 % 1.04 C
1096 02-03-2014 23:10:00 2.1 C 92 % 0.94 C
1097 02-03-2014 23:15:00 2.1 C 92 % 0.94 C
1098 02-03-2014 23:20:00 2.1 C 92 % 0.94 C
1099 02-03-2014 23:25:00 2 C 92 % 0.84 C
1100 02-03-2014 23:30:00 2.1 C 92 % 0.94 C
Sensor: Nr:Datum:Temp:Feuchte:Taupunkt:
Aussen-T/F 1101 02-03-2014 23:35:00 2 C 92 % 0.84 C
1102 02-03-2014 23:40:00 2 C 92 % 0.84 C
1103 02-03-2014 23:45:00 2 C 92 % 0.84 C
1104 02-03-2014 23:50:00 2 C 92 % 0.84 C
1105 02-03-2014 23:55:00 2.1 C 93 % 1.09 C
1106 03-03-2014 00:00:00 2.1 C 92 % 0.94 C
1107 03-03-2014 00:05:00 2 C 92 % 0.84 C
1108 03-03-2014 00:10:00 2.1 C 92 % 0.94 C
1109 03-03-2014 00:15:00 2.1 C 92 % 0.94 C
1110 03-03-2014 00:20:00 2.2 C 92 % 1.04 C
1111 03-03-2014 00:25:00 2.2 C 92 % 1.04 C
1112 03-03-2014 00:30:00 2.2 C 92 % 1.04 C
1113 03-03-2014 00:35:00 2.2 C 92 % 1.04 C
1114 03-03-2014 00:40:00 2.2 C 92 % 1.04 C
1115 03-03-2014 00:45:00 2.2 C 92 % 1.04 C
1116 03-03-2014 00:50:00 2.2 C 92 % 1.04 C
1117 03-03-2014 00:55:00 2.3 C 92 % 1.14 C
1118 03-03-2014 01:00:00 2.3 C 92 % 1.14 C
1119 03-03-2014 01:05:00 2.4 C 92 % 1.24 C
1120 03-03-2014 01:10:00 2.4 C 92 % 1.24 C
1121 03-03-2014 01:15:00 2.5 C 92 % 1.34 C
1122 03-03-2014 01:20:00 2.6 C 92 % 1.43 C
1123 03-03-2014 01:25:00 2.7 C 91 % 1.38 C
1124 03-03-2014 01:30:00 2.8 C 91 % 1.48 C
1125 03-03-2014 01:35:00 2.9 C 90 % 1.43 C
Sensor: Nr:Datum:Temp:Feuchte:Taupunkt:
Aussen-T/F 1126 03-03-2014 01:40:00 3.2 C 90 % 1.72 C
1127 03-03-2014 01:45:00 3.4 C 89 % 1.76 C
1128 03-03-2014 01:50:00 3.3 C 89 % 1.67 C
1129 03-03-2014 01:55:00 3.2 C 89 % 1.57 C
1130 03-03-2014 02:00:00 3.3 C 89 % 1.67 C
1131 03-03-2014 02:05:00 3.3 C 89 % 1.67 C
1132 03-03-2014 02:10:00 3.3 C 89 % 1.67 C
1133 03-03-2014 02:15:00 3.5 C 88 % 1.7 C
1134 03-03-2014 02:20:00 3.5 C 88 % 1.7 C
1135 03-03-2014 02:25:00 3.4 C 89 % 1.76 C
1136 03-03-2014 02:30:00 3.3 C 89 % 1.67 C
1137 03-03-2014 02:35:00 3.3 C 89 % 1.67 C
1138 03-03-2014 02:40:00 3.4 C 89 % 1.76 C
1139 03-03-2014 02:45:00 3.6 C 89 % 1.96 C
1140 03-03-2014 02:50:00 3.6 C 89 % 1.96 C
1141 03-03-2014 02:55:00 3.5 C 89 % 1.86 C
1142 03-03-2014 03:00:00 3.4 C 88 % 1.61 C
1143 03-03-2014 03:05:00 3.5 C 89 % 1.86 C
1144 03-03-2014 03:10:00 3.6 C 89 % 1.96 C
1145 03-03-2014 03:15:00 3.6 C 88 % 1.8 C
1146 03-03-2014 03:20:00 3.3 C 88 % 1.51 C
1147 03-03-2014 03:25:00 3.1 C 89 % 1.47 C
1148 03-03-2014 03:30:00 3.1 C 90 % 1.62 C
1149 03-03-2014 03:35:00 3 C 90 % 1.52 C
1150 03-03-2014 03:40:00 2.9 C 90 % 1.43 C
Sensor: Nr:Datum:Temp:Feuchte:Taupunkt:
Aussen-T/F 1151 03-03-2014 03:45:00 2.8 C 90 % 1.33 C
1152 03-03-2014 03:50:00 2.7 C 91 % 1.38 C
1153 03-03-2014 03:55:00 2.7 C 91 % 1.38 C
1154 03-03-2014 04:00:00 2.7 C 92 % 1.53 C
1155 03-03-2014 04:05:00 2.8 C 92 % 1.63 C
1156 03-03-2014 04:10:00 2.9 C 92 % 1.73 C
1157 03-03-2014 04:15:00 3.1 C 92 % 1.93 C
1158 03-03-2014 04:20:00 3.2 C 92 % 2.03 C
1159 03-03-2014 04:25:00 3.3 C 91 % 1.98 C
1160 03-03-2014 04:30:00 3.4 C 91 % 2.07 C
1161 03-03-2014 04:35:00 3.5 C 91 % 2.17 C
1162 03-03-2014 04:40:00 3.6 C 90 % 2.12 C
1163 03-03-2014 04:45:00 3.7 C 90 % 2.22 C
1164 03-03-2014 04:50:00 3.8 C 90 % 2.31 C
1165 03-03-2014 04:55:00 3.9 C 89 % 2.26 C
1166 03-03-2014 05:00:00 3.8 C 89 % 2.16 C
1167 03-03-2014 05:05:00 3.8 C 89 % 2.16 C
1168 03-03-2014 05:10:00 3.8 C 89 % 2.16 C
1169 03-03-2014 05:15:00 3.9 C 90 % 2.41 C
1170 03-03-2014 05:20:00 3.9 C 89 % 2.26 C
1171 03-03-2014 05:25:00 3.9 C 89 % 2.26 C
1172 03-03-2014 05:30:00 4.1 C 89 % 2.45 C
1173 03-03-2014 05:35:00 4.2 C 88 % 2.39 C
1174 03-03-2014 05:40:00 4.2 C 88 % 2.39 C
1175 03-03-2014 05:45:00 4.3 C 88 % 2.49 C
Sensor: Nr:Datum:Temp:Feuchte:Taupunkt:
Aussen-T/F 1176 03-03-2014 05:50:00 4.3 C 87 % 2.33 C
1177 03-03-2014 05:55:00 4.3 C 87 % 2.33 C
1178 03-03-2014 06:00:00 4.2 C 88 % 2.39 C
1179 03-03-2014 06:05:00 4.1 C 88 % 2.3 C
1180 03-03-2014 06:10:00 4 C 88 % 2.2 C
1181 03-03-2014 06:15:00 4 C 88 % 2.2 C
1182 03-03-2014 06:20:00 3.8 C 89 % 2.16 C
1183 03-03-2014 06:25:00 3.8 C 89 % 2.16 C
1184 03-03-2014 06:30:00 3.8 C 89 % 2.16 C
1185 03-03-2014 06:35:00 3.9 C 89 % 2.26 C
1186 03-03-2014 06:40:00 3.9 C 89 % 2.26 C
1187 03-03-2014 06:45:00 3.9 C 88 % 2.1 C
1188 03-03-2014 06:50:00 4 C 88 % 2.2 C
1189 03-03-2014 06:55:00 4.1 C 88 % 2.3 C
1190 03-03-2014 07:00:00 4.2 C 87 % 2.23 C
1191 03-03-2014 07:05:00 4.2 C 87 % 2.23 C
1192 03-03-2014 07:10:00 4.2 C 87 % 2.23 C
1193 03-03-2014 07:15:00 4.3 C 87 % 2.33 C
1194 03-03-2014 07:20:00 4.4 C 86 % 2.27 C
1195 03-03-2014 07:25:00 4.4 C 86 % 2.27 C
1196 03-03-2014 07:30:00 4.4 C 86 % 2.27 C
1197 03-03-2014 07:35:00 4.4 C 86 % 2.27 C
1198 03-03-2014 07:40:00 4.3 C 86 % 2.17 C
1199 03-03-2014 07:45:00 4.3 C 86 % 2.17 C
1200 03-03-2014 07:50:00 4.4 C 86 % 2.27 C
Sensor: Nr:Datum:Temp:Feuchte:Taupunkt:
Aussen-T/F 1201 03-03-2014 07:55:00 4.4 C 86 % 2.27 C
1202 03-03-2014 08:00:00 4.5 C 86 % 2.37 C
1203 03-03-2014 08:05:00 4.6 C 86 % 2.47 C
1204 03-03-2014 08:10:00 4.6 C 85 % 2.3 C
1205 03-03-2014 08:15:00 4.7 C 85 % 2.4 C
1206 03-03-2014 08:20:00 4.8 C 85 % 2.5 C
1207 03-03-2014 08:25:00 4.8 C 85 % 2.5 C
1208 03-03-2014 08:30:00 4.8 C 85 % 2.5 C
1209 03-03-2014 08:35:00 4.8 C 85 % 2.5 C
1210 03-03-2014 08:40:00 4.9 C 84 % 2.43 C
1211 03-03-2014 08:45:00 5 C 84 % 2.53 C
1212 03-03-2014 08:50:00 5.1 C 84 % 2.63 C
1213 03-03-2014 08:55:00 5.1 C 84 % 2.63 C
1214 03-03-2014 09:00:00 5.2 C 84 % 2.72 C
1215 03-03-2014 09:05:00 5.2 C 84 % 2.72 C
1216 03-03-2014 09:10:00 5.3 C 83 % 2.65 C
1217 03-03-2014 09:15:00 5.3 C 84 % 2.82 C
1218 03-03-2014 09:20:00 5.3 C 84 % 2.82 C
1219 03-03-2014 09:25:00 5.4 C 83 % 2.75 C
1220 03-03-2014 09:30:00 5.4 C 84 % 2.92 C
1221 03-03-2014 09:35:00 5.4 C 84 % 2.92 C
1222 03-03-2014 09:40:00 5.5 C 84 % 3.02 C
1223 03-03-2014 09:45:00 5.5 C 84 % 3.02 C
1224 03-03-2014 09:50:00 5.6 C 85 % 3.28 C
1225 03-03-2014 09:55:00 5.6 C 85 % 3.28 C
Sensor: Nr:Datum:Temp:Feuchte:Taupunkt:
Aussen-T/F 1226 03-03-2014 10:00:00 5.6 C 85 % 3.28 C
1227 03-03-2014 10:05:00 5.7 C 85 % 3.38 C
1228 03-03-2014 10:10:00 5.7 C 86 % 3.55 C
1229 03-03-2014 10:15:00 5.7 C 86 % 3.55 C
1230 03-03-2014 10:20:00 5.8 C 86 % 3.64 C
1231 03-03-2014 10:25:00 5.8 C 86 % 3.64 C
1232 03-03-2014 10:30:00 5.9 C 86 % 3.74 C
1233 03-03-2014 10:35:00 6.1 C 85 % 3.77 C
1234 03-03-2014 10:40:00 6.1 C 85 % 3.77 C
1235 03-03-2014 10:45:00 6.3 C 85 % 3.97 C
1236 03-03-2014 10:50:00 6.5 C 85 % 4.17 C
1237 03-03-2014 10:55:00 6.7 C 84 % 4.19 C
1238 03-03-2014 11:00:00 6.9 C 84 % 4.39 C
1239 03-03-2014 11:05:00 7.1 C 83 % 4.41 C
1240 03-03-2014 11:10:00 7.2 C 83 % 4.51 C
1241 03-03-2014 11:15:00 7.2 C 84 % 4.68 C
1242 03-03-2014 11:20:00 7.2 C 82 % 4.34 C
1243 03-03-2014 11:25:00 7.1 C 83 % 4.41 C
1244 03-03-2014 11:30:00 7.1 C 83 % 4.41 C
1245 03-03-2014 11:35:00 7 C 83 % 4.32 C
1246 03-03-2014 11:40:00 7 C 83 % 4.32 C
1247 03-03-2014 11:45:00 7 C 83 % 4.32 C
1248 03-03-2014 11:50:00 7 C 83 % 4.32 C
1249 03-03-2014 11:55:00 7 C 83 % 4.32 C
1250 03-03-2014 12:00:00 7.1 C 83 % 4.41 C
Sensor: Nr:Datum:Temp:Feuchte:Taupunkt:
Aussen-T/F 1251 03-03-2014 12:05:00 7.2 C 83 % 4.51 C
1252 03-03-2014 12:10:00 7.2 C 82 % 4.34 C
1253 03-03-2014 12:15:00 7.2 C 82 % 4.34 C
1254 03-03-2014 12:20:00 7.2 C 82 % 4.34 C
1255 03-03-2014 12:25:00 7.3 C 83 % 4.61 C
1256 03-03-2014 12:30:00 7.3 C 83 % 4.61 C
1257 03-03-2014 12:35:00 7.4 C 83 % 4.71 C
1258 03-03-2014 12:40:00 7.5 C 83 % 4.81 C
1259 03-03-2014 12:45:00 7.6 C 82 % 4.73 C
1260 03-03-2014 12:50:00 7.6 C 82 % 4.73 C
1261 03-03-2014 12:55:00 7.7 C 82 % 4.83 C
1262 03-03-2014 13:00:00 7.8 C 82 % 4.92 C
1263 03-03-2014 13:05:00 7.9 C 81 % 4.85 C
1264 03-03-2014 13:10:00 7.9 C 82 % 5.02 C
1265 03-03-2014 13:15:00 7.9 C 82 % 5.02 C
1266 03-03-2014 13:20:00 7.8 C 83 % 5.1 C
1267 03-03-2014 13:25:00 7.8 C 84 % 5.27 C
1268 03-03-2014 13:30:00 7.7 C 85 % 5.34 C
1269 03-03-2014 13:35:00 7.7 C 85 % 5.34 C
1270 03-03-2014 13:40:00 7.8 C 89 % 6.1 C
1271 03-03-2014 13:45:00 7.8 C 88 % 5.94 C
1272 03-03-2014 13:50:00 7.7 C 89 % 6 C
1273 03-03-2014 13:55:00 7.7 C 89 % 6 C
1274 03-03-2014 14:00:00 7.7 C 89 % 6 C
1275 03-03-2014 14:05:00 7.7 C 89 % 6 C
Sensor: Nr:Datum:Temp:Feuchte:Taupunkt:
Aussen-T/F 1276 03-03-2014 14:10:00 7.8 C 89 % 6.1 C
1277 03-03-2014 14:15:00 7.8 C 88 % 5.94 C
1278 03-03-2014 14:20:00 7.9 C 88 % 6.04 C
1279 03-03-2014 14:25:00 8 C 87 % 5.97 C
1280 03-03-2014 14:30:00 8.1 C 86 % 5.9 C
1281 03-03-2014 14:35:00 8.1 C 86 % 5.9 C
1282 03-03-2014 14:40:00 8.1 C 86 % 5.9 C
1283 03-03-2014 14:45:00 8.1 C 86 % 5.9 C
1284 03-03-2014 14:50:00 8.2 C 87 % 6.17 C
1285 03-03-2014 14:55:00 8.3 C 86 % 6.1 C
1286 03-03-2014 15:00:00 8.6 C 86 % 6.39 C
1287 03-03-2014 15:05:00 8.6 C 84 % 6.05 C
1288 03-03-2014 15:10:00 8.6 C 83 % 5.88 C
1289 03-03-2014 15:15:00 8.7 C 85 % 6.32 C
1290 03-03-2014 15:20:00 8.8 C 83 % 6.08 C
1291 03-03-2014 15:25:00 8.9 C 82 % 6 C
1292 03-03-2014 15:30:00 8.9 C 79 % 5.46 C
1293 03-03-2014 15:35:00 9 C 78 % 5.38 C
1294 03-03-2014 15:40:00 9 C 77 % 5.19 C
1295 03-03-2014 15:45:00 9 C 76 % 5 C
1296 03-03-2014 15:50:00 9.1 C 77 % 5.29 C
1297 03-03-2014 15:55:00 9.2 C 75 % 5.01 C
1298 03-03-2014 16:00:00 9.2 C 75 % 5.01 C
1299 03-03-2014 16:05:00 9.3 C 75 % 5.1 C
1300 03-03-2014 16:10:00 9.3 C 73 % 4.72 C
Sensor: Nr:Datum:Temp:Feuchte:Taupunkt:
Aussen-T/F 1301 03-03-2014 16:15:00 9.3 C 74 % 4.91 C
1302 03-03-2014 16:20:00 9.3 C 73 % 4.72 C
1303 03-03-2014 16:25:00 9.3 C 74 % 4.91 C
1304 03-03-2014 16:30:00 9.3 C 72 % 4.52 C
1305 03-03-2014 16:35:00 9.3 C 75 % 5.1 C
1306 03-03-2014 16:40:00 9.3 C 72 % 4.52 C
1307 03-03-2014 16:45:00 9.3 C 73 % 4.72 C
1308 03-03-2014 16:50:00 9.3 C 76 % 5.29 C
1309 03-03-2014 16:55:00 9.3 C 75 % 5.1 C
1310 03-03-2014 17:00:00 9.3 C 75 % 5.1 C
1311 03-03-2014 17:05:00 9.2 C 80 % 5.94 C
1312 03-03-2014 17:10:00 9.1 C 81 % 6.02 C
1313 03-03-2014 17:15:00 8.8 C 76 % 4.81 C
1314 03-03-2014 17:20:00 8.7 C 80 % 5.45 C
1315 03-03-2014 17:25:00 8.6 C 81 % 5.53 C
1316 03-03-2014 17:30:00 8.3 C 82 % 5.41 C
1317 03-03-2014 17:35:00 8.1 C 81 % 5.04 C
1318 03-03-2014 17:40:00 7.9 C 83 % 5.2 C
1319 03-03-2014 17:45:00 7.8 C 84 % 5.27 C
1320 03-03-2014 17:50:00 7.7 C 84 % 5.17 C
1321 03-03-2014 17:55:00 7.6 C 85 % 5.24 C
1322 03-03-2014 18:00:00 7.4 C 85 % 5.05 C
1323 03-03-2014 18:05:00 7.4 C 84 % 4.88 C
1324 03-03-2014 18:10:00 7.3 C 85 % 4.95 C
1325 03-03-2014 18:15:00 7.1 C 86 % 4.92 C
Sensor: Nr:Datum:Temp:Feuchte:Taupunkt:
Aussen-T/F 1326 03-03-2014 18:20:00 6.9 C 87 % 4.89 C
1327 03-03-2014 18:25:00 6.7 C 87 % 4.69 C
1328 03-03-2014 18:30:00 6.6 C 87 % 4.6 C
1329 03-03-2014 18:35:00 6.5 C 86 % 4.33 C
1330 03-03-2014 18:40:00 6.4 C 86 % 4.23 C
1331 03-03-2014 18:45:00 6.3 C 86 % 4.14 C
1332 03-03-2014 18:50:00 6.2 C 86 % 4.04 C
1333 03-03-2014 18:55:00 6.1 C 87 % 4.1 C
1334 03-03-2014 19:00:00 5.9 C 87 % 3.91 C
1335 03-03-2014 19:05:00 5.8 C 87 % 3.81 C
1336 03-03-2014 19:10:00 5.6 C 88 % 3.77 C
1337 03-03-2014 19:15:00 5.4 C 88 % 3.58 C
1338 03-03-2014 19:20:00 5.3 C 88 % 3.48 C
1339 03-03-2014 19:25:00 5.2 C 89 % 3.54 C
1340 03-03-2014 19:30:00 5.1 C 89 % 3.44 C
1341 03-03-2014 19:35:00 4.9 C 89 % 3.24 C
1342 03-03-2014 19:40:00 4.8 C 89 % 3.14 C
1343 03-03-2014 19:45:00 4.7 C 89 % 3.05 C
1344 03-03-2014 19:50:00 4.7 C 90 % 3.2 C
1345 03-03-2014 19:55:00 4.7 C 90 % 3.2 C
1346 03-03-2014 20:00:00 4.6 C 90 % 3.1 C
1347 03-03-2014 20:05:00 4.5 C 90 % 3.01 C
1348 03-03-2014 20:10:00 4.4 C 90 % 2.91 C
1349 03-03-2014 20:15:00 4.4 C 90 % 2.91 C
1350 03-03-2014 20:20:00 4.3 C 90 % 2.81 C
Sensor: Nr:Datum:Temp:Feuchte:Taupunkt:
Aussen-T/F 1351 03-03-2014 20:25:00 4.3 C 90 % 2.81 C
1352 03-03-2014 20:30:00 4.3 C 90 % 2.81 C
1353 03-03-2014 20:35:00 4.3 C 90 % 2.81 C
1354 03-03-2014 20:40:00 4.2 C 90 % 2.71 C
1355 03-03-2014 20:45:00 4.2 C 90 % 2.71 C
1356 03-03-2014 20:50:00 4.2 C 90 % 2.71 C
1357 03-03-2014 20:55:00 4.2 C 90 % 2.71 C
1358 03-03-2014 21:00:00 4.1 C 90 % 2.61 C
1359 03-03-2014 21:05:00 4 C 90 % 2.51 C
1360 03-03-2014 21:10:00 4.1 C 90 % 2.61 C
1361 03-03-2014 21:15:00 4.3 C 89 % 2.65 C
1362 03-03-2014 21:20:00 4.3 C 89 % 2.65 C
1363 03-03-2014 21:25:00 4.3 C 89 % 2.65 C
1364 03-03-2014 21:30:00 4.3 C 89 % 2.65 C
1365 03-03-2014 21:35:00 4.2 C 89 % 2.55 C
1366 03-03-2014 21:40:00 4 C 89 % 2.36 C
1367 03-03-2014 21:45:00 3.9 C 90 % 2.41 C
1368 03-03-2014 21:50:00 3.8 C 90 % 2.31 C
1369 03-03-2014 21:55:00 3.8 C 90 % 2.31 C
1370 03-03-2014 22:00:00 3.7 C 91 % 2.37 C
1371 03-03-2014 22:05:00 3.7 C 91 % 2.37 C
1372 03-03-2014 22:10:00 3.7 C 91 % 2.37 C
1373 03-03-2014 22:15:00 3.8 C 91 % 2.47 C
1374 03-03-2014 22:20:00 3.7 C 90 % 2.22 C
1375 03-03-2014 22:25:00 3.7 C 90 % 2.22 C
Sensor: Nr:Datum:Temp:Feuchte:Taupunkt:
Aussen-T/F 1376 03-03-2014 22:30:00 3.7 C 90 % 2.22 C
1377 03-03-2014 22:35:00 3.6 C 90 % 2.12 C
1378 03-03-2014 22:40:00 3.4 C 91 % 2.07 C
1379 03-03-2014 22:45:00 3.3 C 91 % 1.98 C
1380 03-03-2014 22:50:00 3.3 C 91 % 1.98 C
1381 03-03-2014 22:55:00 3.3 C 91 % 1.98 C
1382 03-03-2014 23:00:00 3.2 C 91 % 1.88 C
1383 03-03-2014 23:05:00 3.1 C 91 % 1.78 C
1384 03-03-2014 23:10:00 3 C 91 % 1.68 C
1385 03-03-2014 23:15:00 2.8 C 91 % 1.48 C
1386 03-03-2014 23:20:00 2.7 C 92 % 1.53 C
1387 03-03-2014 23:25:00 2.5 C 92 % 1.34 C
1388 03-03-2014 23:30:00 2.4 C 93 % 1.39 C
1389 03-03-2014 23:35:00 2.3 C 93 % 1.29 C
1390 03-03-2014 23:40:00 2.3 C 93 % 1.29 C
1391 03-03-2014 23:45:00 2.3 C 93 % 1.29 C
1392 03-03-2014 23:50:00 2.3 C 94 % 1.44 C
1393 03-03-2014 23:55:00 2.2 C 93 % 1.19 C
1394 04-03-2014 00:00:00 2.1 C 93 % 1.09 C
1395 04-03-2014 00:05:00 2 C 93 % 0.99 C
1396 04-03-2014 00:10:00 1.9 C 94 % 1.04 C
1397 04-03-2014 00:15:00 1.9 C 94 % 1.04 C
1398 04-03-2014 00:20:00 1.8 C 93 % 0.79 C
1399 04-03-2014 00:25:00 1.7 C 94 % 0.84 C
1400 04-03-2014 00:30:00 1.7 C 94 % 0.84 C
Sensor: Nr:Datum:Temp:Feuchte:Taupunkt:
Aussen-T/F 1401 04-03-2014 00:35:00 1.7 C 94 % 0.84 C
1402 04-03-2014 00:40:00 1.6 C 94 % 0.74 C
1403 04-03-2014 00:45:00 1.6 C 94 % 0.74 C
1404 04-03-2014 00:50:00 1.4 C 94 % 0.54 C
1405 04-03-2014 00:55:00 1.3 C 94 % 0.44 C
1406 04-03-2014 01:00:00 1.3 C 94 % 0.44 C
1407 04-03-2014 01:05:00 1.2 C 94 % 0.34 C
1408 04-03-2014 01:10:00 1.2 C 94 % 0.34 C
1409 04-03-2014 01:15:00 1.2 C 94 % 0.34 C
1410 04-03-2014 01:20:00 1.1 C 94 % 0.24 C
1411 04-03-2014 01:25:00 1 C 94 % 0.15 C
1412 04-03-2014 01:30:00 0.9 C 94 % 0.05 C
1413 04-03-2014 01:35:00 0.8 C 94 % -0.05 C
1414 04-03-2014 01:40:00 0.8 C 94 % -0.05 C
1415 04-03-2014 01:45:00 0.7 C 94 % -0.15 C
1416 04-03-2014 01:50:00 0.7 C 95 % -0.01 C
1417 04-03-2014 01:55:00 0.6 C 95 % -0.11 C
1418 04-03-2014 02:00:00 0.5 C 94 % -0.35 C
1419 04-03-2014 02:05:00 0.5 C 95 % -0.21 C
1420 04-03-2014 02:10:00 0.4 C 95 % -0.31 C
1421 04-03-2014 02:15:00 0.5 C 95 % -0.21 C
1422 04-03-2014 02:20:00 0.5 C 95 % -0.21 C
1423 04-03-2014 02:25:00 0.5 C 95 % -0.21 C
1424 04-03-2014 02:30:00 0.5 C 95 % -0.21 C
1425 04-03-2014 02:35:00 0.4 C 95 % -0.31 C
Sensor: Nr:Datum:Temp:Feuchte:Taupunkt:
Aussen-T/F 1426 04-03-2014 02:40:00 0.3 C 95 % -0.4 C
1427 04-03-2014 02:45:00 0.3 C 95 % -0.4 C
1428 04-03-2014 02:50:00 0.3 C 95 % -0.4 C
1429 04-03-2014 02:55:00 0.3 C 96 % -0.26 C
1430 04-03-2014 03:00:00 0.3 C 95 % -0.4 C
1431 04-03-2014 03:05:00 0.2 C 95 % -0.5 C
1432 04-03-2014 03:10:00 0.2 C 95 % -0.5 C
1433 04-03-2014 03:15:00 0.2 C 96 % -0.36 C
1434 04-03-2014 03:20:00 0.2 C 96 % -0.36 C
1435 04-03-2014 03:25:00 0.3 C 96 % -0.26 C
1436 04-03-2014 03:30:00 0.3 C 96 % -0.26 C
1437 04-03-2014 03:35:00 0.2 C 96 % -0.36 C
1438 04-03-2014 03:40:00 0.2 C 96 % -0.36 C
1439 04-03-2014 03:45:00 0.2 C 96 % -0.36 C
1440 04-03-2014 03:50:00 0.2 C 96 % -0.36 C
1441 04-03-2014 03:55:00 0.1 C 96 % -0.46 C
1442 04-03-2014 04:00:00 0.1 C 96 % -0.46 C
1443 04-03-2014 04:05:00 0.1 C 96 % -0.46 C
1444 04-03-2014 04:10:00 0 C 96 % -0.56 C
1445 04-03-2014 04:15:00 -0.1 C 96 % -0.66 C
1446 04-03-2014 04:20:00 -0.1 C 96 % -0.66 C
1447 04-03-2014 04:25:00 -0.2 C 96 % -0.76 C
1448 04-03-2014 04:30:00 -0.2 C 96 % -0.76 C
1449 04-03-2014 04:35:00 -0.2 C 96 % -0.76 C
1450 04-03-2014 04:40:00 -0.3 C 96 % -0.86 C
Sensor: Nr:Datum:Temp:Feuchte:Taupunkt:
Aussen-T/F 1451 04-03-2014 04:45:00 -0.4 C 96 % -0.96 C
1452 04-03-2014 04:50:00 -0.4 C 96 % -0.96 C
1453 04-03-2014 04:55:00 -0.4 C 96 % -0.96 C
1454 04-03-2014 05:00:00 -0.4 C 96 % -0.96 C
1455 04-03-2014 05:05:00 -0.5 C 96 % -1.06 C
1456 04-03-2014 05:10:00 -0.6 C 96 % -1.16 C
1457 04-03-2014 05:15:00 -0.6 C 96 % -1.16 C
1458 04-03-2014 05:20:00 -0.6 C 96 % -1.16 C
1459 04-03-2014 05:25:00 -0.7 C 96 % -1.26 C
1460 04-03-2014 05:30:00 -0.7 C 96 % -1.26 C
1461 04-03-2014 05:35:00 -0.7 C 96 % -1.26 C
1462 04-03-2014 05:40:00 -0.8 C 96 % -1.36 C
1463 04-03-2014 05:45:00 -0.8 C 96 % -1.36 C
1464 04-03-2014 05:50:00 -0.8 C 96 % -1.36 C
1465 04-03-2014 05:55:00 -0.8 C 96 % -1.36 C
1466 04-03-2014 06:00:00 -0.9 C 96 % -1.46 C
1467 04-03-2014 06:05:00 -0.9 C 96 % -1.46 C
1468 04-03-2014 06:10:00 -0.8 C 96 % -1.36 C
1469 04-03-2014 06:15:00 -0.8 C 96 % -1.36 C
1470 04-03-2014 06:20:00 -0.8 C 96 % -1.36 C
1471 04-03-2014 06:25:00 -0.8 C 96 % -1.36 C
1472 04-03-2014 06:30:00 -0.8 C 96 % -1.36 C
1473 04-03-2014 06:35:00 -0.7 C 97 % -1.12 C
1474 04-03-2014 06:40:00 -0.8 C 97 % -1.22 C
1475 04-03-2014 06:45:00 -0.8 C 96 % -1.36 C
Sensor: Nr:Datum:Temp:Feuchte:Taupunkt:
Aussen-T/F 1476 04-03-2014 06:50:00 -0.8 C 96 % -1.36 C
1477 04-03-2014 06:55:00 -0.8 C 96 % -1.36 C
1478 04-03-2014 07:00:00 -0.8 C 96 % -1.36 C
1479 04-03-2014 07:05:00 -0.8 C 96 % -1.36 C
1480 04-03-2014 07:10:00 -0.9 C 97 % -1.32 C
1481 04-03-2014 07:15:00 -0.9 C 97 % -1.32 C
1482 04-03-2014 07:20:00 -0.9 C 97 % -1.32 C
1483 04-03-2014 07:25:00 -0.9 C 97 % -1.32 C
1484 04-03-2014 07:30:00 -0.9 C 97 % -1.32 C
1485 04-03-2014 07:35:00 -0.9 C 97 % -1.32 C
1486 04-03-2014 07:40:00 -0.9 C 97 % -1.32 C
1487 04-03-2014 07:45:00 -0.9 C 97 % -1.32 C
1488 04-03-2014 07:50:00 -0.9 C 97 % -1.32 C
1489 04-03-2014 07:55:00 -0.9 C 97 % -1.32 C
1490 04-03-2014 08:00:00 -0.9 C 97 % -1.32 C
1491 04-03-2014 08:05:00 -0.9 C 97 % -1.32 C
1492 04-03-2014 08:10:00 -0.9 C 97 % -1.32 C
1493 04-03-2014 08:15:00 -0.9 C 97 % -1.32 C
1494 04-03-2014 08:20:00 -0.9 C 97 % -1.32 C
1495 04-03-2014 08:25:00 -0.9 C 97 % -1.32 C
1496 04-03-2014 08:30:00 -0.9 C 97 % -1.32 C
1497 04-03-2014 08:35:00 -0.8 C 97 % -1.22 C
1498 04-03-2014 08:40:00 -0.8 C 97 % -1.22 C
1499 04-03-2014 08:45:00 -0.8 C 97 % -1.22 C
1500 04-03-2014 08:50:00 -0.8 C 97 % -1.22 C
Sensor: Nr:Datum:Temp:Feuchte:Taupunkt:
Aussen-T/F 1501 04-03-2014 08:55:00 -0.8 C 97 % -1.22 C
1502 04-03-2014 09:00:00 -0.8 C 97 % -1.22 C
1503 04-03-2014 09:05:00 -0.8 C 97 % -1.22 C
1504 04-03-2014 09:10:00 -0.8 C 97 % -1.22 C
1505 04-03-2014 09:15:00 -0.8 C 97 % -1.22 C
1506 04-03-2014 09:20:00 -0.7 C 97 % -1.12 C
1507 04-03-2014 09:25:00 -0.7 C 97 % -1.12 C
1508 04-03-2014 09:30:00 -0.6 C 97 % -1.02 C
1509 04-03-2014 09:35:00 -0.6 C 97 % -1.02 C
1510 04-03-2014 09:40:00 -0.5 C 97 % -0.92 C
1511 04-03-2014 09:45:00 -0.4 C 97 % -0.82 C
1512 04-03-2014 09:50:00 -0.4 C 97 % -0.82 C
1513 04-03-2014 09:55:00 -0.3 C 97 % -0.72 C
1514 04-03-2014 10:00:00 -0.2 C 97 % -0.62 C
1515 04-03-2014 10:05:00 -0.2 C 97 % -0.62 C
1516 04-03-2014 10:10:00 -0.1 C 97 % -0.52 C
1517 04-03-2014 10:15:00 0 C 97 % -0.42 C
1518 04-03-2014 10:20:00 0.2 C 97 % -0.22 C
1519 04-03-2014 10:25:00 0.3 C 97 % -0.12 C
1520 04-03-2014 10:30:00 0.4 C 97 % -0.02 C
1521 04-03-2014 10:35:00 0.6 C 97 % 0.18 C
1522 04-03-2014 10:40:00 0.7 C 97 % 0.28 C
1523 04-03-2014 10:45:00 0.8 C 97 % 0.38 C
1524 04-03-2014 10:50:00 0.9 C 98 % 0.62 C
1525 04-03-2014 10:55:00 1.1 C 97 % 0.68 C
Sensor: Nr:Datum:Temp:Feuchte:Taupunkt:
Aussen-T/F 1526 04-03-2014 11:00:00 1.1 C 97 % 0.68 C
1527 04-03-2014 11:05:00 1.2 C 98 % 0.92 C
1528 04-03-2014 11:10:00 1.3 C 98 % 1.02 C
1529 04-03-2014 11:15:00 1.4 C 97 % 0.98 C
1530 04-03-2014 11:20:00 1.5 C 97 % 1.08 C
1531 04-03-2014 11:25:00 1.6 C 98 % 1.32 C
1532 04-03-2014 11:30:00 1.8 C 98 % 1.52 C
1533 04-03-2014 11:35:00 2 C 98 % 1.72 C
1534 04-03-2014 11:40:00 2.2 C 98 % 1.92 C
1535 04-03-2014 11:45:00 2.4 C 98 % 2.12 C
1536 04-03-2014 11:50:00 2.7 C 98 % 2.42 C
1537 04-03-2014 11:55:00 3.1 C 98 % 2.82 C
1538 04-03-2014 12:00:00 3.5 C 98 % 3.21 C
1539 04-03-2014 12:05:00 3.8 C 98 % 3.51 C
1540 04-03-2014 12:10:00 4.2 C 98 % 3.91 C
1541 04-03-2014 12:15:00 4.5 C 98 % 4.21 C
1542 04-03-2014 12:20:00 4.8 C 98 % 4.51 C
1543 04-03-2014 12:25:00 5.2 C 97 % 4.76 C
1544 04-03-2014 12:30:00 5.6 C 96 % 5.01 C
1545 04-03-2014 12:35:00 6.1 C 93 % 5.06 C
1546 04-03-2014 12:40:00 6.7 C 90 % 5.18 C
1547 04-03-2014 12:45:00 7.3 C 87 % 5.28 C
1548 04-03-2014 12:50:00 7.7 C 85 % 5.34 C
1549 04-03-2014 12:55:00 8.2 C 86 % 6 C
1550 04-03-2014 13:00:00 8.6 C 85 % 6.23 C
Sensor: Nr:Datum:Temp:Feuchte:Taupunkt:
Aussen-T/F 1551 04-03-2014 13:05:00 8.8 C 80 % 5.55 C
1552 04-03-2014 13:10:00 9.2 C 82 % 6.29 C
1553 04-03-2014 13:15:00 9.7 C 81 % 6.6 C
1554 04-03-2014 13:20:00 9.9 C 73 % 5.29 C
1555 04-03-2014 13:25:00 10.1 C 77 % 6.26 C
1556 04-03-2014 13:30:00 10.2 C 72 % 5.39 C
1557 04-03-2014 13:35:00 10.2 C 72 % 5.39 C
1558 04-03-2014 13:40:00 10.4 C 68 % 4.76 C
1559 04-03-2014 13:45:00 10.6 C 68 % 4.95 C
1560 04-03-2014 13:50:00 10.7 C 69 % 5.25 C
1561 04-03-2014 13:55:00 10.8 C 70 % 5.56 C
1562 04-03-2014 14:00:00 10.9 C 69 % 5.44 C
1563 04-03-2014 14:05:00 11.1 C 65 % 4.78 C
1564 04-03-2014 14:10:00 11.1 C 67 % 5.21 C
1565 04-03-2014 14:15:00 11.3 C 67 % 5.4 C
1566 04-03-2014 14:20:00 11.4 C 66 % 5.28 C
1567 04-03-2014 14:25:00 11.4 C 64 % 4.84 C
1568 04-03-2014 14:30:00 11.6 C 59 % 3.87 C
1569 04-03-2014 14:35:00 11.6 C 66 % 5.47 C
1570 04-03-2014 14:40:00 11.4 C 56 % 2.95 C
1571 04-03-2014 14:45:00 11.6 C 56 % 3.13 C
1572 04-03-2014 14:50:00 11.7 C 56 % 3.23 C
1573 04-03-2014 14:55:00 11.8 C 60 % 4.3 C
1574 04-03-2014 15:00:00 11.9 C 56 % 3.41 C
1575 04-03-2014 15:05:00 12 C 58 % 4 C
Sensor: Nr:Datum:Temp:Feuchte:Taupunkt:
Aussen-T/F 1576 04-03-2014 15:10:00 12.1 C 56 % 3.6 C
1577 04-03-2014 15:15:00 12.2 C 58 % 4.19 C
1578 04-03-2014 15:20:00 12.2 C 54 % 3.18 C
1579 04-03-2014 15:25:00 12.3 C 53 % 3.01 C
1580 04-03-2014 15:30:00 12.3 C 54 % 3.27 C
1581 04-03-2014 15:35:00 12.2 C 53 % 2.91 C
1582 04-03-2014 15:40:00 12.2 C 53 % 2.91 C
1583 04-03-2014 15:45:00 12.2 C 53 % 2.91 C
1584 04-03-2014 15:50:00 12.2 C 57 % 3.94 C
1585 04-03-2014 15:55:00 11.9 C 54 % 2.9 C
1586 04-03-2014 16:00:00 11.7 C 58 % 3.72 C
1587 04-03-2014 16:05:00 11.3 C 65 % 4.97 C
1588 04-03-2014 16:10:00 10.6 C 68 % 4.95 C
1589 04-03-2014 16:15:00 10.1 C 71 % 5.09 C
1590 04-03-2014 16:20:00 9.7 C 72 % 4.9 C
1591 04-03-2014 16:25:00 9.4 C 74 % 5.01 C
1592 04-03-2014 16:30:00 9.4 C 73 % 4.81 C
1593 04-03-2014 16:35:00 9.4 C 76 % 5.39 C
1594 04-03-2014 16:40:00 9.3 C 75 % 5.1 C
1595 04-03-2014 16:45:00 9.2 C 75 % 5.01 C
1596 04-03-2014 16:50:00 9.1 C 76 % 5.1 C
1597 04-03-2014 16:55:00 9.1 C 77 % 5.29 C
1598 04-03-2014 17:00:00 9.1 C 77 % 5.29 C
1599 04-03-2014 17:05:00 9.1 C 78 % 5.47 C
1600 04-03-2014 17:10:00 9.1 C 77 % 5.29 C
Sensor: Nr:Datum:Temp:Feuchte:Taupunkt:
Aussen-T/F 1601 04-03-2014 17:15:00 9.1 C 75 % 4.91 C
1602 04-03-2014 17:20:00 8.9 C 76 % 4.91 C
1603 04-03-2014 17:25:00 8.9 C 78 % 5.28 C
1604 04-03-2014 17:30:00 9 C 78 % 5.38 C
1605 04-03-2014 17:35:00 8.9 C 78 % 5.28 C
1606 04-03-2014 17:40:00 8.9 C 78 % 5.28 C
1607 04-03-2014 17:45:00 8.9 C 78 % 5.28 C
1608 04-03-2014 17:50:00 8.8 C 78 % 5.18 C
1609 04-03-2014 17:55:00 8.8 C 77 % 5 C
1610 04-03-2014 18:00:00 8.6 C 78 % 4.99 C
1611 04-03-2014 18:05:00 8.2 C 79 % 4.78 C
1612 04-03-2014 18:10:00 7.9 C 79 % 4.49 C
1613 04-03-2014 18:15:00 7.6 C 79 % 4.2 C
1614 04-03-2014 18:20:00 7.4 C 80 % 4.18 C
1615 04-03-2014 18:25:00 7.2 C 81 % 4.16 C
1616 04-03-2014 18:30:00 7.1 C 81 % 4.07 C
1617 04-03-2014 18:35:00 6.9 C 81 % 3.87 C
1618 04-03-2014 18:40:00 6.9 C 82 % 4.05 C
1619 04-03-2014 18:45:00 6.8 C 82 % 3.95 C
1620 04-03-2014 18:50:00 6.8 C 83 % 4.12 C
1621 04-03-2014 18:55:00 6.8 C 83 % 4.12 C
1622 04-03-2014 19:00:00 6.8 C 83 % 4.12 C
1623 04-03-2014 19:05:00 6.9 C 83 % 4.22 C
1624 04-03-2014 19:10:00 7 C 83 % 4.32 C
1625 04-03-2014 19:15:00 7 C 83 % 4.32 C
Sensor: Nr:Datum:Temp:Feuchte:Taupunkt:
Aussen-T/F 1626 04-03-2014 19:20:00 7.3 C 81 % 4.26 C
1627 04-03-2014 19:25:00 7.4 C 80 % 4.18 C
1628 04-03-2014 19:30:00 7.6 C 79 % 4.2 C
1629 04-03-2014 19:35:00 7.9 C 79 % 4.49 C
1630 04-03-2014 19:40:00 8 C 79 % 4.59 C
1631 04-03-2014 19:45:00 8.3 C 76 % 4.33 C
1632 04-03-2014 19:50:00 8.3 C 78 % 4.7 C
1633 04-03-2014 19:55:00 8.2 C 77 % 4.42 C
1634 04-03-2014 20:00:00 8.4 C 76 % 4.42 C
1635 04-03-2014 20:05:00 8.5 C 75 % 4.33 C
1636 04-03-2014 20:10:00 8.4 C 76 % 4.42 C
1637 04-03-2014 20:15:00 8.3 C 76 % 4.33 C
1638 04-03-2014 20:20:00 8.4 C 76 % 4.42 C
1639 04-03-2014 20:25:00 8.3 C 78 % 4.7 C
1640 04-03-2014 20:30:00 8.1 C 79 % 4.68 C
1641 04-03-2014 20:35:00 7.8 C 79 % 4.39 C
1642 04-03-2014 20:40:00 7.7 C 80 % 4.47 C
1643 04-03-2014 20:45:00 7.7 C 81 % 4.65 C
1644 04-03-2014 20:50:00 7.6 C 82 % 4.73 C
1645 04-03-2014 20:55:00 7.4 C 83 % 4.71 C
1646 04-03-2014 21:00:00 7.4 C 81 % 4.36 C
1647 04-03-2014 21:05:00 7.5 C 82 % 4.63 C
1648 04-03-2014 21:10:00 7.4 C 83 % 4.71 C
1649 04-03-2014 21:15:00 7.4 C 80 % 4.18 C
1650 04-03-2014 21:20:00 7.6 C 81 % 4.55 C
Sensor: Nr:Datum:Temp:Feuchte:Taupunkt:
Aussen-T/F 1651 04-03-2014 21:25:00 7.4 C 82 % 4.53 C
1652 04-03-2014 21:30:00 7.2 C 82 % 4.34 C
1653 04-03-2014 21:35:00 7.1 C 82 % 4.24 C
1654 04-03-2014 21:40:00 6.8 C 83 % 4.12 C
1655 04-03-2014 21:45:00 6.6 C 83 % 3.92 C
1656 04-03-2014 21:50:00 6.4 C 84 % 3.9 C
1657 04-03-2014 21:55:00 6.3 C 84 % 3.8 C
1658 04-03-2014 22:00:00 6.2 C 84 % 3.7 C
1659 04-03-2014 22:05:00 6.2 C 85 % 3.87 C
1660 04-03-2014 22:10:00 6.3 C 85 % 3.97 C
1661 04-03-2014 22:15:00 6.3 C 85 % 3.97 C
1662 04-03-2014 22:20:00 6.3 C 86 % 4.14 C
1663 04-03-2014 22:25:00 6.2 C 86 % 4.04 C
1664 04-03-2014 22:30:00 6.2 C 87 % 4.2 C
1665 04-03-2014 22:35:00 6.1 C 86 % 3.94 C
1666 04-03-2014 22:40:00 6.1 C 87 % 4.1 C
1667 04-03-2014 22:45:00 6.2 C 85 % 3.87 C
1668 04-03-2014 22:50:00 6.2 C 85 % 3.87 C
1669 04-03-2014 22:55:00 6.2 C 85 % 3.87 C
1670 04-03-2014 23:00:00 6.1 C 86 % 3.94 C
1671 04-03-2014 23:05:00 6.1 C 87 % 4.1 C
1672 04-03-2014 23:10:00 5.9 C 86 % 3.74 C
1673 04-03-2014 23:15:00 5.8 C 85 % 3.48 C
1674 04-03-2014 23:20:00 5.7 C 85 % 3.38 C
1675 04-03-2014 23:25:00 5.5 C 86 % 3.35 C
Sensor: Nr:Datum:Temp:Feuchte:Taupunkt:
Aussen-T/F 1676 04-03-2014 23:30:00 5.3 C 86 % 3.15 C
1677 04-03-2014 23:35:00 5.3 C 87 % 3.32 C
1678 04-03-2014 23:40:00 5.2 C 88 % 3.38 C
1679 04-03-2014 23:45:00 5.1 C 88 % 3.28 C
1680 04-03-2014 23:50:00 4.9 C 88 % 3.08 C
1681 04-03-2014 23:55:00 4.8 C 89 % 3.14 C
1682 05-03-2014 00:00:00 4.8 C 88 % 2.99 C
1683 05-03-2014 00:05:00 5 C 88 % 3.18 C
1684 05-03-2014 00:10:00 5.2 C 88 % 3.38 C
1685 05-03-2014 00:15:00 5.3 C 87 % 3.32 C
1686 05-03-2014 00:20:00 5.2 C 86 % 3.05 C
1687 05-03-2014 00:25:00 5.1 C 86 % 2.96 C
1688 05-03-2014 00:30:00 4.7 C 87 % 2.73 C
1689 05-03-2014 00:35:00 4.5 C 88 % 2.69 C
1690 05-03-2014 00:40:00 4.4 C 89 % 2.75 C
1691 05-03-2014 00:45:00 4.3 C 89 % 2.65 C
1692 05-03-2014 00:50:00 4.2 C 90 % 2.71 C
1693 05-03-2014 00:55:00 4.2 C 91 % 2.87 C
1694 05-03-2014 01:00:00 4.2 C 91 % 2.87 C
1695 05-03-2014 01:05:00 4.2 C 91 % 2.87 C
1696 05-03-2014 01:10:00 4.1 C 90 % 2.61 C
1697 05-03-2014 01:15:00 3.9 C 90 % 2.41 C
1698 05-03-2014 01:20:00 3.8 C 90 % 2.31 C
1699 05-03-2014 01:25:00 3.6 C 89 % 1.96 C
1700 05-03-2014 01:30:00 3.4 C 90 % 1.92 C
Sensor: Nr:Datum:Temp:Feuchte:Taupunkt:
Aussen-T/F 1701 05-03-2014 01:35:00 3.2 C 90 % 1.72 C
1702 05-03-2014 01:40:00 3.1 C 91 % 1.78 C
1703 05-03-2014 01:45:00 3 C 91 % 1.68 C
1704 05-03-2014 01:50:00 2.9 C 91 % 1.58 C
1705 05-03-2014 01:55:00 2.8 C 92 % 1.63 C
1706 05-03-2014 02:00:00 2.8 C 92 % 1.63 C
1707 05-03-2014 02:05:00 2.7 C 92 % 1.53 C
1708 05-03-2014 02:10:00 2.7 C 93 % 1.68 C
1709 05-03-2014 02:15:00 2.7 C 93 % 1.68 C
1710 05-03-2014 02:20:00 2.6 C 93 % 1.59 C
1711 05-03-2014 02:25:00 2.6 C 93 % 1.59 C
1712 05-03-2014 02:30:00 2.4 C 93 % 1.39 C
1713 05-03-2014 02:35:00 2.4 C 93 % 1.39 C
1714 05-03-2014 02:40:00 2.3 C 93 % 1.29 C
1715 05-03-2014 02:45:00 2.3 C 93 % 1.29 C
1716 05-03-2014 02:50:00 2.3 C 94 % 1.44 C
1717 05-03-2014 02:55:00 2.4 C 94 % 1.54 C
1718 05-03-2014 03:00:00 2.3 C 94 % 1.44 C
1719 05-03-2014 03:05:00 2.3 C 93 % 1.29 C
1720 05-03-2014 03:10:00 2.2 C 94 % 1.34 C
1721 05-03-2014 03:15:00 2.1 C 93 % 1.09 C
1722 05-03-2014 03:20:00 2.1 C 93 % 1.09 C
1723 05-03-2014 03:25:00 2 C 94 % 1.14 C
1724 05-03-2014 03:30:00 1.9 C 94 % 1.04 C
1725 05-03-2014 03:35:00 1.9 C 94 % 1.04 C
Sensor: Nr:Datum:Temp:Feuchte:Taupunkt:
Aussen-T/F 1726 05-03-2014 03:40:00 1.9 C 94 % 1.04 C
1727 05-03-2014 03:45:00 1.9 C 94 % 1.04 C
1728 05-03-2014 03:50:00 1.8 C 94 % 0.94 C
1729 05-03-2014 03:55:00 1.8 C 94 % 0.94 C
1730 05-03-2014 04:00:00 1.9 C 94 % 1.04 C
1731 05-03-2014 04:05:00 1.8 C 94 % 0.94 C
1732 05-03-2014 04:10:00 1.8 C 94 % 0.94 C
1733 05-03-2014 04:15:00 1.7 C 94 % 0.84 C
1734 05-03-2014 04:20:00 1.6 C 94 % 0.74 C
1735 05-03-2014 04:25:00 1.6 C 94 % 0.74 C
1736 05-03-2014 04:30:00 1.6 C 94 % 0.74 C
1737 05-03-2014 04:35:00 1.7 C 95 % 0.99 C
1738 05-03-2014 04:40:00 1.8 C 95 % 1.09 C
1739 05-03-2014 04:45:00 1.8 C 95 % 1.09 C
1740 05-03-2014 04:50:00 1.9 C 95 % 1.19 C
1741 05-03-2014 04:55:00 2 C 95 % 1.29 C
1742 05-03-2014 05:00:00 2.1 C 95 % 1.38 C
1743 05-03-2014 05:05:00 2.1 C 94 % 1.24 C
1744 05-03-2014 05:10:00 2.1 C 94 % 1.24 C
1745 05-03-2014 05:15:00 2.1 C 94 % 1.24 C
1746 05-03-2014 05:20:00 2 C 94 % 1.14 C
1747 05-03-2014 05:25:00 1.9 C 94 % 1.04 C
1748 05-03-2014 05:30:00 1.9 C 94 % 1.04 C
1749 05-03-2014 05:35:00 1.9 C 94 % 1.04 C
1750 05-03-2014 05:40:00 1.8 C 94 % 0.94 C
Sensor: Nr:Datum:Temp:Feuchte:Taupunkt:
Aussen-T/F 1751 05-03-2014 05:45:00 1.7 C 93 % 0.69 C
1752 05-03-2014 05:50:00 1.6 C 93 % 0.59 C
1753 05-03-2014 05:55:00 1.6 C 93 % 0.59 C
1754 05-03-2014 06:00:00 1.5 C 94 % 0.64 C
1755 05-03-2014 06:05:00 1.4 C 94 % 0.54 C
1756 05-03-2014 06:10:00 1.3 C 94 % 0.44 C
1757 05-03-2014 06:15:00 1.3 C 94 % 0.44 C
1758 05-03-2014 06:20:00 1.3 C 94 % 0.44 C
1759 05-03-2014 06:25:00 1.3 C 94 % 0.44 C
1760 05-03-2014 06:30:00 1.4 C 95 % 0.69 C
1761 05-03-2014 06:35:00 1.5 C 95 % 0.79 C
1762 05-03-2014 06:40:00 1.6 C 95 % 0.89 C
1763 05-03-2014 06:45:00 1.7 C 95 % 0.99 C
1764 05-03-2014 06:50:00 1.8 C 95 % 1.09 C
1765 05-03-2014 06:55:00 1.9 C 95 % 1.19 C
1766 05-03-2014 07:00:00 2 C 95 % 1.29 C
1767 05-03-2014 07:05:00 2 C 95 % 1.29 C
1768 05-03-2014 07:10:00 2.1 C 94 % 1.24 C
1769 05-03-2014 07:15:00 2.1 C 94 % 1.24 C
1770 05-03-2014 07:20:00 2.1 C 94 % 1.24 C
1771 05-03-2014 07:25:00 2.2 C 94 % 1.34 C
1772 05-03-2014 07:30:00 2.3 C 94 % 1.44 C
1773 05-03-2014 07:35:00 2.3 C 93 % 1.29 C
1774 05-03-2014 07:40:00 2.3 C 93 % 1.29 C
1775 05-03-2014 07:45:00 2.3 C 93 % 1.29 C
Sensor: Nr:Datum:Temp:Feuchte:Taupunkt:
Aussen-T/F 1776 05-03-2014 07:50:00 2.3 C 93 % 1.29 C
1777 05-03-2014 07:55:00 2.3 C 93 % 1.29 C
1778 05-03-2014 08:00:00 2.3 C 93 % 1.29 C
1779 05-03-2014 08:05:00 2.3 C 92 % 1.14 C
1780 05-03-2014 08:10:00 2.3 C 92 % 1.14 C
1781 05-03-2014 08:15:00 2.2 C 92 % 1.04 C
1782 05-03-2014 08:20:00 2.2 C 92 % 1.04 C
1783 05-03-2014 08:25:00 2.1 C 92 % 0.94 C
1784 05-03-2014 08:30:00 2.1 C 92 % 0.94 C
1785 05-03-2014 08:35:00 2.1 C 93 % 1.09 C
1786 05-03-2014 08:40:00 2.2 C 93 % 1.19 C
1787 05-03-2014 08:45:00 2.3 C 93 % 1.29 C
1788 05-03-2014 08:50:00 2.3 C 93 % 1.29 C
1789 05-03-2014 08:55:00 2.4 C 93 % 1.39 C
1790 05-03-2014 09:00:00 2.5 C 93 % 1.49 C
1791 05-03-2014 09:05:00 2.5 C 93 % 1.49 C
1792 05-03-2014 09:10:00 2.6 C 93 % 1.59 C
1793 05-03-2014 09:15:00 2.6 C 93 % 1.59 C
1794 05-03-2014 09:20:00 2.7 C 93 % 1.68 C
1795 05-03-2014 09:25:00 2.8 C 93 % 1.78 C
1796 05-03-2014 09:30:00 2.8 C 93 % 1.78 C
1797 05-03-2014 09:35:00 2.9 C 93 % 1.88 C
1798 05-03-2014 09:40:00 3 C 93 % 1.98 C
1799 05-03-2014 09:45:00 3.1 C 93 % 2.08 C
1800 05-03-2014 09:50:00 3.3 C 93 % 2.28 C
Sensor: Nr:Datum:Temp:Feuchte:Taupunkt:
Aussen-T/F 1801 05-03-2014 09:55:00 3.5 C 93 % 2.48 C
1802 05-03-2014 10:00:00 3.7 C 93 % 2.68 C
1803 05-03-2014 10:05:00 3.9 C 93 % 2.87 C
1804 05-03-2014 10:10:00 4.2 C 93 % 3.17 C
1805 05-03-2014 10:15:00 4.5 C 92 % 3.32 C
1806 05-03-2014 10:20:00 4.8 C 91 % 3.46 C
1807 05-03-2014 10:25:00 5.1 C 90 % 3.6 C
1808 05-03-2014 10:30:00 5.4 C 90 % 3.89 C
1809 05-03-2014 10:35:00 5.8 C 88 % 3.97 C
1810 05-03-2014 10:40:00 5.9 C 88 % 4.07 C
1811 05-03-2014 10:45:00 5.9 C 88 % 4.07 C
1812 05-03-2014 11:55:00 8.6 C 79 % 5.17 C
1813 05-03-2014 12:00:00 8.6 C 78 % 4.99 C
1814 05-03-2014 12:05:00 8.7 C 78 % 5.08 C
1815 05-03-2014 12:10:00 8.9 C 77 % 5.09 C
1816 05-03-2014 12:15:00 9 C 76 % 5 C
1817 05-03-2014 12:20:00 9.2 C 75 % 5.01 C
1818 05-03-2014 12:25:00 9.2 C 75 % 5.01 C
1819 05-03-2014 12:30:00 9.3 C 76 % 5.29 C
1820 05-03-2014 12:35:00 9.4 C 73 % 4.81 C
1821 05-03-2014 12:40:00 9.6 C 72 % 4.81 C
1822 05-03-2014 12:45:00 9.7 C 72 % 4.9 C
1823 05-03-2014 12:50:00 9.7 C 72 % 4.9 C
1824 05-03-2014 12:55:00 10.4 C 72 % 5.58 C
1825 05-03-2014 13:00:00 10.4 C 72 % 5.58 C
Sensor: Nr:Datum:Temp:Feuchte:Taupunkt:
Aussen-T/F 1826 05-03-2014 13:05:00 10.8 C 72 % 5.96 C
1827 05-03-2014 13:10:00 10.8 C 72 % 5.96 C
1828 05-03-2014 14:55:00 10.1 C 67 % 4.26 C
1829 05-03-2014 15:00:00 10.1 C 67 % 4.26 C
1830 05-03-2014 15:05:00 10.6 C 66 % 4.52 C
1831 05-03-2014 15:10:00 10.8 C 65 % 4.49 C
1832 05-03-2014 15:15:00 10.7 C 63 % 3.95 C
1833 05-03-2014 15:20:00 10.6 C 63 % 3.86 C
1834 05-03-2014 15:25:00 10.5 C 65 % 4.21 C
1835 05-03-2014 15:30:00 10.4 C 66 % 4.33 C
1836 05-03-2014 15:35:00 10.3 C 66 % 4.24 C
1837 05-03-2014 15:40:00 10.4 C 67 % 4.55 C
1838 05-03-2014 15:45:00 10.5 C 67 % 4.64 C
1839 05-03-2014 15:50:00 10.7 C 67 % 4.83 C
1840 05-03-2014 15:55:00 10.6 C 67 % 4.74 C
1841 05-03-2014 16:00:00 10.4 C 67 % 4.55 C
1842 05-03-2014 16:05:00 10.3 C 68 % 4.66 C
1843 05-03-2014 16:10:00 10.1 C 67 % 4.26 C
1844 05-03-2014 16:15:00 9.9 C 69 % 4.49 C
1845 05-03-2014 16:20:00 9.8 C 68 % 4.18 C
1846 05-03-2014 16:25:00 9.7 C 69 % 4.3 C
1847 05-03-2014 16:30:00 9.7 C 69 % 4.3 C
1848 05-03-2014 16:35:00 9.7 C 68 % 4.09 C
1849 05-03-2014 16:40:00 9.7 C 68 % 4.09 C
1850 05-03-2014 16:45:00 9.8 C 68 % 4.18 C
Sensor: Nr:Datum:Temp:Feuchte:Taupunkt:
Aussen-T/F 1851 05-03-2014 16:50:00 9.8 C 68 % 4.18 C
1852 05-03-2014 16:55:00 9.8 C 67 % 3.97 C
1853 05-03-2014 17:00:00 9.8 C 66 % 3.76 C
1854 05-03-2014 17:05:00 9.8 C 67 % 3.97 C
1855 05-03-2014 17:10:00 9.8 C 67 % 3.97 C
1856 05-03-2014 17:15:00 9.8 C 68 % 4.18 C
1857 05-03-2014 17:20:00 9.7 C 68 % 4.09 C
1858 05-03-2014 17:25:00 9.6 C 67 % 3.78 C
1859 05-03-2014 17:30:00 9.6 C 68 % 3.99 C
1860 05-03-2014 17:35:00 9.4 C 69 % 4.01 C
1861 05-03-2014 17:40:00 9.4 C 69 % 4.01 C
1862 05-03-2014 17:45:00 9.3 C 69 % 3.91 C
1863 05-03-2014 17:50:00 9.3 C 68 % 3.71 C
1864 05-03-2014 17:55:00 9.3 C 68 % 3.71 C
1865 05-03-2014 18:00:00 9.2 C 69 % 3.82 C
1866 05-03-2014 18:05:00 8.9 C 71 % 3.94 C
1867 05-03-2014 18:10:00 8.5 C 71 % 3.55 C
1868 05-03-2014 18:15:00 8.2 C 72 % 3.46 C
1869 05-03-2014 18:20:00 7.8 C 74 % 3.46 C
1870 05-03-2014 18:25:00 7.7 C 74 % 3.37 C
1871 05-03-2014 18:30:00 7.3 C 76 % 3.36 C
1872 05-03-2014 18:35:00 6.9 C 78 % 3.34 C
1873 05-03-2014 18:40:00 6.6 C 80 % 3.4 C
1874 05-03-2014 18:45:00 6.2 C 81 % 3.19 C
1875 05-03-2014 18:50:00 6.1 C 83 % 3.44 C
Sensor: Nr:Datum:Temp:Feuchte:Taupunkt:
Aussen-T/F 1876 05-03-2014 18:55:00 6 C 83 % 3.34 C
1877 05-03-2014 19:00:00 5.8 C 84 % 3.31 C
1878 05-03-2014 19:05:00 5.8 C 85 % 3.48 C
1879 05-03-2014 19:10:00 5.7 C 85 % 3.38 C
1880 05-03-2014 19:15:00 5.7 C 85 % 3.38 C
1881 05-03-2014 19:20:00 5.6 C 85 % 3.28 C
1882 05-03-2014 19:25:00 5.5 C 86 % 3.35 C
1883 05-03-2014 19:30:00 5.3 C 86 % 3.15 C
1884 05-03-2014 19:35:00 5.2 C 87 % 3.22 C
1885 05-03-2014 19:40:00 5.3 C 87 % 3.32 C
1886 05-03-2014 19:45:00 5.3 C 87 % 3.32 C
1887 05-03-2014 19:50:00 5.2 C 87 % 3.22 C
1888 05-03-2014 19:55:00 5.2 C 87 % 3.22 C
1889 05-03-2014 20:00:00 5.2 C 87 % 3.22 C
1890 05-03-2014 20:05:00 5.2 C 87 % 3.22 C
1891 05-03-2014 20:10:00 5.2 C 87 % 3.22 C
1892 05-03-2014 20:15:00 5.1 C 88 % 3.28 C
1893 05-03-2014 20:20:00 5 C 88 % 3.18 C
1894 05-03-2014 20:25:00 5 C 88 % 3.18 C
1895 05-03-2014 20:30:00 4.9 C 88 % 3.08 C
1896 05-03-2014 20:35:00 4.8 C 89 % 3.14 C
1897 05-03-2014 20:40:00 4.6 C 89 % 2.95 C
1898 05-03-2014 20:45:00 4.6 C 90 % 3.1 C
1899 05-03-2014 20:50:00 4.5 C 90 % 3.01 C
1900 05-03-2014 20:55:00 4.4 C 90 % 2.91 C
Sensor: Nr:Datum:Temp:Feuchte:Taupunkt:
Aussen-T/F 1901 05-03-2014 21:00:00 4.3 C 90 % 2.81 C
1902 05-03-2014 21:05:00 4.2 C 90 % 2.71 C
1903 05-03-2014 21:10:00 4.1 C 90 % 2.61 C
1904 05-03-2014 21:15:00 3.9 C 91 % 2.57 C
1905 05-03-2014 21:20:00 3.8 C 91 % 2.47 C
1906 05-03-2014 21:25:00 3.8 C 92 % 2.62 C
1907 05-03-2014 21:30:00 3.7 C 92 % 2.52 C
1908 05-03-2014 21:35:00 3.7 C 92 % 2.52 C
1909 05-03-2014 21:40:00 3.6 C 92 % 2.42 C
1910 05-03-2014 21:45:00 3.4 C 92 % 2.23 C
1911 05-03-2014 21:50:00 3.3 C 92 % 2.13 C
1912 05-03-2014 21:55:00 3.3 C 92 % 2.13 C
1913 05-03-2014 22:00:00 3.2 C 93 % 2.18 C
1914 05-03-2014 22:05:00 3.2 C 93 % 2.18 C
1915 05-03-2014 22:10:00 3.2 C 93 % 2.18 C
1916 05-03-2014 22:15:00 3.2 C 93 % 2.18 C
1917 05-03-2014 22:20:00 3 C 93 % 1.98 C
1918 05-03-2014 22:25:00 2.9 C 93 % 1.88 C
1919 05-03-2014 22:30:00 2.8 C 93 % 1.78 C
1920 05-03-2014 22:35:00 2.8 C 93 % 1.78 C
1921 05-03-2014 22:40:00 2.8 C 93 % 1.78 C
1922 05-03-2014 22:45:00 2.7 C 93 % 1.68 C
1923 05-03-2014 22:50:00 2.7 C 94 % 1.83 C
1924 05-03-2014 22:55:00 2.6 C 94 % 1.73 C
1925 05-03-2014 23:00:00 2.6 C 94 % 1.73 C
Sensor: Nr:Datum:Temp:Feuchte:Taupunkt:
Aussen-T/F 1926 05-03-2014 23:05:00 2.5 C 94 % 1.63 C
1927 05-03-2014 23:10:00 2.4 C 94 % 1.54 C
1928 05-03-2014 23:15:00 2.4 C 94 % 1.54 C
1929 05-03-2014 23:20:00 2.3 C 94 % 1.44 C
1930 05-03-2014 23:25:00 2.2 C 94 % 1.34 C
1931 05-03-2014 23:30:00 2.1 C 94 % 1.24 C
1932 05-03-2014 23:35:00 2 C 94 % 1.14 C
1933 05-03-2014 23:40:00 1.9 C 94 % 1.04 C
1934 05-03-2014 23:45:00 1.9 C 95 % 1.19 C
1935 05-03-2014 23:50:00 1.9 C 94 % 1.04 C
1936 05-03-2014 23:55:00 1.9 C 95 % 1.19 C
1937 06-03-2014 00:00:00 1.9 C 94 % 1.04 C
1938 06-03-2014 00:05:00 1.8 C 94 % 0.94 C
1939 06-03-2014 00:10:00 1.9 C 95 % 1.19 C
1940 06-03-2014 00:15:00 1.9 C 95 % 1.19 C
1941 06-03-2014 00:20:00 1.8 C 95 % 1.09 C
1942 06-03-2014 00:25:00 1.8 C 95 % 1.09 C
1943 06-03-2014 00:30:00 1.7 C 95 % 0.99 C
1944 06-03-2014 00:35:00 1.7 C 95 % 0.99 C
1945 06-03-2014 00:40:00 1.7 C 95 % 0.99 C
1946 06-03-2014 00:45:00 1.7 C 95 % 0.99 C
1947 06-03-2014 00:50:00 1.4 C 95 % 0.69 C
1948 06-03-2014 00:55:00 1.3 C 95 % 0.59 C
1949 06-03-2014 01:00:00 1.3 C 95 % 0.59 C
1950 06-03-2014 01:05:00 1.4 C 95 % 0.69 C
Sensor: Nr:Datum:Temp:Feuchte:Taupunkt:
Aussen-T/F 1951 06-03-2014 01:10:00 1.4 C 95 % 0.69 C
1952 06-03-2014 01:15:00 1.5 C 95 % 0.79 C
1953 06-03-2014 01:20:00 1.4 C 95 % 0.69 C
1954 06-03-2014 01:25:00 1.4 C 95 % 0.69 C
1955 06-03-2014 01:30:00 1.3 C 95 % 0.59 C
1956 06-03-2014 01:35:00 1.2 C 95 % 0.49 C
1957 06-03-2014 01:40:00 1.2 C 95 % 0.49 C
1958 06-03-2014 01:45:00 1.1 C 95 % 0.39 C
1959 06-03-2014 01:50:00 1 C 95 % 0.29 C
1960 06-03-2014 01:55:00 0.9 C 95 % 0.19 C
1961 06-03-2014 02:00:00 0.9 C 95 % 0.19 C
1962 06-03-2014 02:05:00 0.9 C 96 % 0.34 C
1963 06-03-2014 02:10:00 0.8 C 95 % 0.09 C
1964 06-03-2014 02:15:00 0.7 C 95 % -0.01 C
1965 06-03-2014 02:20:00 0.7 C 95 % -0.01 C
1966 06-03-2014 02:25:00 0.7 C 96 % 0.14 C
1967 06-03-2014 02:30:00 0.7 C 96 % 0.14 C
1968 06-03-2014 02:35:00 0.7 C 96 % 0.14 C
1969 06-03-2014 02:40:00 0.7 C 96 % 0.14 C
1970 06-03-2014 02:45:00 0.6 C 96 % 0.04 C
1971 06-03-2014 02:50:00 0.4 C 95 % -0.31 C
1972 06-03-2014 02:55:00 0.3 C 96 % -0.26 C
1973 06-03-2014 03:00:00 0.3 C 96 % -0.26 C
1974 06-03-2014 03:05:00 0.3 C 96 % -0.26 C
1975 06-03-2014 03:10:00 0.3 C 96 % -0.26 C
Sensor: Nr:Datum:Temp:Feuchte:Taupunkt:
Aussen-T/F 1976 06-03-2014 03:15:00 0.2 C 96 % -0.36 C
1977 06-03-2014 03:20:00 0.2 C 96 % -0.36 C
1978 06-03-2014 03:25:00 0.2 C 96 % -0.36 C
1979 06-03-2014 03:30:00 0.2 C 96 % -0.36 C
1980 06-03-2014 03:35:00 0.1 C 96 % -0.46 C
1981 06-03-2014 03:40:00 0.1 C 96 % -0.46 C
1982 06-03-2014 03:45:00 0.1 C 96 % -0.46 C
1983 06-03-2014 03:50:00 0 C 96 % -0.56 C
1984 06-03-2014 03:55:00 0 C 96 % -0.56 C
1985 06-03-2014 04:00:00 0 C 96 % -0.56 C
1986 06-03-2014 04:05:00 0 C 96 % -0.56 C
1987 06-03-2014 04:10:00 0 C 96 % -0.56 C
1988 06-03-2014 04:15:00 0 C 96 % -0.56 C
1989 06-03-2014 04:20:00 -0.1 C 96 % -0.66 C
1990 06-03-2014 04:25:00 -0.2 C 96 % -0.76 C
1991 06-03-2014 04:30:00 -0.3 C 96 % -0.86 C
1992 06-03-2014 04:35:00 -0.3 C 96 % -0.86 C
1993 06-03-2014 04:40:00 -0.3 C 96 % -0.86 C
1994 06-03-2014 04:45:00 -0.4 C 96 % -0.96 C
1995 06-03-2014 04:50:00 -0.4 C 96 % -0.96 C
1996 06-03-2014 04:55:00 -0.4 C 96 % -0.96 C
1997 06-03-2014 05:00:00 -0.5 C 96 % -1.06 C
1998 06-03-2014 05:05:00 -0.5 C 96 % -1.06 C
1999 06-03-2014 05:10:00 -0.6 C 96 % -1.16 C
2000 06-03-2014 05:15:00 -0.6 C 96 % -1.16 C
Sensor: Nr:Datum:Temp:Feuchte:Taupunkt:
Aussen-T/F 2001 06-03-2014 05:20:00 -0.6 C 96 % -1.16 C
2002 06-03-2014 05:25:00 -0.7 C 96 % -1.26 C
2003 06-03-2014 05:30:00 -0.7 C 96 % -1.26 C
2004 06-03-2014 05:35:00 -0.7 C 96 % -1.26 C
2005 06-03-2014 05:40:00 -0.7 C 96 % -1.26 C
2006 06-03-2014 05:45:00 -0.7 C 96 % -1.26 C
2007 06-03-2014 05:50:00 -0.6 C 96 % -1.16 C
2008 06-03-2014 05:55:00 -0.5 C 96 % -1.06 C
2009 06-03-2014 06:00:00 -0.5 C 96 % -1.06 C
2010 06-03-2014 06:05:00 -0.4 C 97 % -0.82 C
2011 06-03-2014 06:10:00 -0.3 C 97 % -0.72 C
2012 06-03-2014 06:15:00 -0.3 C 97 % -0.72 C
2013 06-03-2014 06:20:00 -0.3 C 97 % -0.72 C
2014 06-03-2014 06:25:00 -0.2 C 97 % -0.62 C
2015 06-03-2014 06:30:00 -0.2 C 97 % -0.62 C
2016 06-03-2014 06:35:00 -0.1 C 97 % -0.52 C
2017 06-03-2014 06:40:00 -0.1 C 97 % -0.52 C
2018 06-03-2014 06:45:00 -0.1 C 97 % -0.52 C
2019 06-03-2014 06:50:00 -0.2 C 97 % -0.62 C
2020 06-03-2014 06:55:00 -0.2 C 97 % -0.62 C
2021 06-03-2014 07:00:00 -0.2 C 97 % -0.62 C
2022 06-03-2014 07:05:00 -0.2 C 97 % -0.62 C
2023 06-03-2014 07:10:00 -0.2 C 97 % -0.62 C
2024 06-03-2014 07:15:00 -0.2 C 97 % -0.62 C
2025 06-03-2014 07:20:00 -0.2 C 97 % -0.62 C
Sensor: Nr:Datum:Temp:Feuchte:Taupunkt:
Aussen-T/F 2026 06-03-2014 07:25:00 -0.1 C 97 % -0.52 C
2027 06-03-2014 07:30:00 -0.1 C 97 % -0.52 C
2028 06-03-2014 07:35:00 -0.1 C 97 % -0.52 C
2029 06-03-2014 07:40:00 -0.1 C 97 % -0.52 C
2030 06-03-2014 07:45:00 0 C 97 % -0.42 C
2031 06-03-2014 07:50:00 0 C 97 % -0.42 C
2032 06-03-2014 07:55:00 0.1 C 97 % -0.32 C
2033 06-03-2014 08:00:00 0.1 C 97 % -0.32 C
2034 06-03-2014 08:05:00 0.1 C 97 % -0.32 C
2035 06-03-2014 08:10:00 0.2 C 97 % -0.22 C
2036 06-03-2014 08:15:00 0.2 C 97 % -0.22 C
2037 06-03-2014 08:20:00 0.3 C 97 % -0.12 C
2038 06-03-2014 08:25:00 0.3 C 97 % -0.12 C
2039 06-03-2014 08:30:00 0.3 C 97 % -0.12 C
2040 06-03-2014 08:35:00 0.3 C 97 % -0.12 C
2041 06-03-2014 08:40:00 0.4 C 97 % -0.02 C
2042 06-03-2014 08:45:00 0.4 C 97 % -0.02 C
2043 06-03-2014 08:50:00 0.4 C 97 % -0.02 C
2044 06-03-2014 08:55:00 0.5 C 97 % 0.08 C
2045 06-03-2014 09:00:00 0.5 C 97 % 0.08 C
2046 06-03-2014 09:05:00 0.6 C 97 % 0.18 C
2047 06-03-2014 09:10:00 0.5 C 97 % 0.08 C
2048 06-03-2014 09:15:00 0.6 C 97 % 0.18 C
2049 06-03-2014 09:20:00 0.6 C 97 % 0.18 C
2050 06-03-2014 09:25:00 0.7 C 97 % 0.28 C
Sensor: Nr:Datum:Temp:Feuchte:Taupunkt:
Aussen-T/F 2051 06-03-2014 09:30:00 0.8 C 97 % 0.38 C
2052 06-03-2014 09:35:00 0.8 C 97 % 0.38 C
2053 06-03-2014 09:40:00 0.9 C 97 % 0.48 C
2054 06-03-2014 09:45:00 0.9 C 97 % 0.48 C
2055 06-03-2014 09:50:00 1.1 C 97 % 0.68 C
2056 06-03-2014 09:55:00 1.1 C 97 % 0.68 C
2057 06-03-2014 10:00:00 1.1 C 97 % 0.68 C
2058 06-03-2014 10:05:00 1.1 C 97 % 0.68 C
2059 06-03-2014 10:10:00 1.2 C 97 % 0.78 C
2060 06-03-2014 10:15:00 1.2 C 98 % 0.92 C
2061 06-03-2014 10:20:00 1.4 C 97 % 0.98 C
2062 06-03-2014 10:25:00 1.4 C 97 % 0.98 C
2063 06-03-2014 10:30:00 1.5 C 97 % 1.08 C
2064 06-03-2014 10:35:00 1.6 C 98 % 1.32 C
2065 06-03-2014 10:40:00 1.7 C 98 % 1.42 C
2066 06-03-2014 10:45:00 1.8 C 97 % 1.38 C
2067 06-03-2014 10:50:00 1.8 C 97 % 1.38 C
2068 06-03-2014 10:55:00 1.9 C 98 % 1.62 C
2069 06-03-2014 11:00:00 1.9 C 98 % 1.62 C
2070 06-03-2014 11:05:00 2 C 98 % 1.72 C
2071 06-03-2014 11:10:00 2.1 C 98 % 1.82 C
2072 06-03-2014 11:15:00 2.2 C 98 % 1.92 C
2073 06-03-2014 11:20:00 2.2 C 98 % 1.92 C
2074 06-03-2014 11:25:00 2.3 C 98 % 2.02 C
2075 06-03-2014 11:30:00 2.5 C 98 % 2.22 C
Sensor: Nr:Datum:Temp:Feuchte:Taupunkt:
Aussen-T/F 2076 06-03-2014 11:35:00 2.6 C 98 % 2.32 C
2077 06-03-2014 11:40:00 2.6 C 98 % 2.32 C
2078 06-03-2014 11:45:00 2.7 C 98 % 2.42 C
2079 06-03-2014 11:50:00 2.8 C 98 % 2.52 C
2080 06-03-2014 11:55:00 3.1 C 98 % 2.82 C
2081 06-03-2014 12:00:00 3.2 C 98 % 2.92 C
2082 06-03-2014 12:05:00 3.3 C 98 % 3.01 C
2083 06-03-2014 12:10:00 3.5 C 98 % 3.21 C
2084 06-03-2014 12:15:00 3.7 C 98 % 3.41 C
2085 06-03-2014 12:20:00 3.8 C 98 % 3.51 C
2086 06-03-2014 12:25:00 4 C 98 % 3.71 C
2087 06-03-2014 12:30:00 4.2 C 98 % 3.91 C
2088 06-03-2014 12:35:00 4.3 C 98 % 4.01 C
2089 06-03-2014 12:40:00 4.6 C 98 % 4.31 C
2090 06-03-2014 12:45:00 5.1 C 98 % 4.81 C
2091 06-03-2014 12:50:00 5.5 C 98 % 5.21 C
2092 06-03-2014 12:55:00 5.8 C 98 % 5.51 C
2093 06-03-2014 13:00:00 6 C 98 % 5.71 C
2094 06-03-2014 13:05:00 6.3 C 98 % 6.01 C
2095 06-03-2014 13:10:00 6.7 C 97 % 6.26 C
2096 06-03-2014 13:15:00 7.1 C 94 % 6.2 C
2097 06-03-2014 13:20:00 7.5 C 92 % 6.29 C
2098 06-03-2014 13:25:00 7.8 C 89 % 6.1 C
2099 06-03-2014 13:30:00 8.1 C 87 % 6.07 C
2100 06-03-2014 13:35:00 8.3 C 85 % 5.93 C
Sensor: Nr:Datum:Temp:Feuchte:Taupunkt:
Aussen-T/F 2101 06-03-2014 13:40:00 8.5 C 84 % 5.96 C
2102 06-03-2014 13:45:00 8.7 C 85 % 6.32 C
2103 06-03-2014 13:50:00 8.9 C 83 % 6.17 C
2104 06-03-2014 13:55:00 9.1 C 82 % 6.19 C
2105 06-03-2014 14:00:00 9.2 C 81 % 6.11 C
2106 06-03-2014 14:05:00 9.4 C 80 % 6.13 C
2107 06-03-2014 14:10:00 9.6 C 80 % 6.32 C
2108 06-03-2014 14:15:00 9.7 C 79 % 6.24 C
2109 06-03-2014 14:20:00 9.9 C 79 % 6.43 C
2110 06-03-2014 14:25:00 10.1 C 77 % 6.26 C
2111 06-03-2014 14:30:00 10.3 C 79 % 6.82 C
2112 06-03-2014 14:35:00 10.5 C 77 % 6.64 C
2113 06-03-2014 14:40:00 10.7 C 77 % 6.84 C
2114 06-03-2014 14:45:00 11 C 76 % 6.94 C
2115 06-03-2014 14:50:00 11.3 C 75 % 7.04 C
2116 06-03-2014 14:55:00 11.5 C 74 % 7.03 C
2117 06-03-2014 15:00:00 11.8 C 72 % 6.92 C
2118 06-03-2014 15:05:00 11.9 C 70 % 6.61 C
2119 06-03-2014 15:10:00 12.1 C 71 % 7.01 C
2120 06-03-2014 15:15:00 12.3 C 69 % 6.78 C
2121 06-03-2014 15:20:00 12.5 C 69 % 6.97 C
2122 06-03-2014 15:25:00 12.6 C 65 % 6.2 C
2123 06-03-2014 15:30:00 12.8 C 67 % 6.83 C
2124 06-03-2014 15:35:00 12.9 C 63 % 6.04 C
2125 06-03-2014 15:40:00 13 C 63 % 6.13 C
Sensor: Nr:Datum:Temp:Feuchte:Taupunkt:
Aussen-T/F 2126 06-03-2014 15:45:00 13.1 C 62 % 5.99 C
2127 06-03-2014 15:50:00 13.1 C 62 % 5.99 C
2128 06-03-2014 15:55:00 12.9 C 60 % 5.33 C
2129 06-03-2014 16:00:00 12.8 C 61 % 5.48 C
2130 06-03-2014 16:05:00 12.6 C 62 % 5.52 C
2131 06-03-2014 16:10:00 12.5 C 63 % 5.66 C
2132 06-03-2014 16:15:00 12.4 C 62 % 5.33 C
2133 06-03-2014 16:20:00 12.4 C 62 % 5.33 C
2134 06-03-2014 16:25:00 12.3 C 62 % 5.24 C
2135 06-03-2014 16:30:00 12.3 C 63 % 5.47 C
2136 06-03-2014 16:35:00 12.3 C 62 % 5.24 C
2137 06-03-2014 16:40:00 12.2 C 67 % 6.26 C
2138 06-03-2014 16:45:00 12.1 C 63 % 5.28 C
2139 06-03-2014 16:50:00 12 C 67 % 6.07 C
2140 06-03-2014 16:55:00 11.7 C 68 % 6 C
2141 06-03-2014 17:00:00 11.5 C 66 % 5.38 C
2142 06-03-2014 17:05:00 11.6 C 65 % 5.25 C
2143 06-03-2014 17:10:00 11.4 C 70 % 6.13 C
2144 06-03-2014 17:15:00 10.9 C 72 % 6.06 C
2145 06-03-2014 17:20:00 10.6 C 73 % 5.97 C
2146 06-03-2014 17:25:00 10.2 C 75 % 5.97 C
2147 06-03-2014 17:30:00 9.9 C 76 % 5.87 C
2148 06-03-2014 17:35:00 9.6 C 77 % 5.77 C
2149 06-03-2014 17:40:00 9.4 C 77 % 5.58 C
2150 06-03-2014 17:45:00 9.2 C 77 % 5.38 C
Sensor: Nr:Datum:Temp:Feuchte:Taupunkt:
Aussen-T/F 2151 06-03-2014 17:50:00 9 C 78 % 5.38 C
2152 06-03-2014 17:55:00 8.8 C 79 % 5.36 C
2153 06-03-2014 18:00:00 8.6 C 79 % 5.17 C
2154 06-03-2014 18:05:00 8.3 C 80 % 5.06 C
2155 06-03-2014 18:10:00 8.1 C 80 % 4.86 C
2156 06-03-2014 18:15:00 7.8 C 80 % 4.57 C
2157 06-03-2014 18:20:00 7.6 C 81 % 4.55 C
2158 06-03-2014 18:25:00 7.4 C 81 % 4.36 C
2159 06-03-2014 18:30:00 7.3 C 81 % 4.26 C
2160 06-03-2014 18:35:00 7.2 C 81 % 4.16 C
2161 06-03-2014 18:40:00 7.1 C 81 % 4.07 C
2162 06-03-2014 18:45:00 6.9 C 82 % 4.05 C
2163 06-03-2014 18:50:00 6.8 C 82 % 3.95 C
2164 06-03-2014 18:55:00 6.7 C 83 % 4.02 C
2165 06-03-2014 19:00:00 6.6 C 83 % 3.92 C
2166 06-03-2014 19:05:00 6.5 C 83 % 3.83 C
2167 06-03-2014 19:10:00 6.4 C 84 % 3.9 C
2168 06-03-2014 19:15:00 6.4 C 84 % 3.9 C
2169 06-03-2014 19:20:00 6.4 C 84 % 3.9 C
2170 06-03-2014 19:25:00 6.3 C 84 % 3.8 C
2171 06-03-2014 19:30:00 6.2 C 85 % 3.87 C
2172 06-03-2014 19:35:00 6.2 C 85 % 3.87 C
2173 06-03-2014 19:40:00 6.1 C 86 % 3.94 C
2174 06-03-2014 19:45:00 6.1 C 86 % 3.94 C
2175 06-03-2014 19:50:00 6.1 C 86 % 3.94 C
Sensor: Nr:Datum:Temp:Feuchte:Taupunkt:
Aussen-T/F 2176 06-03-2014 19:55:00 6 C 86 % 3.84 C
2177 06-03-2014 20:00:00 5.9 C 86 % 3.74 C
2178 06-03-2014 20:05:00 5.8 C 86 % 3.64 C
2179 06-03-2014 20:10:00 5.7 C 86 % 3.55 C
2180 06-03-2014 20:15:00 5.5 C 86 % 3.35 C
2181 06-03-2014 20:20:00 5.3 C 86 % 3.15 C
2182 06-03-2014 20:25:00 5.3 C 86 % 3.15 C
2183 06-03-2014 20:30:00 5.2 C 87 % 3.22 C
2184 06-03-2014 20:35:00 5.1 C 87 % 3.12 C
2185 06-03-2014 20:40:00 4.9 C 87 % 2.92 C
2186 06-03-2014 20:45:00 4.9 C 86 % 2.76 C
2187 06-03-2014 20:50:00 4.9 C 86 % 2.76 C
2188 06-03-2014 20:55:00 4.8 C 87 % 2.82 C
2189 06-03-2014 21:00:00 4.7 C 88 % 2.89 C
2190 06-03-2014 21:05:00 4.6 C 87 % 2.63 C
2191 06-03-2014 21:10:00 4.4 C 88 % 2.59 C
2192 06-03-2014 21:15:00 4.3 C 88 % 2.49 C
2193 06-03-2014 21:20:00 4.1 C 88 % 2.3 C
2194 06-03-2014 21:25:00 4 C 89 % 2.36 C
2195 06-03-2014 21:30:00 3.9 C 89 % 2.26 C
2196 06-03-2014 21:35:00 3.8 C 89 % 2.16 C
2197 06-03-2014 21:40:00 3.8 C 89 % 2.16 C
2198 06-03-2014 21:45:00 3.7 C 89 % 2.06 C
2199 06-03-2014 21:50:00 3.7 C 89 % 2.06 C
2200 06-03-2014 21:55:00 3.7 C 89 % 2.06 C
Sensor: Nr:Datum:Temp:Feuchte:Taupunkt:
Aussen-T/F 2201 06-03-2014 22:00:00 3.6 C 89 % 1.96 C
2202 06-03-2014 22:05:00 3.5 C 89 % 1.86 C
2203 06-03-2014 22:10:00 3.4 C 89 % 1.76 C
2204 06-03-2014 22:15:00 3.4 C 89 % 1.76 C
2205 06-03-2014 22:20:00 3.3 C 89 % 1.67 C
2206 06-03-2014 22:25:00 3.2 C 89 % 1.57 C
2207 06-03-2014 22:30:00 3.1 C 89 % 1.47 C
2208 06-03-2014 22:35:00 2.9 C 89 % 1.27 C
2209 06-03-2014 22:40:00 2.8 C 89 % 1.17 C
2210 06-03-2014 22:45:00 2.8 C 90 % 1.33 C
2211 06-03-2014 22:50:00 2.7 C 90 % 1.23 C
2212 06-03-2014 22:55:00 2.6 C 90 % 1.13 C
2213 06-03-2014 23:00:00 2.4 C 90 % 0.93 C
2214 06-03-2014 23:05:00 2.3 C 91 % 0.99 C
2215 06-03-2014 23:10:00 2.2 C 91 % 0.89 C
2216 06-03-2014 23:15:00 2.2 C 91 % 0.89 C
2217 06-03-2014 23:20:00 2.2 C 91 % 0.89 C
2218 06-03-2014 23:25:00 2 C 91 % 0.69 C
2219 06-03-2014 23:30:00 1.9 C 91 % 0.59 C
2220 06-03-2014 23:35:00 1.8 C 91 % 0.49 C
2221 06-03-2014 23:40:00 1.8 C 92 % 0.64 C
2222 06-03-2014 23:45:00 1.7 C 92 % 0.54 C
2223 06-03-2014 23:50:00 1.7 C 92 % 0.54 C
2224 06-03-2014 23:55:00 1.7 C 93 % 0.69 C
2225 07-03-2014 00:00:00 1.7 C 93 % 0.69 C
Sensor: Nr:Datum:Temp:Feuchte:Taupunkt:
Aussen-T/F 2226 07-03-2014 00:05:00 1.6 C 93 % 0.59 C
2227 07-03-2014 00:10:00 1.4 C 92 % 0.25 C
2228 07-03-2014 00:15:00 1.3 C 93 % 0.3 C
2229 07-03-2014 00:20:00 1.3 C 93 % 0.3 C
2230 07-03-2014 00:25:00 1.2 C 93 % 0.2 C
2231 07-03-2014 00:30:00 1.2 C 93 % 0.2 C
2232 07-03-2014 00:35:00 1.2 C 93 % 0.2 C
2233 07-03-2014 00:40:00 1.1 C 94 % 0.24 C
2234 07-03-2014 00:45:00 1.1 C 93 % 0.1 C
2235 07-03-2014 00:50:00 1.1 C 94 % 0.24 C
2236 07-03-2014 00:55:00 1.1 C 94 % 0.24 C
2237 07-03-2014 01:00:00 1.1 C 94 % 0.24 C
2238 07-03-2014 01:05:00 1.1 C 94 % 0.24 C
2239 07-03-2014 01:10:00 1.1 C 94 % 0.24 C
2240 07-03-2014 01:15:00 0.9 C 94 % 0.05 C
2241 07-03-2014 01:20:00 0.8 C 94 % -0.05 C
2242 07-03-2014 01:25:00 0.8 C 94 % -0.05 C
2243 07-03-2014 01:30:00 0.8 C 94 % -0.05 C
2244 07-03-2014 01:35:00 0.7 C 94 % -0.15 C
2245 07-03-2014 01:40:00 0.8 C 94 % -0.05 C
2246 07-03-2014 01:45:00 0.7 C 94 % -0.15 C
2247 07-03-2014 01:50:00 0.5 C 94 % -0.35 C
2248 07-03-2014 01:55:00 0.4 C 94 % -0.45 C
2249 07-03-2014 02:00:00 0.4 C 94 % -0.45 C
2250 07-03-2014 02:05:00 0.4 C 95 % -0.31 C
Sensor: Nr:Datum:Temp:Feuchte:Taupunkt:
Aussen-T/F 2251 07-03-2014 02:10:00 0.4 C 95 % -0.31 C
2252 07-03-2014 02:15:00 0.4 C 95 % -0.31 C
2253 07-03-2014 02:20:00 0.3 C 95 % -0.4 C
2254 07-03-2014 02:25:00 0.3 C 95 % -0.4 C
2255 07-03-2014 02:30:00 0.3 C 95 % -0.4 C
2256 07-03-2014 02:35:00 0.2 C 95 % -0.5 C
2257 07-03-2014 02:40:00 0.1 C 95 % -0.6 C
2258 07-03-2014 02:45:00 -0.1 C 95 % -0.8 C
2259 07-03-2014 02:50:00 -0.1 C 95 % -0.8 C
2260 07-03-2014 02:55:00 -0.1 C 95 % -0.8 C
2261 07-03-2014 03:00:00 -0.1 C 95 % -0.8 C
2262 07-03-2014 03:05:00 -0.1 C 95 % -0.8 C
2263 07-03-2014 03:10:00 -0.1 C 95 % -0.8 C
2264 07-03-2014 03:15:00 -0.1 C 95 % -0.8 C
2265 07-03-2014 03:20:00 -0.1 C 95 % -0.8 C
2266 07-03-2014 03:25:00 -0.1 C 95 % -0.8 C
2267 07-03-2014 03:30:00 -0.1 C 95 % -0.8 C
2268 07-03-2014 03:35:00 -0.1 C 95 % -0.8 C
2269 07-03-2014 03:40:00 -0.2 C 95 % -0.9 C
2270 07-03-2014 03:45:00 -0.2 C 95 % -0.9 C
2271 07-03-2014 03:50:00 -0.3 C 95 % -1 C
2272 07-03-2014 03:55:00 -0.3 C 95 % -1 C
2273 07-03-2014 04:00:00 -0.3 C 95 % -1 C
2274 07-03-2014 04:05:00 -0.3 C 95 % -1 C
2275 07-03-2014 04:20:00 -0.4 C 96 % -0.96 C
Sensor: Nr:Datum:Temp:Feuchte:Taupunkt:
Aussen-T/F 2276 07-03-2014 04:25:00 -0.4 C 96 % -0.96 C
2277 07-03-2014 04:30:00 -0.4 C 96 % -0.96 C
2278 07-03-2014 07:55:00 -0.9 C 97 % -1.32 C
2279 07-03-2014 08:00:00 -0.9 C 97 % -1.32 C
2280 07-03-2014 08:05:00 -0.9 C 97 % -1.32 C
2281 07-03-2014 08:10:00 -0.9 C 97 % -1.32 C
2282 07-03-2014 08:15:00 -0.9 C 97 % -1.32 C
2283 07-03-2014 08:20:00 -0.9 C 97 % -1.32 C
2284 07-03-2014 08:25:00 -0.9 C 97 % -1.32 C
2285 07-03-2014 08:30:00 -0.8 C 97 % -1.22 C
2286 07-03-2014 08:35:00 -0.7 C 97 % -1.12 C
2287 07-03-2014 08:40:00 -0.7 C 97 % -1.12 C
2288 07-03-2014 08:45:00 -0.6 C 97 % -1.02 C
2289 07-03-2014 08:50:00 -0.6 C 97 % -1.02 C
2290 07-03-2014 08:55:00 -0.6 C 97 % -1.02 C
2291 07-03-2014 09:00:00 -0.5 C 97 % -0.92 C
2292 07-03-2014 09:05:00 -0.5 C 97 % -0.92 C
2293 07-03-2014 09:10:00 -0.4 C 97 % -0.82 C
2294 07-03-2014 09:15:00 -0.4 C 97 % -0.82 C
2295 07-03-2014 09:20:00 -0.3 C 97 % -0.72 C
2296 07-03-2014 09:25:00 -0.2 C 97 % -0.62 C
2297 07-03-2014 09:30:00 -0.1 C 97 % -0.52 C
2298 07-03-2014 09:35:00 -0.1 C 97 % -0.52 C
2299 07-03-2014 09:40:00 0.1 C 97 % -0.32 C
2300 07-03-2014 09:45:00 0.1 C 97 % -0.32 C
Sensor: Nr:Datum:Temp:Feuchte:Taupunkt:
Aussen-T/F 2301 07-03-2014 09:50:00 0.2 C 97 % -0.22 C
2302 07-03-2014 09:55:00 0.3 C 97 % -0.12 C
2303 07-03-2014 10:00:00 0.4 C 97 % -0.02 C
2304 07-03-2014 10:05:00 0.5 C 97 % 0.08 C
2305 07-03-2014 10:10:00 0.6 C 97 % 0.18 C
2306 07-03-2014 10:15:00 0.8 C 97 % 0.38 C
2307 07-03-2014 10:20:00 0.8 C 97 % 0.38 C
2308 07-03-2014 10:25:00 0.9 C 97 % 0.48 C
2309 07-03-2014 10:30:00 1.1 C 97 % 0.68 C
2310 07-03-2014 10:35:00 1.4 C 97 % 0.98 C
2311 07-03-2014 10:40:00 1.7 C 98 % 1.42 C
2312 07-03-2014 10:45:00 1.7 C 98 % 1.42 C
2313 07-03-2014 13:15:00 11.6 C 71 % 6.53 C
2314 07-03-2014 13:20:00 11.7 C 72 % 6.83 C
2315 07-03-2014 13:25:00 11.9 C 70 % 6.61 C
2316 07-03-2014 13:30:00 12.2 C 70 % 6.9 C
2317 07-03-2014 13:35:00 12.3 C 69 % 6.78 C
2318 07-03-2014 13:40:00 12.4 C 70 % 7.09 C
2319 07-03-2014 13:45:00 12.4 C 70 % 7.09 C
2320 07-03-2014 13:50:00 12.4 C 69 % 6.88 C
2321 07-03-2014 13:55:00 12.6 C 68 % 6.86 C
2322 07-03-2014 14:00:00 12.7 C 68 % 6.95 C
2323 07-03-2014 14:05:00 12.9 C 66 % 6.71 C
2324 07-03-2014 14:10:00 13.2 C 66 % 7 C
2325 07-03-2014 14:15:00 13.4 C 63 % 6.51 C
Sensor: Nr:Datum:Temp:Feuchte:Taupunkt:
Aussen-T/F 2326 07-03-2014 14:20:00 13.6 C 63 % 6.7 C
2327 07-03-2014 14:25:00 13.9 C 61 % 6.51 C
2328 07-03-2014 14:30:00 14.2 C 58 % 6.06 C
2329 07-03-2014 14:35:00 14.2 C 56 % 5.56 C
2330 07-03-2014 14:40:00 14.2 C 60 % 6.56 C
2331 07-03-2014 14:45:00 14.3 C 57 % 5.91 C
2332 07-03-2014 14:50:00 14.4 C 53 % 4.95 C
2333 07-03-2014 14:55:00 14.7 C 51 % 4.68 C
2334 07-03-2014 15:00:00 14.7 C 51 % 4.68 C
2335 07-03-2014 15:05:00 15 C 50 % 4.67 C
2336 07-03-2014 15:10:00 15.2 C 46 % 3.67 C
2337 07-03-2014 15:15:00 15.3 C 47 % 4.07 C
2338 07-03-2014 15:20:00 15.3 C 47 % 4.07 C
2339 07-03-2014 15:25:00 15.3 C 45 % 3.45 C
2340 07-03-2014 15:30:00 15.3 C 44 % 3.13 C
2341 07-03-2014 15:35:00 15.3 C 44 % 3.13 C
2342 07-03-2014 15:40:00 15.3 C 44 % 3.13 C
2343 07-03-2014 15:45:00 15.1 C 45 % 3.27 C
2344 07-03-2014 15:50:00 15.1 C 45 % 3.27 C
2345 07-03-2014 15:55:00 15 C 45 % 3.18 C
2346 07-03-2014 16:00:00 14.9 C 46 % 3.4 C
2347 07-03-2014 16:05:00 14.8 C 52 % 5.05 C
2348 07-03-2014 16:10:00 14.7 C 46 % 3.22 C
2349 07-03-2014 16:15:00 14.6 C 50 % 4.31 C
2350 07-03-2014 16:20:00 14.4 C 56 % 5.74 C
Sensor: Nr:Datum:Temp:Feuchte:Taupunkt:
Aussen-T/F 2351 07-03-2014 16:25:00 14.2 C 50 % 3.94 C
2352 07-03-2014 16:30:00 14.1 C 54 % 4.94 C
2353 07-03-2014 16:35:00 13.9 C 56 % 5.28 C
2354 07-03-2014 16:40:00 13.6 C 61 % 6.23 C
2355 07-03-2014 16:45:00 13.2 C 64 % 6.55 C
2356 07-03-2014 16:50:00 12.8 C 64 % 6.17 C
2357 07-03-2014 16:55:00 12.5 C 66 % 6.33 C
2358 07-03-2014 17:00:00 12.3 C 67 % 6.36 C
2359 07-03-2014 17:05:00 12.1 C 67 % 6.17 C
2360 07-03-2014 17:10:00 12 C 67 % 6.07 C
2361 07-03-2014 17:15:00 11.9 C 67 % 5.98 C
2362 07-03-2014 17:20:00 11.7 C 68 % 6 C
2363 07-03-2014 17:25:00 11.6 C 69 % 6.11 C
2364 07-03-2014 17:30:00 11.4 C 71 % 6.34 C
2365 07-03-2014 17:35:00 11.2 C 71 % 6.14 C
2366 07-03-2014 17:40:00 11 C 72 % 6.15 C
2367 07-03-2014 17:45:00 10.7 C 72 % 5.87 C
2368 07-03-2014 17:50:00 10.6 C 72 % 5.77 C
2369 07-03-2014 17:55:00 10.4 C 73 % 5.78 C
2370 07-03-2014 18:00:00 10.3 C 73 % 5.68 C
2371 07-03-2014 18:05:00 10.2 C 73 % 5.58 C
2372 07-03-2014 18:10:00 10.2 C 74 % 5.78 C
2373 07-03-2014 18:15:00 10.1 C 74 % 5.68 C
2374 07-03-2014 18:20:00 10.1 C 74 % 5.68 C
2375 07-03-2014 18:25:00 9.9 C 74 % 5.49 C
Sensor: Nr:Datum:Temp:Feuchte:Taupunkt:
Aussen-T/F 2376 07-03-2014 18:30:00 9.9 C 74 % 5.49 C
2377 07-03-2014 18:35:00 9.9 C 74 % 5.49 C
2378 07-03-2014 18:40:00 9.9 C 75 % 5.68 C
2379 07-03-2014 18:45:00 9.9 C 71 % 4.9 C
2380 07-03-2014 18:50:00 10.1 C 72 % 5.29 C
2381 07-03-2014 18:55:00 9.9 C 72 % 5.1 C
2382 07-03-2014 19:00:00 9.7 C 74 % 5.3 C
2383 07-03-2014 19:05:00 9.6 C 75 % 5.39 C
2384 07-03-2014 19:10:00 9.6 C 75 % 5.39 C
2385 07-03-2014 19:30:00 8.9 C 76 % 4.91 C
2386 07-03-2014 19:35:00 8.9 C 76 % 4.91 C
2387 07-03-2014 19:40:00 9.1 C 76 % 5.1 C
2388 07-03-2014 19:45:00 9.1 C 76 % 5.1 C
2389 07-03-2014 19:50:00 8.9 C 77 % 5.09 C
2390 07-03-2014 19:55:00 8.9 C 77 % 5.09 C
2391 07-03-2014 20:00:00 8.8 C 76 % 4.81 C
2392 07-03-2014 20:05:00 8.8 C 76 % 4.81 C
2393 07-03-2014 20:10:00 8.7 C 77 % 4.9 C
2394 07-03-2014 20:15:00 8.7 C 77 % 4.9 C
2395 07-03-2014 20:20:00 8.7 C 77 % 4.9 C
2396 07-03-2014 20:25:00 8.2 C 79 % 4.78 C
2397 07-03-2014 20:30:00 8.2 C 78 % 4.6 C
2398 07-03-2014 20:35:00 8.1 C 77 % 4.32 C
2399 07-03-2014 20:40:00 8.1 C 78 % 4.5 C
2400 07-03-2014 20:45:00 7.9 C 80 % 4.67 C
Sensor: Nr:Datum:Temp:Feuchte:Taupunkt:
Aussen-T/F 2401 07-03-2014 20:50:00 7.8 C 79 % 4.39 C
2402 07-03-2014 20:55:00 7.7 C 80 % 4.47 C
2403 07-03-2014 21:00:00 7.7 C 79 % 4.3 C
2404 07-03-2014 21:05:00 7.8 C 79 % 4.39 C
2405 07-03-2014 21:10:00 7.8 C 79 % 4.39 C
2406 07-03-2014 21:15:00 7.8 C 79 % 4.39 C
2407 07-03-2014 21:20:00 7.8 C 80 % 4.57 C
2408 07-03-2014 21:25:00 7.6 C 80 % 4.38 C
2409 07-03-2014 21:30:00 7.3 C 81 % 4.26 C
2410 07-03-2014 21:35:00 7.4 C 81 % 4.36 C
2411 07-03-2014 21:40:00 7.7 C 81 % 4.65 C
2412 07-03-2014 21:45:00 7.9 C 80 % 4.67 C
2413 07-03-2014 21:50:00 8.1 C 80 % 4.86 C
2414 07-03-2014 21:55:00 8.3 C 80 % 5.06 C
2415 07-03-2014 22:00:00 8.3 C 79 % 4.88 C
2416 07-03-2014 22:05:00 8.3 C 79 % 4.88 C
2417 07-03-2014 22:10:00 8.1 C 79 % 4.68 C
2418 07-03-2014 22:15:00 7.8 C 79 % 4.39 C
2419 07-03-2014 22:20:00 7.7 C 80 % 4.47 C
2420 07-03-2014 22:25:00 7.4 C 82 % 4.53 C
2421 07-03-2014 22:30:00 7.2 C 83 % 4.51 C
2422 07-03-2014 22:35:00 6.9 C 83 % 4.22 C
2423 07-03-2014 22:40:00 6.8 C 83 % 4.12 C
2424 07-03-2014 22:45:00 6.7 C 83 % 4.02 C
2425 07-03-2014 22:50:00 6.5 C 84 % 4 C
Sensor: Nr:Datum:Temp:Feuchte:Taupunkt:
Aussen-T/F 2426 07-03-2014 22:55:00 6.3 C 85 % 3.97 C
2427 07-03-2014 23:00:00 6.2 C 85 % 3.87 C
2428 07-03-2014 23:05:00 6.2 C 85 % 3.87 C
2429 07-03-2014 23:10:00 5.9 C 85 % 3.58 C
2430 07-03-2014 23:15:00 5.8 C 85 % 3.48 C
2431 07-03-2014 23:20:00 5.6 C 85 % 3.28 C
2432 07-03-2014 23:25:00 5.4 C 86 % 3.25 C
2433 07-03-2014 23:30:00 5.3 C 87 % 3.32 C
2434 07-03-2014 23:35:00 5.2 C 88 % 3.38 C
2435 07-03-2014 23:40:00 5.2 C 87 % 3.22 C
2436 07-03-2014 23:45:00 5.1 C 88 % 3.28 C
2437 07-03-2014 23:50:00 4.9 C 88 % 3.08 C
2438 07-03-2014 23:55:00 5.1 C 90 % 3.6 C
2439 08-03-2014 00:00:00 5.2 C 89 % 3.54 C
2440 08-03-2014 00:05:00 5.2 C 88 % 3.38 C
2441 08-03-2014 00:10:00 5.3 C 87 % 3.32 C
2442 08-03-2014 00:15:00 5.2 C 87 % 3.22 C
2443 08-03-2014 00:20:00 5.1 C 87 % 3.12 C
2444 08-03-2014 00:25:00 4.9 C 87 % 2.92 C
2445 08-03-2014 00:30:00 4.7 C 87 % 2.73 C
2446 08-03-2014 00:35:00 4.5 C 88 % 2.69 C
2447 08-03-2014 00:40:00 4.4 C 89 % 2.75 C
2448 08-03-2014 00:45:00 4.4 C 89 % 2.75 C
2449 08-03-2014 00:50:00 4.4 C 89 % 2.75 C
2450 08-03-2014 00:55:00 4.3 C 89 % 2.65 C
Sensor: Nr:Datum:Temp:Feuchte:Taupunkt:
Aussen-T/F 2451 08-03-2014 01:00:00 4.3 C 90 % 2.81 C
2452 08-03-2014 01:05:00 4.4 C 90 % 2.91 C
2453 08-03-2014 01:10:00 4.4 C 90 % 2.91 C
2454 08-03-2014 01:15:00 4.4 C 90 % 2.91 C
2455 08-03-2014 01:20:00 4.5 C 89 % 2.85 C
2456 08-03-2014 01:25:00 4.5 C 89 % 2.85 C
2457 08-03-2014 01:30:00 4.4 C 90 % 2.91 C
2458 08-03-2014 01:35:00 4.4 C 90 % 2.91 C
2459 08-03-2014 01:40:00 4.4 C 90 % 2.91 C
2460 08-03-2014 01:45:00 4.4 C 90 % 2.91 C
2461 08-03-2014 01:50:00 4.4 C 89 % 2.75 C
2462 08-03-2014 01:55:00 4.4 C 89 % 2.75 C
2463 08-03-2014 02:00:00 4.4 C 89 % 2.75 C
2464 08-03-2014 02:05:00 4.3 C 90 % 2.81 C
2465 08-03-2014 02:10:00 4.3 C 90 % 2.81 C
2466 08-03-2014 02:15:00 4.3 C 90 % 2.81 C
2467 08-03-2014 02:20:00 4.3 C 90 % 2.81 C
2468 08-03-2014 02:25:00 4.3 C 90 % 2.81 C
2469 08-03-2014 02:30:00 4.4 C 90 % 2.91 C
2470 08-03-2014 02:35:00 4.4 C 90 % 2.91 C
2471 08-03-2014 02:40:00 4.4 C 90 % 2.91 C
2472 08-03-2014 02:45:00 4.4 C 90 % 2.91 C
2473 08-03-2014 02:50:00 4.4 C 90 % 2.91 C
2474 08-03-2014 02:55:00 4.3 C 90 % 2.81 C
2475 08-03-2014 03:00:00 4.2 C 90 % 2.71 C
Sensor: Nr:Datum:Temp:Feuchte:Taupunkt:
Aussen-T/F 2476 08-03-2014 03:05:00 4.1 C 90 % 2.61 C
2477 08-03-2014 03:10:00 4 C 90 % 2.51 C
2478 08-03-2014 03:15:00 3.9 C 90 % 2.41 C
2479 08-03-2014 03:20:00 3.7 C 90 % 2.22 C
2480 08-03-2014 03:25:00 3.6 C 90 % 2.12 C
2481 08-03-2014 03:30:00 3.4 C 91 % 2.07 C
2482 08-03-2014 03:35:00 3.4 C 91 % 2.07 C
2483 08-03-2014 03:40:00 3.4 C 91 % 2.07 C
2484 08-03-2014 03:45:00 3.3 C 92 % 2.13 C
2485 08-03-2014 03:50:00 3.3 C 92 % 2.13 C
2486 08-03-2014 03:55:00 3.2 C 91 % 1.88 C
2487 08-03-2014 04:00:00 3.2 C 92 % 2.03 C
2488 08-03-2014 04:05:00 3.1 C 92 % 1.93 C
2489 08-03-2014 04:10:00 3.1 C 92 % 1.93 C
2490 08-03-2014 04:15:00 3.1 C 93 % 2.08 C
2491 08-03-2014 04:20:00 3.2 C 93 % 2.18 C
2492 08-03-2014 04:25:00 3.3 C 93 % 2.28 C
2493 08-03-2014 04:30:00 3.2 C 92 % 2.03 C
2494 08-03-2014 04:35:00 3 C 92 % 1.83 C
2495 08-03-2014 04:40:00 2.8 C 92 % 1.63 C
2496 08-03-2014 04:45:00 2.8 C 92 % 1.63 C
2497 08-03-2014 04:50:00 2.7 C 93 % 1.68 C
2498 08-03-2014 04:55:00 2.6 C 92 % 1.43 C
2499 08-03-2014 05:00:00 2.4 C 93 % 1.39 C
2500 08-03-2014 05:05:00 2.4 C 93 % 1.39 C
Sensor: Nr:Datum:Temp:Feuchte:Taupunkt:
Aussen-T/F 2501 08-03-2014 05:10:00 2.3 C 93 % 1.29 C
2502 08-03-2014 05:15:00 2.3 C 93 % 1.29 C
2503 08-03-2014 05:20:00 2.3 C 94 % 1.44 C
2504 08-03-2014 05:25:00 2.3 C 94 % 1.44 C
2505 08-03-2014 05:30:00 2.3 C 94 % 1.44 C
2506 08-03-2014 05:35:00 2.3 C 94 % 1.44 C
2507 08-03-2014 05:40:00 2.3 C 94 % 1.44 C
2508 08-03-2014 05:45:00 2.3 C 94 % 1.44 C
2509 08-03-2014 05:50:00 2.2 C 94 % 1.34 C
2510 08-03-2014 05:55:00 2.2 C 94 % 1.34 C
2511 08-03-2014 06:00:00 2.2 C 94 % 1.34 C
2512 08-03-2014 06:05:00 2.2 C 94 % 1.34 C
2513 08-03-2014 06:10:00 2.1 C 94 % 1.24 C
2514 08-03-2014 06:15:00 2.1 C 94 % 1.24 C
2515 08-03-2014 06:20:00 2 C 94 % 1.14 C
2516 08-03-2014 06:25:00 1.9 C 94 % 1.04 C
2517 08-03-2014 06:30:00 1.9 C 94 % 1.04 C
2518 08-03-2014 06:35:00 1.8 C 94 % 0.94 C
2519 08-03-2014 06:40:00 1.8 C 94 % 0.94 C
2520 08-03-2014 06:45:00 1.7 C 94 % 0.84 C
2521 08-03-2014 06:50:00 1.7 C 95 % 0.99 C
2522 08-03-2014 06:55:00 1.8 C 95 % 1.09 C
2523 08-03-2014 07:00:00 1.8 C 95 % 1.09 C
2524 08-03-2014 07:05:00 1.8 C 95 % 1.09 C
2525 08-03-2014 07:10:00 1.8 C 95 % 1.09 C
Sensor: Nr:Datum:Temp:Feuchte:Taupunkt:
Aussen-T/F 2526 08-03-2014 07:15:00 1.7 C 95 % 0.99 C
2527 08-03-2014 07:20:00 1.8 C 95 % 1.09 C
2528 08-03-2014 07:25:00 1.8 C 95 % 1.09 C
2529 08-03-2014 07:30:00 1.7 C 95 % 0.99 C
2530 08-03-2014 07:35:00 1.7 C 95 % 0.99 C
2531 08-03-2014 07:40:00 1.6 C 95 % 0.89 C
2532 08-03-2014 07:45:00 1.6 C 95 % 0.89 C
2533 08-03-2014 07:50:00 1.6 C 95 % 0.89 C
2534 08-03-2014 07:55:00 1.6 C 95 % 0.89 C
2535 08-03-2014 08:00:00 1.6 C 95 % 0.89 C
2536 08-03-2014 08:05:00 1.7 C 95 % 0.99 C
2537 08-03-2014 08:10:00 1.7 C 95 % 0.99 C
2538 08-03-2014 08:15:00 1.8 C 95 % 1.09 C
2539 08-03-2014 08:20:00 1.8 C 95 % 1.09 C
2540 08-03-2014 08:25:00 1.8 C 95 % 1.09 C
2541 08-03-2014 08:30:00 1.9 C 95 % 1.19 C
2542 08-03-2014 08:35:00 1.9 C 95 % 1.19 C
2543 08-03-2014 08:40:00 2 C 95 % 1.29 C
2544 08-03-2014 08:45:00 2.1 C 95 % 1.38 C
2545 08-03-2014 08:50:00 2.2 C 96 % 1.63 C
2546 08-03-2014 08:55:00 2.2 C 96 % 1.63 C
2547 08-03-2014 09:00:00 2.5 C 96 % 1.93 C
2548 08-03-2014 09:05:00 2.5 C 96 % 1.93 C
2549 08-03-2014 09:10:00 2.5 C 96 % 1.93 C
2550 08-03-2014 09:15:00 2.8 C 95 % 2.08 C
Sensor: Nr:Datum:Temp:Feuchte:Taupunkt:
Aussen-T/F 2551 08-03-2014 09:20:00 2.8 C 95 % 2.08 C
2552 08-03-2014 09:25:00 2.9 C 96 % 2.33 C
2553 08-03-2014 09:30:00 3.1 C 95 % 2.38 C
2554 08-03-2014 09:35:00 3.2 C 95 % 2.48 C
2555 08-03-2014 09:40:00 3.4 C 96 % 2.82 C
2556 08-03-2014 09:45:00 3.6 C 96 % 3.02 C
2557 08-03-2014 09:50:00 3.8 C 96 % 3.22 C
2558 08-03-2014 09:55:00 4 C 96 % 3.42 C
2559 08-03-2014 10:00:00 4.3 C 95 % 3.57 C
2560 08-03-2014 10:05:00 4.4 C 95 % 3.67 C
2561 08-03-2014 10:10:00 4.4 C 95 % 3.67 C
2562 08-03-2014 10:15:00 5.1 C 95 % 4.37 C
2563 08-03-2014 10:20:00 5.3 C 95 % 4.57 C
2564 08-03-2014 10:25:00 5.6 C 94 % 4.71 C
2565 08-03-2014 10:30:00 5.7 C 93 % 4.66 C
2566 08-03-2014 10:35:00 6.1 C 92 % 4.9 C
2567 08-03-2014 10:40:00 6.3 C 92 % 5.1 C
2568 08-03-2014 10:45:00 6.4 C 92 % 5.2 C
2569 08-03-2014 10:50:00 6.4 C 92 % 5.2 C
2570 08-03-2014 11:30:00 8.9 C 85 % 6.52 C
2571 08-03-2014 11:35:00 9.2 C 85 % 6.81 C
2572 08-03-2014 11:40:00 9.4 C 85 % 7.01 C
2573 08-03-2014 11:45:00 9.7 C 84 % 7.13 C
2574 08-03-2014 11:50:00 10 C 84 % 7.43 C
2575 08-03-2014 11:55:00 10.8 C 78 % 7.12 C
Sensor: Nr:Datum:Temp:Feuchte:Taupunkt:
Aussen-T/F 2576 08-03-2014 12:00:00 11.4 C 78 % 7.71 C
2577 08-03-2014 12:05:00 11.9 C 73 % 7.22 C
2578 08-03-2014 12:10:00 12.6 C 68 % 6.86 C
2579 08-03-2014 12:15:00 13.1 C 67 % 7.12 C
2580 08-03-2014 12:20:00 13.4 C 63 % 6.51 C
2581 08-03-2014 12:25:00 13.7 C 66 % 7.47 C
2582 08-03-2014 12:30:00 14.1 C 63 % 7.17 C
2583 08-03-2014 12:35:00 14.4 C 61 % 6.98 C
2584 08-03-2014 12:40:00 14.7 C 61 % 7.27 C
2585 08-03-2014 12:45:00 14.9 C 60 % 7.21 C
2586 08-03-2014 12:50:00 15.3 C 57 % 6.84 C
2587 08-03-2014 12:55:00 15.4 C 59 % 7.44 C
2588 08-03-2014 13:00:00 15.4 C 56 % 6.68 C
2589 08-03-2014 13:05:00 15.5 C 55 % 6.51 C
2590 08-03-2014 13:10:00 15.7 C 55 % 6.69 C
2591 08-03-2014 13:15:00 15.8 C 55 % 6.79 C
2592 08-03-2014 13:20:00 15.6 C 52 % 5.79 C
2593 08-03-2014 13:25:00 15.4 C 52 % 5.61 C
2594 08-03-2014 13:30:00 15.4 C 55 % 6.42 C
2595 08-03-2014 13:35:00 15.4 C 52 % 5.61 C
2596 08-03-2014 13:40:00 15.4 C 54 % 6.15 C
2597 08-03-2014 13:45:00 15.3 C 53 % 5.79 C
2598 08-03-2014 13:50:00 15.3 C 54 % 6.06 C
2599 08-03-2014 13:55:00 15.3 C 53 % 5.79 C
2600 08-03-2014 14:00:00 15.4 C 52 % 5.61 C
Sensor: Nr:Datum:Temp:Feuchte:Taupunkt:
Aussen-T/F 2601 08-03-2014 14:05:00 15.5 C 54 % 6.24 C
2602 08-03-2014 14:10:00 15.7 C 53 % 6.16 C
2603 08-03-2014 14:15:00 15.8 C 51 % 5.69 C
2604 08-03-2014 14:20:00 15.9 C 51 % 5.79 C
2605 08-03-2014 14:25:00 15.9 C 50 % 5.5 C
2606 08-03-2014 14:30:00 15.9 C 51 % 5.79 C
2607 08-03-2014 14:35:00 15.9 C 49 % 5.21 C
2608 08-03-2014 14:40:00 15.8 C 50 % 5.41 C
2609 08-03-2014 14:45:00 15.9 C 52 % 6.07 C
2610 08-03-2014 14:50:00 15.9 C 52 % 6.07 C
2611 08-03-2014 14:55:00 16 C 52 % 6.16 C
2612 08-03-2014 15:00:00 16.2 C 50 % 5.78 C
2613 08-03-2014 15:05:00 16.1 C 52 % 6.25 C
2614 08-03-2014 15:10:00 16.2 C 51 % 6.06 C
2615 08-03-2014 15:15:00 16.2 C 50 % 5.78 C
2616 08-03-2014 15:20:00 16.3 C 51 % 6.16 C
2617 08-03-2014 15:25:00 16.2 C 49 % 5.49 C
2618 08-03-2014 15:30:00 16.1 C 50 % 5.69 C
2619 08-03-2014 15:35:00 16.2 C 49 % 5.49 C
2620 08-03-2014 15:40:00 16.2 C 49 % 5.49 C
2621 08-03-2014 15:45:00 16.2 C 50 % 5.78 C
2622 08-03-2014 15:50:00 16.2 C 48 % 5.19 C
2623 08-03-2014 15:55:00 16.1 C 50 % 5.69 C
2624 08-03-2014 16:00:00 15.9 C 51 % 5.79 C
2625 08-03-2014 16:05:00 15.8 C 50 % 5.41 C
Sensor: Nr:Datum:Temp:Feuchte:Taupunkt:
Aussen-T/F 2626 08-03-2014 16:10:00 15.8 C 50 % 5.41 C
2627 08-03-2014 16:15:00 15.7 C 50 % 5.32 C
2628 08-03-2014 16:20:00 15.6 C 49 % 4.94 C
2629 08-03-2014 16:25:00 15.5 C 50 % 5.13 C
2630 08-03-2014 16:30:00 15.4 C 50 % 5.04 C
2631 08-03-2014 16:35:00 15.4 C 50 % 5.04 C
2632 08-03-2014 16:40:00 15.3 C 53 % 5.79 C
2633 08-03-2014 16:45:00 15 C 51 % 4.96 C
2634 08-03-2014 16:50:00 14.8 C 54 % 5.59 C
2635 08-03-2014 16:55:00 14.7 C 52 % 4.96 C
2636 08-03-2014 17:00:00 14.7 C 58 % 6.53 C
2637 08-03-2014 17:05:00 14.6 C 52 % 4.87 C
2638 08-03-2014 17:10:00 14.7 C 52 % 4.96 C
2639 08-03-2014 17:15:00 14.7 C 56 % 6.02 C
2640 08-03-2014 17:20:00 14.6 C 55 % 5.67 C
2641 08-03-2014 17:25:00 14.3 C 57 % 5.91 C
2642 08-03-2014 17:30:00 14.1 C 58 % 5.97 C
2643 08-03-2014 17:35:00 13.9 C 55 % 5.02 C
2644 08-03-2014 17:40:00 14 C 61 % 6.61 C
2645 08-03-2014 17:45:00 13.5 C 62 % 6.37 C
2646 08-03-2014 17:50:00 12.9 C 65 % 6.49 C
2647 08-03-2014 17:55:00 12.3 C 66 % 6.14 C
2648 08-03-2014 18:00:00 11.8 C 68 % 6.09 C
2649 08-03-2014 18:05:00 11.3 C 69 % 5.83 C
2650 08-03-2014 18:10:00 11.1 C 70 % 5.84 C
Sensor: Nr:Datum:Temp:Feuchte:Taupunkt:
Aussen-T/F 2651 08-03-2014 18:15:00 10.8 C 71 % 5.76 C
2652 08-03-2014 18:20:00 10.5 C 71 % 5.47 C
2653 08-03-2014 18:25:00 10.3 C 72 % 5.48 C
2654 08-03-2014 18:30:00 10 C 73 % 5.39 C
2655 08-03-2014 18:35:00 9.8 C 73 % 5.2 C
2656 08-03-2014 18:40:00 9.6 C 74 % 5.2 C
2657 08-03-2014 18:45:00 9.4 C 75 % 5.2 C
2658 08-03-2014 18:50:00 9.3 C 75 % 5.1 C
2659 08-03-2014 18:55:00 9.2 C 75 % 5.01 C
2660 08-03-2014 19:00:00 9.1 C 76 % 5.1 C
2661 08-03-2014 19:05:00 9 C 76 % 5 C
2662 08-03-2014 19:10:00 8.8 C 77 % 5 C
2663 08-03-2014 19:15:00 8.8 C 78 % 5.18 C
2664 08-03-2014 19:20:00 8.6 C 77 % 4.8 C
2665 08-03-2014 19:25:00 8.6 C 77 % 4.8 C
2666 08-03-2014 19:30:00 8.6 C 77 % 4.8 C
2667 08-03-2014 19:35:00 8.6 C 78 % 4.99 C
2668 08-03-2014 19:40:00 8.4 C 78 % 4.79 C
2669 08-03-2014 19:45:00 8.3 C 79 % 4.88 C
2670 08-03-2014 19:50:00 8.2 C 79 % 4.78 C
2671 08-03-2014 19:55:00 8 C 80 % 4.77 C
2672 08-03-2014 20:00:00 7.8 C 80 % 4.57 C
2673 08-03-2014 20:05:00 7.7 C 81 % 4.65 C
2674 08-03-2014 20:10:00 7.5 C 82 % 4.63 C
2675 08-03-2014 20:15:00 7.3 C 82 % 4.44 C
Sensor: Nr:Datum:Temp:Feuchte:Taupunkt:
Aussen-T/F 2676 08-03-2014 20:20:00 7.3 C 82 % 4.44 C
2677 08-03-2014 20:25:00 7.2 C 84 % 4.68 C
2678 08-03-2014 20:30:00 7.1 C 84 % 4.58 C
2679 08-03-2014 20:35:00 6.9 C 84 % 4.39 C
2680 08-03-2014 20:40:00 6.9 C 84 % 4.39 C
2681 08-03-2014 20:45:00 6.9 C 84 % 4.39 C
2682 08-03-2014 20:50:00 6.9 C 84 % 4.39 C
2683 08-03-2014 20:55:00 6.7 C 84 % 4.19 C
2684 08-03-2014 21:00:00 6.6 C 85 % 4.26 C
2685 08-03-2014 21:05:00 6.4 C 85 % 4.07 C
2686 08-03-2014 21:10:00 6.3 C 85 % 3.97 C
2687 08-03-2014 21:15:00 6.3 C 86 % 4.14 C
2688 08-03-2014 21:20:00 6.2 C 85 % 3.87 C
2689 08-03-2014 21:25:00 6.2 C 86 % 4.04 C
2690 08-03-2014 21:30:00 6.2 C 86 % 4.04 C
2691 08-03-2014 21:35:00 6.1 C 85 % 3.77 C
2692 08-03-2014 21:40:00 5.9 C 85 % 3.58 C
2693 08-03-2014 21:45:00 5.8 C 85 % 3.48 C
2694 08-03-2014 21:50:00 5.7 C 86 % 3.55 C
2695 08-03-2014 21:55:00 5.6 C 86 % 3.45 C
2696 08-03-2014 22:00:00 5.4 C 87 % 3.41 C
2697 08-03-2014 22:05:00 5.4 C 87 % 3.41 C
2698 08-03-2014 22:10:00 5.3 C 87 % 3.32 C
2699 08-03-2014 22:15:00 5.3 C 87 % 3.32 C
2700 08-03-2014 22:20:00 5.2 C 87 % 3.22 C
Sensor: Nr:Datum:Temp:Feuchte:Taupunkt:
Aussen-T/F 2701 08-03-2014 22:25:00 5.2 C 88 % 3.38 C
2702 08-03-2014 22:30:00 5.1 C 87 % 3.12 C
2703 08-03-2014 22:35:00 5.1 C 87 % 3.12 C
2704 08-03-2014 22:40:00 5.1 C 87 % 3.12 C
2705 08-03-2014 22:45:00 4.8 C 87 % 2.82 C
2706 08-03-2014 22:50:00 4.8 C 87 % 2.82 C
2707 08-03-2014 22:55:00 4.7 C 87 % 2.73 C
2708 08-03-2014 23:00:00 4.7 C 87 % 2.73 C
2709 08-03-2014 23:05:00 4.6 C 88 % 2.79 C
2710 08-03-2014 23:10:00 4.6 C 88 % 2.79 C
2711 08-03-2014 23:15:00 4.4 C 88 % 2.59 C
2712 08-03-2014 23:20:00 4.3 C 88 % 2.49 C
2713 08-03-2014 23:25:00 4.1 C 88 % 2.3 C
2714 08-03-2014 23:30:00 3.9 C 88 % 2.1 C
2715 08-03-2014 23:35:00 3.8 C 89 % 2.16 C
2716 08-03-2014 23:40:00 3.8 C 90 % 2.31 C
2717 08-03-2014 23:45:00 3.8 C 90 % 2.31 C
2718 08-03-2014 23:50:00 3.7 C 89 % 2.06 C
2719 08-03-2014 23:55:00 3.6 C 89 % 1.96 C
2720 09-03-2014 00:00:00 3.5 C 90 % 2.02 C
2721 09-03-2014 00:05:00 3.5 C 90 % 2.02 C
2722 09-03-2014 00:10:00 3.5 C 90 % 2.02 C
2723 09-03-2014 00:15:00 3.4 C 90 % 1.92 C
2724 09-03-2014 00:20:00 3.4 C 90 % 1.92 C
2725 09-03-2014 00:25:00 3.3 C 90 % 1.82 C
Sensor: Nr:Datum:Temp:Feuchte:Taupunkt:
Aussen-T/F 2726 09-03-2014 00:30:00 3.2 C 90 % 1.72 C
2727 09-03-2014 00:35:00 3.2 C 91 % 1.88 C
2728 09-03-2014 00:40:00 3.1 C 91 % 1.78 C
2729 09-03-2014 00:45:00 3 C 91 % 1.68 C
2730 09-03-2014 00:50:00 2.9 C 91 % 1.58 C
2731 09-03-2014 00:55:00 2.9 C 91 % 1.58 C
2732 09-03-2014 01:00:00 2.8 C 91 % 1.48 C
2733 09-03-2014 01:05:00 2.8 C 92 % 1.63 C
2734 09-03-2014 01:10:00 2.8 C 92 % 1.63 C
2735 09-03-2014 01:15:00 2.8 C 92 % 1.63 C
2736 09-03-2014 01:20:00 2.8 C 92 % 1.63 C
2737 09-03-2014 01:25:00 2.7 C 92 % 1.53 C
2738 09-03-2014 01:30:00 2.7 C 92 % 1.53 C
2739 09-03-2014 01:35:00 2.6 C 92 % 1.43 C
2740 09-03-2014 01:40:00 2.6 C 92 % 1.43 C
2741 09-03-2014 01:45:00 2.5 C 92 % 1.34 C
2742 09-03-2014 01:50:00 2.4 C 92 % 1.24 C
2743 09-03-2014 01:55:00 2.3 C 93 % 1.29 C
2744 09-03-2014 02:00:00 2.3 C 93 % 1.29 C
2745 09-03-2014 02:05:00 2.2 C 93 % 1.19 C
2746 09-03-2014 02:10:00 2.2 C 93 % 1.19 C
2747 09-03-2014 02:15:00 2.1 C 93 % 1.09 C
2748 09-03-2014 02:20:00 2.1 C 93 % 1.09 C
2749 09-03-2014 02:25:00 2 C 93 % 0.99 C
2750 09-03-2014 02:30:00 2 C 93 % 0.99 C
Sensor: Nr:Datum:Temp:Feuchte:Taupunkt:
Aussen-T/F 2751 09-03-2014 02:35:00 1.9 C 94 % 1.04 C
2752 09-03-2014 02:40:00 1.9 C 94 % 1.04 C
2753 09-03-2014 02:45:00 1.9 C 94 % 1.04 C
2754 09-03-2014 02:50:00 1.9 C 94 % 1.04 C
2755 09-03-2014 02:55:00 1.9 C 94 % 1.04 C
2756 09-03-2014 03:00:00 1.9 C 94 % 1.04 C
2757 09-03-2014 03:05:00 1.8 C 94 % 0.94 C
2758 09-03-2014 03:10:00 1.8 C 94 % 0.94 C
2759 09-03-2014 03:15:00 1.8 C 94 % 0.94 C
2760 09-03-2014 03:20:00 1.8 C 94 % 0.94 C
2761 09-03-2014 03:25:00 1.7 C 94 % 0.84 C
2762 09-03-2014 03:30:00 1.6 C 94 % 0.74 C
2763 09-03-2014 03:35:00 1.6 C 94 % 0.74 C
2764 09-03-2014 03:40:00 1.6 C 94 % 0.74 C
2765 09-03-2014 03:45:00 1.5 C 94 % 0.64 C
2766 09-03-2014 03:50:00 1.5 C 94 % 0.64 C
2767 09-03-2014 03:55:00 1.4 C 94 % 0.54 C
2768 09-03-2014 04:00:00 1.4 C 94 % 0.54 C
2769 09-03-2014 04:05:00 1.3 C 94 % 0.44 C
2770 09-03-2014 04:10:00 1.3 C 94 % 0.44 C
2771 09-03-2014 04:15:00 1.3 C 94 % 0.44 C
2772 09-03-2014 04:20:00 1.2 C 94 % 0.34 C
2773 09-03-2014 04:25:00 1.2 C 95 % 0.49 C
2774 09-03-2014 04:30:00 1.2 C 95 % 0.49 C
2775 09-03-2014 04:35:00 1.1 C 95 % 0.39 C
Sensor: Nr:Datum:Temp:Feuchte:Taupunkt:
Aussen-T/F 2776 09-03-2014 04:40:00 1.2 C 95 % 0.49 C
2777 09-03-2014 04:45:00 1.2 C 95 % 0.49 C
2778 09-03-2014 04:50:00 1.2 C 95 % 0.49 C
2779 09-03-2014 04:55:00 1.2 C 95 % 0.49 C
2780 09-03-2014 05:00:00 1.2 C 95 % 0.49 C
2781 09-03-2014 05:05:00 1.1 C 95 % 0.39 C
2782 09-03-2014 05:10:00 1.1 C 95 % 0.39 C
2783 09-03-2014 05:15:00 1.1 C 95 % 0.39 C
2784 09-03-2014 05:20:00 1 C 95 % 0.29 C
2785 09-03-2014 05:25:00 0.9 C 95 % 0.19 C
2786 09-03-2014 05:30:00 0.9 C 95 % 0.19 C
2787 09-03-2014 05:35:00 0.8 C 95 % 0.09 C
2788 09-03-2014 05:40:00 0.8 C 95 % 0.09 C
2789 09-03-2014 05:45:00 0.7 C 95 % -0.01 C
2790 09-03-2014 05:50:00 0.7 C 95 % -0.01 C
2791 09-03-2014 05:55:00 0.6 C 95 % -0.11 C
2792 09-03-2014 06:00:00 0.6 C 95 % -0.11 C
2793 09-03-2014 06:05:00 0.5 C 95 % -0.21 C
2794 09-03-2014 06:10:00 0.4 C 95 % -0.31 C
2795 09-03-2014 06:15:00 0.4 C 95 % -0.31 C
2796 09-03-2014 06:20:00 0.3 C 95 % -0.4 C
2797 09-03-2014 06:25:00 0.3 C 95 % -0.4 C
2798 09-03-2014 06:30:00 0.3 C 95 % -0.4 C
2799 09-03-2014 06:35:00 0.2 C 95 % -0.5 C
2800 09-03-2014 06:40:00 0.2 C 95 % -0.5 C
Sensor: Nr:Datum:Temp:Feuchte:Taupunkt:
Aussen-T/F 2801 09-03-2014 06:45:00 0.1 C 95 % -0.6 C
2802 09-03-2014 06:50:00 0.1 C 95 % -0.6 C
2803 09-03-2014 06:55:00 0.1 C 96 % -0.46 C
2804 09-03-2014 07:00:00 0.1 C 96 % -0.46 C
2805 09-03-2014 07:05:00 0.1 C 96 % -0.46 C
2806 09-03-2014 07:10:00 0.1 C 96 % -0.46 C
2807 09-03-2014 07:15:00 0.1 C 96 % -0.46 C
2808 09-03-2014 07:20:00 0.1 C 96 % -0.46 C
2809 09-03-2014 07:25:00 0.1 C 96 % -0.46 C
2810 09-03-2014 07:30:00 0.1 C 96 % -0.46 C
2811 09-03-2014 07:35:00 0.1 C 96 % -0.46 C
2812 09-03-2014 07:40:00 0.1 C 96 % -0.46 C
2813 09-03-2014 07:45:00 0.1 C 96 % -0.46 C
2814 09-03-2014 07:50:00 0.1 C 96 % -0.46 C
2815 09-03-2014 07:55:00 0.1 C 96 % -0.46 C
2816 09-03-2014 08:00:00 0.1 C 96 % -0.46 C
2817 09-03-2014 08:05:00 0.1 C 96 % -0.46 C
2818 09-03-2014 08:10:00 0.1 C 96 % -0.46 C
2819 09-03-2014 08:15:00 0.2 C 96 % -0.36 C
2820 09-03-2014 08:20:00 0.2 C 96 % -0.36 C
2821 09-03-2014 08:25:00 0.2 C 96 % -0.36 C
2822 09-03-2014 08:30:00 0.2 C 96 % -0.36 C
2823 09-03-2014 08:35:00 0.2 C 96 % -0.36 C
2824 09-03-2014 08:40:00 0.2 C 96 % -0.36 C
2825 09-03-2014 08:45:00 0.2 C 96 % -0.36 C
Sensor: Nr:Datum:Temp:Feuchte:Taupunkt:
Aussen-T/F 2826 09-03-2014 08:50:00 0.2 C 96 % -0.36 C
2827 09-03-2014 08:55:00 0.2 C 96 % -0.36 C
2828 09-03-2014 09:00:00 0.3 C 96 % -0.26 C
2829 09-03-2014 09:05:00 0.4 C 96 % -0.16 C
2830 09-03-2014 09:10:00 0.5 C 96 % -0.06 C
2831 09-03-2014 09:15:00 0.6 C 97 % 0.18 C
2832 09-03-2014 09:20:00 0.7 C 97 % 0.28 C
2833 09-03-2014 09:25:00 0.8 C 97 % 0.38 C
2834 09-03-2014 09:30:00 0.9 C 97 % 0.48 C
2835 09-03-2014 09:35:00 1 C 97 % 0.58 C
2836 09-03-2014 09:40:00 1.2 C 97 % 0.78 C
2837 09-03-2014 09:45:00 1.4 C 97 % 0.98 C
2838 09-03-2014 09:50:00 1.7 C 97 % 1.28 C
2839 09-03-2014 09:55:00 2 C 97 % 1.58 C
2840 09-03-2014 10:00:00 2.2 C 97 % 1.77 C
2841 09-03-2014 10:05:00 2.5 C 97 % 2.07 C
2842 09-03-2014 10:10:00 2.8 C 97 % 2.37 C
2843 09-03-2014 10:15:00 2.8 C 97 % 2.37 C
2844 09-03-2014 10:20:00 2.8 C 97 % 2.37 C
2845 09-03-2014 10:40:00 4.2 C 96 % 3.62 C
2846 09-03-2014 10:45:00 4.5 C 96 % 3.92 C
2847 09-03-2014 10:50:00 4.8 C 95 % 4.07 C
2848 09-03-2014 10:55:00 5.1 C 95 % 4.37 C
2849 09-03-2014 11:00:00 5.4 C 94 % 4.51 C
2850 09-03-2014 11:05:00 5.7 C 93 % 4.66 C
Sensor: Nr:Datum:Temp:Feuchte:Taupunkt:
Aussen-T/F 2851 09-03-2014 11:10:00 6.1 C 92 % 4.9 C
2852 09-03-2014 11:15:00 6.4 C 91 % 5.04 C
2853 09-03-2014 11:20:00 6.7 C 91 % 5.34 C
2854 09-03-2014 11:25:00 6.9 C 90 % 5.38 C
2855 09-03-2014 11:30:00 7.3 C 89 % 5.61 C
2856 09-03-2014 11:35:00 7.6 C 88 % 5.74 C
2857 09-03-2014 11:40:00 7.9 C 87 % 5.87 C
2858 09-03-2014 11:45:00 8.3 C 85 % 5.93 C
2859 09-03-2014 11:50:00 8.8 C 81 % 5.72 C
2860 09-03-2014 11:55:00 9.3 C 81 % 6.21 C
2861 09-03-2014 12:00:00 9.7 C 80 % 6.42 C
2862 09-03-2014 12:05:00 9.9 C 79 % 6.43 C
2863 09-03-2014 12:10:00 10.2 C 78 % 6.54 C
2864 09-03-2014 12:15:00 10.6 C 78 % 6.93 C
2865 09-03-2014 12:20:00 11.1 C 78 % 7.41 C
2866 09-03-2014 12:25:00 11.7 C 74 % 7.23 C
2867 09-03-2014 12:30:00 12.1 C 73 % 7.41 C
2868 09-03-2014 12:35:00 12.4 C 71 % 7.3 C
2869 09-03-2014 12:40:00 12.7 C 70 % 7.38 C
2870 09-03-2014 12:45:00 13.1 C 68 % 7.34 C
2871 09-03-2014 12:50:00 13.3 C 67 % 7.31 C
2872 09-03-2014 12:55:00 13.7 C 65 % 7.25 C
2873 09-03-2014 13:00:00 14.1 C 66 % 7.85 C
2874 09-03-2014 13:05:00 14.3 C 63 % 7.36 C
2875 09-03-2014 13:10:00 14.8 C 48 % 3.91 C
Sensor: Nr:Datum:Temp:Feuchte:Taupunkt:
Aussen-T/F 2876 09-03-2014 13:15:00 15.8 C 52 % 5.97 C
2877 09-03-2014 13:20:00 16.7 C 40 % 3.05 C
2878 09-03-2014 13:25:00 17.4 C 40 % 3.68 C
2879 09-03-2014 13:30:00 18 C 37 % 3.11 C
2880 09-03-2014 13:35:00 18.1 C 36 % 2.81 C
2881 09-03-2014 13:40:00 18.2 C 32 % 1.25 C
2882 09-03-2014 13:45:00 18.3 C 33 % 1.77 C
2883 09-03-2014 13:50:00 18.4 C 33 % 1.86 C
2884 09-03-2014 13:55:00 18.6 C 33 % 2.03 C
2885 09-03-2014 14:00:00 18.6 C 35 % 2.86 C
2886 09-03-2014 14:05:00 18.7 C 27 % -0.66 C
2887 09-03-2014 14:10:00 18.8 C 32 % 1.78 C
2888 09-03-2014 14:15:00 18.8 C 27 % -0.57 C
2889 09-03-2014 14:20:00 18.9 C 35 % 3.12 C
2890 09-03-2014 14:25:00 19.1 C 28 % 0.19 C
2891 09-03-2014 14:30:00 19.3 C 30 % 1.31 C
2892 09-03-2014 14:35:00 19.4 C 28 % 0.44 C
2893 09-03-2014 14:40:00 19.6 C 31 % 2.03 C
2894 09-03-2014 14:45:00 19.7 C 31 % 2.12 C
2895 09-03-2014 14:50:00 19.7 C 32 % 2.56 C
2896 09-03-2014 14:55:00 19.7 C 26 % -0.32 C
2897 09-03-2014 15:00:00 19.8 C 25 % -0.77 C
2898 09-03-2014 15:05:00 20 C 23 % -1.74 C
2899 09-03-2014 15:10:00 20 C 23 % -1.74 C
2900 09-03-2014 15:15:00 20.3 C 30 % 2.18 C
Sensor: Nr:Datum:Temp:Feuchte:Taupunkt:
Aussen-T/F 2901 09-03-2014 15:20:00 20.1 C 22 % -2.25 C
2902 09-03-2014 15:25:00 20.3 C 24 % -0.91 C
2903 09-03-2014 15:30:00 20.4 C 32 % 3.17 C
2904 09-03-2014 15:35:00 20.3 C 31 % 2.64 C
2905 09-03-2014 15:40:00 20.5 C 26 % 0.36 C
2906 09-03-2014 15:45:00 20.5 C 32 % 3.26 C
2907 09-03-2014 15:50:00 20 C 28 % 0.96 C
2908 09-03-2014 15:55:00 19.3 C 35 % 3.47 C
2909 09-03-2014 16:00:00 18.4 C 40 % 4.57 C
2910 09-03-2014 16:05:00 18.1 C 35 % 2.42 C
2911 09-03-2014 16:10:00 18.1 C 38 % 3.57 C
2912 09-03-2014 16:15:00 18 C 34 % 1.92 C
2913 09-03-2014 16:20:00 18.2 C 34 % 2.1 C
2914 09-03-2014 16:25:00 17.9 C 42 % 4.82 C
2915 09-03-2014 16:30:00 17.1 C 45 % 5.08 C
2916 09-03-2014 16:35:00 16.8 C 49 % 6.04 C
2917 09-03-2014 16:40:00 16.5 C 48 % 5.46 C
2918 09-03-2014 16:45:00 16.3 C 48 % 5.28 C
2919 09-03-2014 16:50:00 16.2 C 49 % 5.49 C
2920 09-03-2014 16:55:00 16.1 C 49 % 5.39 C
2921 09-03-2014 17:00:00 16 C 51 % 5.88 C
2922 09-03-2014 17:05:00 15.8 C 51 % 5.69 C
2923 09-03-2014 17:10:00 15.7 C 51 % 5.6 C
2924 09-03-2014 17:15:00 15.4 C 51 % 5.33 C
2925 09-03-2014 17:20:00 15.3 C 52 % 5.51 C
Sensor: Nr:Datum:Temp:Feuchte:Taupunkt:
Aussen-T/F 2926 09-03-2014 17:25:00 15.1 C 53 % 5.6 C
2927 09-03-2014 17:30:00 15 C 53 % 5.51 C
2928 09-03-2014 17:35:00 14.8 C 52 % 5.05 C
2929 09-03-2014 17:40:00 14.8 C 53 % 5.32 C
2930 09-03-2014 17:45:00 14.7 C 54 % 5.5 C
2931 09-03-2014 17:50:00 14.4 C 55 % 5.49 C
2932 09-03-2014 17:55:00 14.2 C 55 % 5.3 C
2933 09-03-2014 18:00:00 14 C 56 % 5.37 C
2934 09-03-2014 18:05:00 13.7 C 56 % 5.09 C
2935 09-03-2014 18:10:00 13.5 C 57 % 5.16 C
2936 09-03-2014 18:15:00 13.1 C 58 % 5.03 C
2937 09-03-2014 18:20:00 12.9 C 58 % 4.85 C
2938 09-03-2014 18:25:00 12.6 C 59 % 4.81 C
2939 09-03-2014 18:30:00 12.3 C 60 % 4.77 C
2940 09-03-2014 18:35:00 12.2 C 60 % 4.67 C
2941 09-03-2014 18:40:00 12 C 60 % 4.49 C
2942 09-03-2014 18:45:00 11.8 C 61 % 4.53 C
2943 09-03-2014 18:50:00 11.6 C 61 % 4.35 C
2944 09-03-2014 18:55:00 11.4 C 63 % 4.62 C
2945 09-03-2014 19:00:00 11.2 C 63 % 4.43 C
2946 09-03-2014 19:05:00 11.2 C 63 % 4.43 C
2947 09-03-2014 19:10:00 11.1 C 64 % 4.56 C
2948 09-03-2014 19:15:00 10.9 C 64 % 4.37 C
2949 09-03-2014 19:20:00 10.8 C 66 % 4.71 C
2950 09-03-2014 19:25:00 10.7 C 66 % 4.62 C
Sensor: Nr:Datum:Temp:Feuchte:Taupunkt:
Aussen-T/F 2951 09-03-2014 19:30:00 10.4 C 68 % 4.76 C
2952 09-03-2014 19:35:00 10.1 C 69 % 4.68 C
2953 09-03-2014 19:40:00 9.9 C 71 % 4.9 C
2954 09-03-2014 19:45:00 9.7 C 71 % 4.7 C
2955 09-03-2014 19:50:00 9.5 C 73 % 4.91 C
2956 09-03-2014 19:55:00 9.3 C 73 % 4.72 C
2957 09-03-2014 20:00:00 9.2 C 73 % 4.62 C
2958 09-03-2014 20:05:00 9.2 C 73 % 4.62 C
2959 09-03-2014 20:10:00 9.1 C 74 % 4.72 C
2960 09-03-2014 20:15:00 8.8 C 75 % 4.62 C
2961 09-03-2014 20:20:00 8.8 C 75 % 4.62 C
2962 09-03-2014 20:25:00 8.7 C 75 % 4.52 C
2963 09-03-2014 20:30:00 8.6 C 76 % 4.62 C
2964 09-03-2014 20:35:00 8.4 C 76 % 4.42 C
2965 09-03-2014 20:40:00 8.4 C 75 % 4.23 C
2966 09-03-2014 20:45:00 8.2 C 76 % 4.23 C
2967 09-03-2014 20:50:00 8.1 C 77 % 4.32 C
2968 09-03-2014 20:55:00 7.9 C 78 % 4.31 C
2969 09-03-2014 21:00:00 7.9 C 78 % 4.31 C
2970 09-03-2014 21:05:00 7.8 C 77 % 4.03 C
2971 09-03-2014 21:10:00 7.8 C 76 % 3.84 C
2972 09-03-2014 21:15:00 7.7 C 75 % 3.56 C
2973 09-03-2014 21:20:00 7.6 C 75 % 3.46 C
2974 09-03-2014 21:25:00 7.4 C 75 % 3.27 C
2975 09-03-2014 21:30:00 7.3 C 76 % 3.36 C
Sensor: Nr:Datum:Temp:Feuchte:Taupunkt:
Aussen-T/F 2976 09-03-2014 21:35:00 7.1 C 77 % 3.35 C
2977 09-03-2014 21:40:00 7 C 77 % 3.25 C
2978 09-03-2014 21:45:00 6.8 C 79 % 3.42 C
2979 09-03-2014 21:50:00 6.6 C 80 % 3.4 C
2980 09-03-2014 21:55:00 6.5 C 80 % 3.31 C
2981 09-03-2014 22:00:00 6.5 C 79 % 3.13 C
2982 09-03-2014 22:05:00 6.6 C 79 % 3.23 C
2983 09-03-2014 22:10:00 6.6 C 80 % 3.4 C
2984 09-03-2014 22:15:00 6.4 C 79 % 3.03 C
2985 09-03-2014 22:20:00 6.3 C 79 % 2.93 C
2986 09-03-2014 22:25:00 6 C 79 % 2.64 C
2987 09-03-2014 22:30:00 5.8 C 79 % 2.45 C
2988 09-03-2014 22:35:00 5.6 C 79 % 2.25 C
2989 09-03-2014 22:40:00 5.4 C 81 % 2.41 C
2990 09-03-2014 22:45:00 5.3 C 82 % 2.48 C
2991 09-03-2014 22:50:00 5.2 C 82 % 2.39 C
2992 09-03-2014 22:55:00 5 C 82 % 2.19 C
2993 09-03-2014 23:00:00 4.8 C 82 % 1.99 C
2994 09-03-2014 23:05:00 4.8 C 83 % 2.16 C
2995 09-03-2014 23:10:00 4.7 C 83 % 2.07 C
2996 09-03-2014 23:15:00 4.7 C 84 % 2.23 C
2997 09-03-2014 23:20:00 4.7 C 84 % 2.23 C
2998 09-03-2014 23:25:00 4.5 C 84 % 2.04 C
2999 09-03-2014 23:30:00 4.4 C 85 % 2.11 C
3000 09-03-2014 23:35:00 4.3 C 85 % 2.01 C
Sensor: Nr:Datum:Temp:Feuchte:Taupunkt:
Aussen-T/F 3001 09-03-2014 23:40:00 4.3 C 85 % 2.01 C
3002 09-03-2014 23:45:00 4.3 C 85 % 2.01 C
3003 09-03-2014 23:50:00 4.3 C 85 % 2.01 C
3004 09-03-2014 23:55:00 4.3 C 86 % 2.17 C
3005 10-03-2014 00:00:00 4.3 C 86 % 2.17 C
3006 10-03-2014 00:05:00 4.2 C 85 % 1.91 C
3007 10-03-2014 00:10:00 4.1 C 85 % 1.81 C
3008 10-03-2014 00:15:00 4 C 85 % 1.71 C
3009 10-03-2014 00:20:00 3.9 C 85 % 1.61 C
3010 10-03-2014 00:25:00 3.8 C 85 % 1.52 C
3011 10-03-2014 00:30:00 3.7 C 86 % 1.58 C
3012 10-03-2014 00:35:00 3.5 C 86 % 1.38 C
3013 10-03-2014 00:40:00 3.3 C 86 % 1.19 C
3014 10-03-2014 00:45:00 3.3 C 87 % 1.35 C
3015 10-03-2014 00:50:00 3.2 C 87 % 1.25 C
3016 10-03-2014 00:55:00 3.2 C 88 % 1.41 C
3017 10-03-2014 01:00:00 3.1 C 88 % 1.31 C
3018 10-03-2014 01:05:00 2.9 C 88 % 1.11 C
3019 10-03-2014 01:10:00 2.9 C 89 % 1.27 C
3020 10-03-2014 01:15:00 2.9 C 89 % 1.27 C
3021 10-03-2014 01:20:00 2.8 C 89 % 1.17 C
3022 10-03-2014 01:25:00 2.8 C 89 % 1.17 C
3023 10-03-2014 01:30:00 2.7 C 89 % 1.07 C
3024 10-03-2014 01:35:00 2.7 C 89 % 1.07 C
3025 10-03-2014 01:40:00 2.7 C 89 % 1.07 C
Sensor: Nr:Datum:Temp:Feuchte:Taupunkt:
Aussen-T/F 3026 10-03-2014 01:45:00 2.6 C 89 % 0.97 C
3027 10-03-2014 01:50:00 2.6 C 89 % 0.97 C
3028 10-03-2014 01:55:00 2.6 C 90 % 1.13 C
3029 10-03-2014 02:00:00 2.4 C 90 % 0.93 C
3030 10-03-2014 02:05:00 2.4 C 90 % 0.93 C
3031 10-03-2014 02:10:00 2.3 C 90 % 0.83 C
3032 10-03-2014 02:15:00 2.2 C 90 % 0.73 C
3033 10-03-2014 02:20:00 2.2 C 90 % 0.73 C
3034 10-03-2014 02:25:00 2.1 C 90 % 0.64 C
3035 10-03-2014 02:30:00 2.1 C 91 % 0.79 C
3036 10-03-2014 02:35:00 2.1 C 91 % 0.79 C
3037 10-03-2014 02:40:00 2.1 C 91 % 0.79 C
3038 10-03-2014 02:45:00 2.1 C 91 % 0.79 C
3039 10-03-2014 02:50:00 2.1 C 91 % 0.79 C
3040 10-03-2014 02:55:00 2.1 C 91 % 0.79 C
3041 10-03-2014 03:00:00 1.9 C 91 % 0.59 C
3042 10-03-2014 03:05:00 1.9 C 91 % 0.59 C
3043 10-03-2014 03:10:00 1.9 C 92 % 0.74 C
3044 10-03-2014 03:15:00 1.9 C 91 % 0.59 C
3045 10-03-2014 03:20:00 1.8 C 91 % 0.49 C
3046 10-03-2014 03:25:00 1.8 C 92 % 0.64 C
3047 10-03-2014 03:30:00 1.8 C 92 % 0.64 C
3048 10-03-2014 03:35:00 1.7 C 92 % 0.54 C
3049 10-03-2014 03:40:00 1.7 C 92 % 0.54 C
3050 10-03-2014 03:45:00 1.7 C 92 % 0.54 C
Sensor: Nr:Datum:Temp:Feuchte:Taupunkt:
Aussen-T/F 3051 10-03-2014 03:50:00 1.6 C 92 % 0.44 C
3052 10-03-2014 03:55:00 1.6 C 92 % 0.44 C
3053 10-03-2014 04:00:00 1.6 C 92 % 0.44 C
3054 10-03-2014 04:05:00 1.4 C 92 % 0.25 C
3055 10-03-2014 04:10:00 1.4 C 92 % 0.25 C
3056 10-03-2014 04:15:00 1.3 C 92 % 0.15 C
3057 10-03-2014 04:20:00 1.3 C 92 % 0.15 C
3058 10-03-2014 04:25:00 1.2 C 92 % 0.05 C
3059 10-03-2014 04:30:00 1.2 C 92 % 0.05 C
3060 10-03-2014 04:35:00 1.2 C 93 % 0.2 C
3061 10-03-2014 04:40:00 1.3 C 93 % 0.3 C
3062 10-03-2014 04:45:00 1.4 C 94 % 0.54 C
3063 10-03-2014 04:50:00 1.4 C 93 % 0.4 C
3064 10-03-2014 04:55:00 1.4 C 93 % 0.4 C
3065 10-03-2014 05:00:00 1.4 C 93 % 0.4 C
3066 10-03-2014 05:05:00 1.4 C 93 % 0.4 C
3067 10-03-2014 05:10:00 1.3 C 93 % 0.3 C
3068 10-03-2014 05:15:00 1.3 C 93 % 0.3 C
3069 10-03-2014 05:20:00 1.3 C 93 % 0.3 C
3070 10-03-2014 05:25:00 1.3 C 93 % 0.3 C
3071 10-03-2014 05:30:00 1.2 C 93 % 0.2 C
3072 10-03-2014 05:35:00 1.1 C 93 % 0.1 C
3073 10-03-2014 05:40:00 1 C 93 % 0 C
3074 10-03-2014 05:45:00 1 C 93 % 0 C
3075 10-03-2014 05:50:00 1 C 93 % 0 C
Sensor: Nr:Datum:Temp:Feuchte:Taupunkt:
Aussen-T/F 3076 10-03-2014 05:55:00 0.9 C 93 % -0.1 C
3077 10-03-2014 06:00:00 1 C 94 % 0.15 C
3078 10-03-2014 06:05:00 1.1 C 94 % 0.24 C
3079 10-03-2014 06:10:00 1.1 C 94 % 0.24 C
3080 10-03-2014 06:15:00 1.1 C 94 % 0.24 C
3081 10-03-2014 06:20:00 1.1 C 94 % 0.24 C
3082 10-03-2014 06:25:00 1 C 94 % 0.15 C
3083 10-03-2014 06:30:00 0.9 C 94 % 0.05 C
3084 10-03-2014 06:35:00 0.8 C 94 % -0.05 C
3085 10-03-2014 06:40:00 0.8 C 93 % -0.2 C
3086 10-03-2014 06:45:00 0.7 C 93 % -0.3 C
3087 10-03-2014 06:50:00 0.7 C 94 % -0.15 C
3088 10-03-2014 06:55:00 0.7 C 94 % -0.15 C
3089 10-03-2014 07:00:00 0.7 C 94 % -0.15 C
3090 10-03-2014 07:05:00 0.6 C 94 % -0.25 C
3091 10-03-2014 07:10:00 0.6 C 94 % -0.25 C
3092 10-03-2014 07:15:00 0.6 C 94 % -0.25 C
3093 10-03-2014 07:20:00 0.6 C 94 % -0.25 C
3094 10-03-2014 07:25:00 0.5 C 94 % -0.35 C
3095 10-03-2014 07:30:00 0.6 C 94 % -0.25 C
3096 10-03-2014 07:35:00 0.6 C 94 % -0.25 C
3097 10-03-2014 07:40:00 0.6 C 95 % -0.11 C
3098 10-03-2014 07:45:00 0.6 C 95 % -0.11 C
3099 10-03-2014 07:50:00 0.7 C 95 % -0.01 C
3100 10-03-2014 07:55:00 0.7 C 95 % -0.01 C
Sensor: Nr:Datum:Temp:Feuchte:Taupunkt:
Aussen-T/F 3101 10-03-2014 08:00:00 0.7 C 95 % -0.01 C
3102 10-03-2014 08:05:00 0.7 C 95 % -0.01 C
3103 10-03-2014 08:10:00 0.7 C 95 % -0.01 C
3104 10-03-2014 08:15:00 0.8 C 95 % 0.09 C
3105 10-03-2014 08:20:00 0.9 C 95 % 0.19 C
3106 10-03-2014 08:25:00 0.9 C 95 % 0.19 C
3107 10-03-2014 08:30:00 0.9 C 95 % 0.19 C
3108 10-03-2014 08:35:00 1.1 C 95 % 0.39 C
3109 10-03-2014 08:40:00 1.2 C 95 % 0.49 C
3110 10-03-2014 08:45:00 1.2 C 95 % 0.49 C
3111 10-03-2014 08:50:00 1.3 C 95 % 0.59 C
3112 10-03-2014 08:55:00 1.3 C 95 % 0.59 C
3113 10-03-2014 09:00:00 1.6 C 95 % 0.89 C
3114 10-03-2014 09:05:00 1.7 C 95 % 0.99 C
3115 10-03-2014 09:10:00 1.7 C 95 % 0.99 C
3116 10-03-2014 09:15:00 1.8 C 95 % 1.09 C
3117 10-03-2014 09:20:00 1.9 C 95 % 1.19 C
3118 10-03-2014 09:25:00 2.2 C 95 % 1.48 C
3119 10-03-2014 09:30:00 2.3 C 95 % 1.58 C
3120 10-03-2014 09:35:00 2.4 C 95 % 1.68 C
3121 10-03-2014 09:40:00 2.8 C 95 % 2.08 C
3122 10-03-2014 09:45:00 3.3 C 94 % 2.43 C
3123 10-03-2014 09:50:00 3.7 C 93 % 2.68 C
3124 10-03-2014 09:55:00 3.9 C 93 % 2.87 C
3125 10-03-2014 10:00:00 4.2 C 92 % 3.02 C
Sensor: Nr:Datum:Temp:Feuchte:Taupunkt:
Aussen-T/F 3126 10-03-2014 10:05:00 4.3 C 91 % 2.96 C
3127 10-03-2014 10:10:00 4.5 C 91 % 3.16 C
3128 10-03-2014 10:15:00 4.8 C 91 % 3.46 C
3129 10-03-2014 10:20:00 5 C 90 % 3.5 C
3130 10-03-2014 10:25:00 5.1 C 90 % 3.6 C
3131 10-03-2014 10:30:00 5.2 C 90 % 3.7 C
3132 10-03-2014 10:35:00 5.4 C 90 % 3.89 C
3133 10-03-2014 10:40:00 5.6 C 90 % 4.09 C
3134 10-03-2014 10:45:00 5.8 C 90 % 4.29 C
3135 10-03-2014 10:50:00 5.9 C 89 % 4.23 C
3136 10-03-2014 10:55:00 6.2 C 89 % 4.53 C
3137 10-03-2014 11:00:00 6.4 C 88 % 4.56 C
3138 10-03-2014 11:05:00 6.6 C 88 % 4.76 C
3139 10-03-2014 11:10:00 6.8 C 88 % 4.96 C
3140 10-03-2014 11:15:00 7.1 C 87 % 5.09 C
3141 10-03-2014 11:20:00 7.4 C 86 % 5.22 C
3142 10-03-2014 11:25:00 7.8 C 86 % 5.61 C
3143 10-03-2014 11:30:00 8.1 C 84 % 5.56 C
3144 10-03-2014 11:35:00 8.5 C 83 % 5.78 C
3145 10-03-2014 11:40:00 8.8 C 83 % 6.08 C
3146 10-03-2014 11:45:00 9.2 C 82 % 6.29 C
3147 10-03-2014 11:50:00 9.6 C 80 % 6.32 C
3148 10-03-2014 11:55:00 10.1 C 79 % 6.63 C
3149 10-03-2014 12:00:00 10.4 C 78 % 6.74 C
3150 10-03-2014 12:05:00 10.7 C 78 % 7.03 C
Sensor: Nr:Datum:Temp:Feuchte:Taupunkt:
Aussen-T/F 3151 10-03-2014 12:10:00 11.1 C 76 % 7.04 C
3152 10-03-2014 12:15:00 11.6 C 72 % 6.73 C
3153 10-03-2014 12:20:00 12.1 C 71 % 7.01 C
3154 10-03-2014 12:25:00 12.7 C 67 % 6.74 C
3155 10-03-2014 12:30:00 13.4 C 64 % 6.74 C
3156 10-03-2014 12:35:00 14 C 60 % 6.37 C
3157 10-03-2014 12:40:00 14.8 C 60 % 7.12 C
3158 10-03-2014 12:45:00 15.4 C 58 % 7.19 C
3159 10-03-2014 12:50:00 15.9 C 54 % 6.61 C
3160 10-03-2014 12:55:00 16.3 C 51 % 6.16 C
3161 10-03-2014 13:00:00 16.7 C 54 % 7.36 C
3162 10-03-2014 13:05:00 17 C 48 % 5.92 C
3163 10-03-2014 13:10:00 17.2 C 50 % 6.7 C
3164 10-03-2014 13:15:00 17.2 C 44 % 4.85 C
3165 10-03-2014 13:20:00 17.1 C 45 % 5.08 C
3166 10-03-2014 13:25:00 17 C 52 % 7.08 C
3167 10-03-2014 13:30:00 17.1 C 44 % 4.76 C
3168 10-03-2014 13:35:00 17.1 C 48 % 6.01 C
3169 10-03-2014 13:40:00 17 C 44 % 4.67 C
3170 10-03-2014 13:45:00 16.9 C 47 % 5.53 C
3171 10-03-2014 13:50:00 16.8 C 44 % 4.49 C
3172 10-03-2014 13:55:00 16.8 C 49 % 6.04 C
3173 10-03-2014 14:00:00 16.8 C 42 % 3.83 C
3174 10-03-2014 14:05:00 16.8 C 45 % 4.81 C
3175 10-03-2014 14:10:00 16.9 C 48 % 5.83 C
Sensor: Nr:Datum:Temp:Feuchte:Taupunkt:
Aussen-T/F 3176 10-03-2014 14:15:00 17.1 C 45 % 5.08 C
3177 10-03-2014 14:20:00 17.2 C 43 % 4.53 C
3178 10-03-2014 14:25:00 17.3 C 46 % 5.58 C
3179 10-03-2014 14:30:00 17.4 C 42 % 4.37 C
3180 10-03-2014 14:35:00 17.4 C 46 % 5.67 C
3181 10-03-2014 14:40:00 17.3 C 44 % 4.94 C
3182 10-03-2014 14:45:00 17.4 C 48 % 6.29 C
3183 10-03-2014 14:50:00 17.2 C 46 % 5.49 C
3184 10-03-2014 14:55:00 17 C 46 % 5.31 C
3185 10-03-2014 15:00:00 17.1 C 40 % 3.41 C
3186 10-03-2014 15:05:00 17.5 C 44 % 5.13 C
3187 10-03-2014 15:10:00 17.8 C 40 % 4.03 C
3188 10-03-2014 15:15:00 18 C 45 % 5.9 C
3189 10-03-2014 15:20:00 17.8 C 40 % 4.03 C
3190 10-03-2014 15:25:00 17.9 C 46 % 6.13 C
3191 10-03-2014 15:30:00 17.8 C 47 % 6.35 C
3192 10-03-2014 15:35:00 18.1 C 44 % 5.67 C
3193 10-03-2014 15:40:00 18.4 C 40 % 4.57 C
3194 10-03-2014 15:45:00 18.2 C 45 % 6.08 C
3195 10-03-2014 15:50:00 17.7 C 46 % 5.95 C
3196 10-03-2014 15:55:00 17.6 C 39 % 3.5 C
3197 10-03-2014 16:00:00 17.5 C 43 % 4.8 C
3198 10-03-2014 16:05:00 17.4 C 36 % 2.19 C
3199 10-03-2014 16:10:00 17.3 C 47 % 5.89 C
3200 10-03-2014 16:15:00 16.7 C 47 % 5.34 C
Sensor: Nr:Datum:Temp:Feuchte:Taupunkt:
Aussen-T/F 3201 10-03-2014 16:20:00 16.3 C 48 % 5.28 C
3202 10-03-2014 16:25:00 16 C 49 % 5.3 C
3203 10-03-2014 16:30:00 15.8 C 52 % 5.97 C
3204 10-03-2014 16:35:00 15.6 C 48 % 4.64 C
3205 10-03-2014 16:40:00 15.6 C 51 % 5.51 C
3206 10-03-2014 16:45:00 15.4 C 52 % 5.61 C
3207 10-03-2014 16:50:00 15.3 C 53 % 5.79 C
3208 10-03-2014 16:55:00 15.3 C 50 % 4.95 C
3209 10-03-2014 17:00:00 15.1 C 52 % 5.33 C
3210 10-03-2014 17:05:00 15.1 C 50 % 4.77 C
3211 10-03-2014 17:10:00 15.2 C 52 % 5.42 C
3212 10-03-2014 17:15:00 15.1 C 55 % 6.14 C
3213 10-03-2014 17:20:00 14.8 C 55 % 5.86 C
3214 10-03-2014 17:25:00 14.7 C 55 % 5.76 C
3215 10-03-2014 17:30:00 14.5 C 53 % 5.05 C
3216 10-03-2014 17:35:00 14.4 C 54 % 5.22 C
3217 10-03-2014 17:40:00 14.2 C 54 % 5.04 C
3218 10-03-2014 17:45:00 14.1 C 54 % 4.94 C
3219 10-03-2014 17:50:00 13.8 C 54 % 4.66 C
3220 10-03-2014 17:55:00 13.7 C 55 % 4.83 C
3221 10-03-2014 18:00:00 13.4 C 55 % 4.55 C
3222 10-03-2014 18:05:00 13.2 C 55 % 4.37 C
3223 10-03-2014 18:10:00 13 C 55 % 4.18 C
3224 10-03-2014 18:15:00 12.8 C 56 % 4.25 C
3225 10-03-2014 18:20:00 12.6 C 57 % 4.32 C
Sensor: Nr:Datum:Temp:Feuchte:Taupunkt:
Aussen-T/F 3226 10-03-2014 18:25:00 12.3 C 57 % 4.04 C
3227 10-03-2014 18:30:00 12.2 C 57 % 3.94 C
3228 10-03-2014 18:35:00 12.1 C 58 % 4.1 C
3229 10-03-2014 18:40:00 12 C 58 % 4 C
3230 10-03-2014 18:45:00 11.8 C 58 % 3.82 C
3231 10-03-2014 18:50:00 11.7 C 58 % 3.72 C
3232 10-03-2014 18:55:00 11.6 C 59 % 3.87 C
3233 10-03-2014 19:00:00 11.5 C 59 % 3.78 C
3234 10-03-2014 19:05:00 11.3 C 62 % 4.29 C
3235 10-03-2014 19:10:00 10.8 C 64 % 4.27 C
3236 10-03-2014 19:15:00 10.8 C 62 % 3.82 C
3237 10-03-2014 19:20:00 10.8 C 62 % 3.82 C
3238 10-03-2014 19:25:00 10.5 C 66 % 4.43 C
3239 10-03-2014 19:30:00 10.2 C 67 % 4.36 C
3240 10-03-2014 19:35:00 10.1 C 66 % 4.05 C
3241 10-03-2014 19:40:00 10.2 C 64 % 3.7 C
3242 10-03-2014 19:45:00 10 C 65 % 3.73 C
3243 10-03-2014 19:50:00 9.8 C 66 % 3.76 C
3244 10-03-2014 19:55:00 9.6 C 66 % 3.57 C
3245 10-03-2014 20:00:00 9.4 C 67 % 3.59 C
3246 10-03-2014 20:05:00 9.2 C 67 % 3.4 C
3247 10-03-2014 20:10:00 9.2 C 67 % 3.4 C
3248 10-03-2014 20:15:00 9.1 C 68 % 3.52 C
3249 10-03-2014 20:20:00 8.9 C 67 % 3.12 C
3250 10-03-2014 20:25:00 8.9 C 69 % 3.53 C
Sensor: Nr:Datum:Temp:Feuchte:Taupunkt:
Aussen-T/F 3251 10-03-2014 20:30:00 8.8 C 70 % 3.64 C
3252 10-03-2014 20:35:00 8.7 C 69 % 3.34 C
3253 10-03-2014 20:40:00 8.5 C 71 % 3.55 C
3254 10-03-2014 20:45:00 8.4 C 71 % 3.46 C
3255 10-03-2014 20:50:00 8.3 C 71 % 3.36 C
3256 10-03-2014 20:55:00 8.2 C 71 % 3.26 C
3257 10-03-2014 21:00:00 8.2 C 70 % 3.06 C
3258 10-03-2014 21:05:00 8.2 C 71 % 3.26 C
3259 10-03-2014 21:10:00 8 C 70 % 2.87 C
3260 10-03-2014 21:15:00 7.8 C 70 % 2.68 C
3261 10-03-2014 21:20:00 7.7 C 71 % 2.78 C
3262 10-03-2014 21:25:00 7.6 C 71 % 2.69 C
3263 10-03-2014 21:30:00 7.6 C 71 % 2.69 C
3264 10-03-2014 21:35:00 7.5 C 69 % 2.19 C
3265 10-03-2014 21:40:00 7.4 C 71 % 2.5 C
3266 10-03-2014 21:45:00 7.3 C 73 % 2.79 C
3267 10-03-2014 21:50:00 7.1 C 75 % 2.98 C
3268 10-03-2014 21:55:00 7 C 75 % 2.88 C
3269 10-03-2014 22:00:00 6.9 C 73 % 2.4 C
3270 10-03-2014 22:05:00 6.9 C 73 % 2.4 C
3271 10-03-2014 22:10:00 6.9 C 74 % 2.6 C
3272 10-03-2014 22:15:00 6.9 C 74 % 2.6 C
3273 10-03-2014 22:20:00 6.8 C 74 % 2.5 C
3274 10-03-2014 22:25:00 6.8 C 75 % 2.69 C
3275 10-03-2014 22:30:00 6.7 C 75 % 2.59 C
Sensor: Nr:Datum:Temp:Feuchte:Taupunkt:
Aussen-T/F 3276 10-03-2014 22:35:00 6.6 C 75 % 2.49 C
3277 10-03-2014 22:40:00 6.4 C 76 % 2.49 C
3278 10-03-2014 22:45:00 6.3 C 77 % 2.57 C
3279 10-03-2014 22:50:00 6.3 C 77 % 2.57 C
3280 10-03-2014 22:55:00 6.3 C 76 % 2.39 C
3281 10-03-2014 23:00:00 6.2 C 76 % 2.29 C
3282 10-03-2014 23:05:00 6.2 C 76 % 2.29 C
3283 10-03-2014 23:10:00 6.2 C 76 % 2.29 C
3284 10-03-2014 23:15:00 6.1 C 76 % 2.2 C
3285 10-03-2014 23:20:00 6 C 77 % 2.28 C
3286 10-03-2014 23:25:00 5.9 C 77 % 2.19 C
3287 10-03-2014 23:30:00 5.8 C 78 % 2.27 C
3288 10-03-2014 23:35:00 5.6 C 78 % 2.07 C
3289 10-03-2014 23:40:00 5.4 C 79 % 2.06 C
3290 10-03-2014 23:45:00 5.3 C 80 % 2.14 C
3291 10-03-2014 23:50:00 5.1 C 80 % 1.94 C
3292 10-03-2014 23:55:00 4.8 C 82 % 1.99 C
3293 11-03-2014 00:00:00 4.8 C 83 % 2.16 C
3294 11-03-2014 00:05:00 4.8 C 84 % 2.33 C
3295 11-03-2014 00:10:00 4.9 C 83 % 2.26 C
3296 11-03-2014 00:15:00 4.9 C 83 % 2.26 C
3297 11-03-2014 00:20:00 4.8 C 83 % 2.16 C
3298 11-03-2014 00:25:00 4.8 C 83 % 2.16 C
3299 11-03-2014 00:30:00 4.8 C 83 % 2.16 C
3300 11-03-2014 00:35:00 4.7 C 83 % 2.07 C
Sensor: Nr:Datum:Temp:Feuchte:Taupunkt:
Aussen-T/F 3301 11-03-2014 00:40:00 4.6 C 84 % 2.14 C
3302 11-03-2014 00:45:00 4.6 C 83 % 1.97 C
3303 11-03-2014 00:50:00 4.6 C 83 % 1.97 C
3304 11-03-2014 00:55:00 4.6 C 83 % 1.97 C
3305 11-03-2014 01:00:00 4.5 C 83 % 1.87 C
3306 11-03-2014 01:05:00 4.3 C 83 % 1.67 C
3307 11-03-2014 01:10:00 4.2 C 85 % 1.91 C
3308 11-03-2014 01:15:00 4.1 C 85 % 1.81 C
3309 11-03-2014 01:20:00 3.9 C 85 % 1.61 C
3310 11-03-2014 01:25:00 3.8 C 85 % 1.52 C
3311 11-03-2014 01:30:00 3.8 C 85 % 1.52 C
3312 11-03-2014 01:35:00 3.7 C 86 % 1.58 C
3313 11-03-2014 01:40:00 3.7 C 87 % 1.74 C
3314 11-03-2014 01:45:00 3.8 C 88 % 2 C
3315 11-03-2014 01:50:00 3.9 C 87 % 1.94 C
3316 11-03-2014 01:55:00 3.9 C 86 % 1.78 C
3317 11-03-2014 02:00:00 3.9 C 86 % 1.78 C
3318 11-03-2014 02:05:00 3.9 C 85 % 1.61 C
3319 11-03-2014 02:10:00 3.8 C 86 % 1.68 C
3320 11-03-2014 02:15:00 3.6 C 86 % 1.48 C
3321 11-03-2014 02:20:00 3.5 C 87 % 1.55 C
3322 11-03-2014 02:25:00 3.5 C 88 % 1.7 C
3323 11-03-2014 02:30:00 3.6 C 89 % 1.96 C
3324 11-03-2014 02:35:00 3.6 C 89 % 1.96 C
3325 11-03-2014 02:40:00 3.6 C 88 % 1.8 C
Sensor: Nr:Datum:Temp:Feuchte:Taupunkt:
Aussen-T/F 3326 11-03-2014 02:45:00 3.6 C 88 % 1.8 C
3327 11-03-2014 02:50:00 3.6 C 88 % 1.8 C
3328 11-03-2014 02:55:00 3.6 C 89 % 1.96 C
3329 11-03-2014 03:00:00 3.6 C 89 % 1.96 C
3330 11-03-2014 03:05:00 3.6 C 89 % 1.96 C
3331 11-03-2014 03:10:00 3.6 C 89 % 1.96 C
3332 11-03-2014 03:15:00 3.5 C 89 % 1.86 C
3333 11-03-2014 03:20:00 3.4 C 89 % 1.76 C
3334 11-03-2014 03:25:00 3.4 C 88 % 1.61 C
3335 11-03-2014 03:30:00 3.3 C 88 % 1.51 C
3336 11-03-2014 03:35:00 3.3 C 89 % 1.67 C
3337 11-03-2014 03:40:00 3.3 C 89 % 1.67 C
3338 11-03-2014 03:45:00 3.3 C 89 % 1.67 C
3339 11-03-2014 03:50:00 3.3 C 89 % 1.67 C
3340 11-03-2014 03:55:00 3.3 C 90 % 1.82 C
3341 11-03-2014 04:00:00 3.3 C 89 % 1.67 C
3342 11-03-2014 04:05:00 3.3 C 89 % 1.67 C
3343 11-03-2014 04:10:00 3.3 C 90 % 1.82 C
3344 11-03-2014 04:15:00 3.2 C 89 % 1.57 C
3345 11-03-2014 04:20:00 3.2 C 89 % 1.57 C
3346 11-03-2014 04:25:00 3.1 C 90 % 1.62 C
3347 11-03-2014 04:30:00 3.1 C 90 % 1.62 C
3348 11-03-2014 04:35:00 3.1 C 90 % 1.62 C
3349 11-03-2014 04:40:00 2.9 C 89 % 1.27 C
3350 11-03-2014 04:45:00 2.9 C 90 % 1.43 C
Sensor: Nr:Datum:Temp:Feuchte:Taupunkt:
Aussen-T/F 3351 11-03-2014 04:50:00 3 C 90 % 1.52 C
3352 11-03-2014 04:55:00 3.1 C 90 % 1.62 C
3353 11-03-2014 05:00:00 3.1 C 90 % 1.62 C
3354 11-03-2014 05:05:00 3.2 C 90 % 1.72 C
3355 11-03-2014 05:10:00 3.3 C 90 % 1.82 C
3356 11-03-2014 05:15:00 3.4 C 90 % 1.92 C
3357 11-03-2014 05:20:00 3.4 C 89 % 1.76 C
3358 11-03-2014 05:25:00 3.3 C 89 % 1.67 C
3359 11-03-2014 05:30:00 3.2 C 89 % 1.57 C
3360 11-03-2014 05:35:00 3.1 C 89 % 1.47 C
3361 11-03-2014 05:40:00 2.9 C 89 % 1.27 C
3362 11-03-2014 05:45:00 2.7 C 89 % 1.07 C
3363 11-03-2014 05:50:00 2.6 C 90 % 1.13 C
3364 11-03-2014 05:55:00 2.6 C 90 % 1.13 C
3365 11-03-2014 06:00:00 2.6 C 91 % 1.28 C
3366 11-03-2014 06:05:00 2.5 C 90 % 1.03 C
3367 11-03-2014 06:10:00 2.4 C 90 % 0.93 C
3368 11-03-2014 06:15:00 2.3 C 91 % 0.99 C
3369 11-03-2014 06:20:00 2.3 C 92 % 1.14 C
3370 11-03-2014 06:25:00 2.4 C 92 % 1.24 C
3371 11-03-2014 06:30:00 2.3 C 92 % 1.14 C
3372 11-03-2014 06:35:00 2.3 C 92 % 1.14 C
3373 11-03-2014 06:40:00 2.3 C 92 % 1.14 C
3374 11-03-2014 06:45:00 2.3 C 92 % 1.14 C
3375 11-03-2014 06:50:00 2.2 C 91 % 0.89 C
Sensor: Nr:Datum:Temp:Feuchte:Taupunkt:
Aussen-T/F 3376 11-03-2014 06:55:00 2.2 C 92 % 1.04 C
3377 11-03-2014 07:00:00 2.2 C 92 % 1.04 C
3378 11-03-2014 07:05:00 2.3 C 92 % 1.14 C
3379 11-03-2014 07:10:00 2.3 C 92 % 1.14 C
3380 11-03-2014 07:15:00 2.2 C 92 % 1.04 C
3381 11-03-2014 07:20:00 2.2 C 92 % 1.04 C
3382 11-03-2014 07:25:00 2.2 C 92 % 1.04 C
3383 11-03-2014 07:30:00 2.3 C 93 % 1.29 C
3384 11-03-2014 07:35:00 2.4 C 93 % 1.39 C
3385 11-03-2014 07:40:00 2.4 C 93 % 1.39 C
3386 11-03-2014 07:45:00 2.4 C 93 % 1.39 C
3387 11-03-2014 07:50:00 2.4 C 93 % 1.39 C
3388 11-03-2014 07:55:00 2.4 C 93 % 1.39 C
3389 11-03-2014 08:00:00 2.4 C 93 % 1.39 C
3390 11-03-2014 08:05:00 2.4 C 93 % 1.39 C
3391 11-03-2014 08:10:00 2.5 C 93 % 1.49 C
3392 11-03-2014 08:15:00 2.6 C 93 % 1.59 C
3393 11-03-2014 08:20:00 2.7 C 93 % 1.68 C
3394 11-03-2014 08:25:00 2.7 C 93 % 1.68 C
3395 11-03-2014 08:30:00 2.8 C 93 % 1.78 C
3396 11-03-2014 08:35:00 2.8 C 93 % 1.78 C
3397 11-03-2014 08:40:00 2.9 C 93 % 1.88 C
3398 11-03-2014 08:45:00 3 C 93 % 1.98 C
3399 11-03-2014 08:50:00 3.1 C 93 % 2.08 C
3400 11-03-2014 08:55:00 3.7 C 95 % 2.98 C
Sensor: Nr:Datum:Temp:Feuchte:Taupunkt:
Aussen-T/F 3401 11-03-2014 09:00:00 4.2 C 95 % 3.47 C
3402 11-03-2014 09:05:00 4.4 C 94 % 3.52 C
3403 11-03-2014 09:10:00 4.7 C 94 % 3.82 C
3404 11-03-2014 09:15:00 4.9 C 93 % 3.87 C
3405 11-03-2014 09:20:00 5.2 C 92 % 4.01 C
3406 11-03-2014 09:25:00 5.4 C 92 % 4.21 C
3407 11-03-2014 09:30:00 5.7 C 91 % 4.35 C
3408 11-03-2014 09:35:00 5.9 C 90 % 4.39 C
3409 11-03-2014 09:40:00 6.2 C 90 % 4.69 C
3410 11-03-2014 09:45:00 6.4 C 89 % 4.72 C
3411 11-03-2014 09:50:00 6.6 C 89 % 4.92 C
3412 11-03-2014 09:55:00 6.7 C 89 % 5.02 C
3413 11-03-2014 10:00:00 6.8 C 89 % 5.12 C
3414 11-03-2014 10:05:00 6.7 C 88 % 4.86 C
3415 11-03-2014 10:10:00 6.8 C 89 % 5.12 C
3416 11-03-2014 10:15:00 6.9 C 89 % 5.22 C
3417 11-03-2014 10:20:00 7.1 C 88 % 5.25 C
3418 11-03-2014 10:25:00 7.2 C 88 % 5.35 C
3419 11-03-2014 10:30:00 7.5 C 87 % 5.48 C
3420 11-03-2014 10:35:00 7.7 C 86 % 5.51 C
3421 11-03-2014 10:40:00 7.8 C 86 % 5.61 C
3422 11-03-2014 10:45:00 7.9 C 86 % 5.71 C
3423 11-03-2014 10:50:00 8.1 C 86 % 5.9 C
3424 11-03-2014 10:55:00 8.3 C 85 % 5.93 C
3425 11-03-2014 11:00:00 8.4 C 84 % 5.86 C
Sensor: Nr:Datum:Temp:Feuchte:Taupunkt:
Aussen-T/F 3426 11-03-2014 11:05:00 8.7 C 85 % 6.32 C
3427 11-03-2014 11:10:00 8.9 C 83 % 6.17 C
3428 11-03-2014 11:15:00 9.2 C 81 % 6.11 C
3429 11-03-2014 11:20:00 9.3 C 81 % 6.21 C
3430 11-03-2014 11:25:00 9.6 C 79 % 6.14 C
3431 11-03-2014 11:30:00 9.7 C 79 % 6.24 C
3432 11-03-2014 11:35:00 9.9 C 78 % 6.25 C
3433 11-03-2014 11:40:00 10.1 C 79 % 6.63 C
3434 11-03-2014 11:45:00 10.3 C 78 % 6.64 C
3435 11-03-2014 11:50:00 10.6 C 76 % 6.55 C
3436 11-03-2014 11:55:00 10.8 C 75 % 6.55 C
3437 11-03-2014 12:00:00 11 C 76 % 6.94 C
3438 11-03-2014 12:05:00 11.2 C 76 % 7.13 C
3439 11-03-2014 12:10:00 11.5 C 75 % 7.23 C
3440 11-03-2014 12:15:00 11.8 C 74 % 7.32 C
3441 11-03-2014 12:20:00 12.1 C 72 % 7.21 C
3442 11-03-2014 12:25:00 12.6 C 72 % 7.69 C
3443 11-03-2014 12:30:00 13 C 71 % 7.87 C
3444 11-03-2014 12:35:00 13.3 C 68 % 7.53 C
3445 11-03-2014 12:40:00 13.7 C 68 % 7.91 C
3446 11-03-2014 12:45:00 14.1 C 66 % 7.85 C
3447 11-03-2014 12:50:00 14.3 C 68 % 8.48 C
3448 11-03-2014 12:55:00 14.6 C 64 % 7.87 C
3449 11-03-2014 13:00:00 14.9 C 65 % 8.39 C
3450 11-03-2014 13:05:00 14.9 C 60 % 7.21 C
Sensor: Nr:Datum:Temp:Feuchte:Taupunkt:
Aussen-T/F 3451 11-03-2014 13:10:00 14.9 C 60 % 7.21 C
3452 11-03-2014 13:15:00 15.1 C 62 % 7.88 C
3453 11-03-2014 13:20:00 15.3 C 61 % 7.83 C
3454 11-03-2014 13:25:00 15.4 C 60 % 7.68 C
3455 11-03-2014 13:30:00 15.4 C 61 % 7.93 C
3456 11-03-2014 13:35:00 15.4 C 62 % 8.16 C
3457 11-03-2014 13:40:00 15.5 C 64 % 8.73 C
3458 11-03-2014 13:45:00 15.6 C 58 % 7.37 C
3459 11-03-2014 13:50:00 15.5 C 60 % 7.78 C
3460 11-03-2014 13:55:00 15.6 C 60 % 7.87 C
3461 11-03-2014 14:00:00 15.6 C 59 % 7.62 C
3462 11-03-2014 14:05:00 15.7 C 59 % 7.72 C
3463 11-03-2014 14:10:00 15.8 C 58 % 7.56 C
3464 11-03-2014 14:15:00 15.9 C 57 % 7.4 C
3465 11-03-2014 14:20:00 16 C 56 % 7.24 C
3466 11-03-2014 14:25:00 16.2 C 57 % 7.68 C
3467 11-03-2014 14:30:00 16.3 C 58 % 8.03 C
3468 11-03-2014 14:35:00 16.4 C 55 % 7.35 C
3469 11-03-2014 14:40:00 16.6 C 55 % 7.53 C
3470 11-03-2014 14:45:00 16.8 C 53 % 7.18 C
3471 11-03-2014 14:50:00 17.1 C 54 % 7.73 C
3472 11-03-2014 14:55:00 17.3 C 52 % 7.36 C
3473 11-03-2014 15:00:00 17.5 C 53 % 7.82 C
3474 11-03-2014 15:05:00 17.6 C 53 % 7.92 C
3475 11-03-2014 15:10:00 17.7 C 51 % 7.45 C
Sensor: Nr:Datum:Temp:Feuchte:Taupunkt:
Aussen-T/F 3476 11-03-2014 15:15:00 17.7 C 49 % 6.86 C
3477 11-03-2014 15:20:00 17.9 C 52 % 7.91 C
3478 11-03-2014 15:25:00 17.9 C 49 % 7.05 C
3479 11-03-2014 15:30:00 18 C 50 % 7.43 C
3480 11-03-2014 15:35:00 18.1 C 49 % 7.23 C
3481 11-03-2014 15:40:00 18.1 C 48 % 6.93 C
3482 11-03-2014 15:45:00 18.2 C 49 % 7.32 C
3483 11-03-2014 15:50:00 18.2 C 49 % 7.32 C
3484 11-03-2014 15:55:00 17.9 C 51 % 7.63 C
3485 11-03-2014 16:00:00 17.6 C 52 % 7.64 C
3486 11-03-2014 16:05:00 17.4 C 53 % 7.73 C
3487 11-03-2014 16:10:00 17.3 C 52 % 7.36 C
3488 11-03-2014 16:15:00 17.3 C 55 % 8.18 C
3489 11-03-2014 16:20:00 17.2 C 53 % 7.55 C
3490 11-03-2014 16:25:00 17.2 C 54 % 7.82 C
3491 11-03-2014 16:30:00 17.1 C 56 % 8.26 C
3492 11-03-2014 16:35:00 16.9 C 56 % 8.07 C
3493 11-03-2014 16:40:00 16.8 C 57 % 8.24 C
3494 11-03-2014 16:45:00 16.8 C 57 % 8.24 C
3495 11-03-2014 16:50:00 16.7 C 59 % 8.66 C
3496 11-03-2014 16:55:00 16.6 C 58 % 8.31 C
3497 11-03-2014 17:00:00 16.5 C 58 % 8.22 C
3498 11-03-2014 17:05:00 16.4 C 58 % 8.12 C
3499 11-03-2014 17:10:00 16.3 C 60 % 8.53 C
3500 11-03-2014 17:15:00 15.8 C 62 % 8.54 C
Sensor: Nr:Datum:Temp:Feuchte:Taupunkt:
Aussen-T/F 3501 11-03-2014 17:20:00 15.3 C 63 % 8.31 C
3502 11-03-2014 17:25:00 15.2 C 63 % 8.21 C
3503 11-03-2014 17:30:00 14.9 C 65 % 8.39 C
3504 11-03-2014 17:35:00 14.6 C 66 % 8.33 C
3505 11-03-2014 17:40:00 14 C 68 % 8.19 C
3506 11-03-2014 17:45:00 13.7 C 70 % 8.33 C
3507 11-03-2014 17:50:00 13.5 C 71 % 8.35 C
3508 11-03-2014 17:55:00 13.2 C 71 % 8.06 C
3509 11-03-2014 18:00:00 12.9 C 72 % 7.98 C
3510 11-03-2014 18:05:00 12.7 C 73 % 7.99 C
3511 11-03-2014 18:10:00 12.4 C 74 % 7.9 C
3512 11-03-2014 18:15:00 12.2 C 75 % 7.91 C
3513 11-03-2014 18:20:00 12 C 75 % 7.71 C
3514 11-03-2014 18:25:00 11.9 C 76 % 7.81 C
3515 11-03-2014 18:30:00 11.8 C 76 % 7.71 C
3516 11-03-2014 18:35:00 11.9 C 76 % 7.81 C
3517 11-03-2014 18:40:00 11.8 C 76 % 7.71 C
3518 11-03-2014 18:45:00 11.7 C 77 % 7.81 C
3519 11-03-2014 18:50:00 11.6 C 76 % 7.52 C
3520 11-03-2014 18:55:00 11.6 C 76 % 7.52 C
3521 11-03-2014 19:00:00 11.5 C 77 % 7.61 C
3522 11-03-2014 19:05:00 11.2 C 77 % 7.32 C
3523 11-03-2014 19:10:00 10.9 C 79 % 7.41 C
3524 11-03-2014 19:15:00 10.8 C 79 % 7.31 C
3525 11-03-2014 19:20:00 10.6 C 80 % 7.3 C
Sensor: Nr:Datum:Temp:Feuchte:Taupunkt:
Aussen-T/F 3526 11-03-2014 19:25:00 10.5 C 80 % 7.2 C
3527 11-03-2014 19:30:00 10.4 C 81 % 7.28 C
3528 11-03-2014 19:35:00 10.3 C 81 % 7.19 C
3529 11-03-2014 19:40:00 10.2 C 81 % 7.09 C
3530 11-03-2014 19:45:00 10.1 C 82 % 7.17 C
3531 11-03-2014 19:50:00 9.8 C 82 % 6.88 C
3532 11-03-2014 19:55:00 9.7 C 82 % 6.78 C
3533 11-03-2014 20:00:00 9.6 C 82 % 6.68 C
3534 11-03-2014 20:05:00 9.4 C 81 % 6.31 C
3535 11-03-2014 20:10:00 9.3 C 81 % 6.21 C
3536 11-03-2014 20:15:00 9.2 C 81 % 6.11 C
3537 11-03-2014 20:20:00 9.2 C 80 % 5.94 C
3538 11-03-2014 20:25:00 8.9 C 81 % 5.82 C
3539 11-03-2014 20:30:00 8.8 C 81 % 5.72 C
3540 11-03-2014 20:35:00 8.7 C 80 % 5.45 C
3541 11-03-2014 20:40:00 8.7 C 80 % 5.45 C
3542 11-03-2014 20:45:00 8.8 C 79 % 5.36 C
3543 11-03-2014 20:50:00 8.8 C 78 % 5.18 C
3544 11-03-2014 20:55:00 8.7 C 78 % 5.08 C
3545 11-03-2014 21:00:00 8.6 C 79 % 5.17 C
3546 11-03-2014 21:05:00 8.6 C 80 % 5.35 C
3547 11-03-2014 21:10:00 8.5 C 79 % 5.07 C
3548 11-03-2014 21:15:00 8.4 C 79 % 4.98 C
3549 11-03-2014 21:20:00 8.3 C 79 % 4.88 C
3550 11-03-2014 21:25:00 8.3 C 79 % 4.88 C
Sensor: Nr:Datum:Temp:Feuchte:Taupunkt:
Aussen-T/F 3551 11-03-2014 21:30:00 8.3 C 78 % 4.7 C
3552 11-03-2014 21:35:00 8.4 C 79 % 4.98 C
3553 11-03-2014 21:40:00 8.5 C 78 % 4.89 C
3554 11-03-2014 21:45:00 8.4 C 79 % 4.98 C
3555 11-03-2014 21:50:00 8.3 C 80 % 5.06 C
3556 11-03-2014 21:55:00 8.1 C 80 % 4.86 C
3557 11-03-2014 22:00:00 7.9 C 80 % 4.67 C
3558 11-03-2014 22:05:00 7.9 C 80 % 4.67 C
3559 11-03-2014 22:10:00 7.9 C 80 % 4.67 C
3560 11-03-2014 22:15:00 7.8 C 80 % 4.57 C
3561 11-03-2014 22:20:00 7.8 C 80 % 4.57 C
3562 11-03-2014 22:25:00 7.7 C 80 % 4.47 C
3563 11-03-2014 22:30:00 7.7 C 80 % 4.47 C
3564 11-03-2014 22:35:00 7.7 C 81 % 4.65 C
3565 11-03-2014 22:40:00 7.6 C 80 % 4.38 C
3566 11-03-2014 22:45:00 7.6 C 79 % 4.2 C
3567 11-03-2014 22:50:00 7.7 C 80 % 4.47 C
3568 11-03-2014 22:55:00 7.7 C 79 % 4.3 C
3569 11-03-2014 23:00:00 7.8 C 78 % 4.21 C
3570 11-03-2014 23:05:00 7.8 C 78 % 4.21 C
3571 11-03-2014 23:10:00 7.8 C 77 % 4.03 C
3572 11-03-2014 23:15:00 7.9 C 76 % 3.94 C
3573 11-03-2014 23:20:00 8.1 C 75 % 3.94 C
3574 11-03-2014 23:25:00 8.3 C 74 % 3.95 C
3575 11-03-2014 23:30:00 8.4 C 74 % 4.04 C
Sensor: Nr:Datum:Temp:Feuchte:Taupunkt:
Aussen-T/F 3576 11-03-2014 23:35:00 8.4 C 73 % 3.85 C
3577 11-03-2014 23:40:00 8.3 C 74 % 3.95 C
3578 11-03-2014 23:45:00 8.2 C 73 % 3.66 C
3579 11-03-2014 23:50:00 8.2 C 76 % 4.23 C
3580 11-03-2014 23:55:00 8 C 76 % 4.04 C
3581 12-03-2014 00:00:00 7.9 C 76 % 3.94 C
3582 12-03-2014 00:05:00 7.6 C 77 % 3.83 C
3583 12-03-2014 00:10:00 7.6 C 77 % 3.83 C
3584 12-03-2014 00:15:00 7.5 C 77 % 3.74 C
3585 12-03-2014 00:20:00 7.4 C 77 % 3.64 C
3586 12-03-2014 00:25:00 7.3 C 78 % 3.73 C
3587 12-03-2014 00:30:00 7.2 C 78 % 3.63 C
3588 12-03-2014 00:35:00 7.2 C 78 % 3.63 C
3589 12-03-2014 00:40:00 7.2 C 79 % 3.81 C
3590 12-03-2014 00:45:00 7.2 C 79 % 3.81 C
3591 12-03-2014 00:50:00 7.1 C 79 % 3.71 C
3592 12-03-2014 00:55:00 7.1 C 80 % 3.89 C
3593 12-03-2014 01:00:00 7.1 C 79 % 3.71 C
3594 12-03-2014 01:05:00 7 C 80 % 3.79 C
3595 12-03-2014 01:10:00 7 C 80 % 3.79 C
3596 12-03-2014 01:15:00 6.9 C 80 % 3.7 C
3597 12-03-2014 01:20:00 6.7 C 81 % 3.68 C
3598 12-03-2014 01:25:00 6.8 C 82 % 3.95 C
3599 12-03-2014 01:30:00 6.7 C 82 % 3.85 C
3600 12-03-2014 01:35:00 6.7 C 82 % 3.85 C
Sensor: Nr:Datum:Temp:Feuchte:Taupunkt:
Aussen-T/F 3601 12-03-2014 01:40:00 6.7 C 82 % 3.85 C
3602 12-03-2014 01:45:00 6.7 C 82 % 3.85 C
3603 12-03-2014 01:50:00 6.7 C 82 % 3.85 C
3604 12-03-2014 01:55:00 6.7 C 83 % 4.02 C
3605 12-03-2014 02:00:00 6.6 C 84 % 4.1 C
3606 12-03-2014 02:05:00 6.6 C 83 % 3.92 C
3607 12-03-2014 02:10:00 6.4 C 84 % 3.9 C
3608 12-03-2014 02:15:00 6.4 C 84 % 3.9 C
3609 12-03-2014 02:20:00 6.4 C 84 % 3.9 C
3610 12-03-2014 02:25:00 6.4 C 84 % 3.9 C
3611 12-03-2014 02:30:00 6.4 C 84 % 3.9 C
3612 12-03-2014 02:35:00 6.3 C 84 % 3.8 C
3613 12-03-2014 02:40:00 6.3 C 85 % 3.97 C
3614 12-03-2014 02:45:00 6.2 C 85 % 3.87 C
3615 12-03-2014 02:50:00 6.1 C 85 % 3.77 C
3616 12-03-2014 02:55:00 5.9 C 86 % 3.74 C
3617 12-03-2014 03:00:00 5.9 C 86 % 3.74 C
3618 12-03-2014 03:05:00 5.8 C 86 % 3.64 C
3619 12-03-2014 03:10:00 5.8 C 86 % 3.64 C
3620 12-03-2014 03:15:00 5.7 C 87 % 3.71 C
3621 12-03-2014 03:20:00 5.7 C 87 % 3.71 C
3622 12-03-2014 03:25:00 5.7 C 87 % 3.71 C
3623 12-03-2014 03:30:00 5.7 C 87 % 3.71 C
3624 12-03-2014 03:35:00 5.6 C 87 % 3.61 C
3625 12-03-2014 03:40:00 5.5 C 87 % 3.51 C
Sensor: Nr:Datum:Temp:Feuchte:Taupunkt:
Aussen-T/F 3626 12-03-2014 03:45:00 5.4 C 88 % 3.58 C
3627 12-03-2014 03:50:00 5.3 C 88 % 3.48 C
3628 12-03-2014 03:55:00 5.2 C 89 % 3.54 C
3629 12-03-2014 04:00:00 5 C 89 % 3.34 C
3630 12-03-2014 04:05:00 4.9 C 90 % 3.4 C
3631 12-03-2014 04:10:00 4.9 C 90 % 3.4 C
3632 12-03-2014 04:15:00 4.9 C 89 % 3.24 C
3633 12-03-2014 04:20:00 4.8 C 89 % 3.14 C
3634 12-03-2014 04:25:00 4.7 C 88 % 2.89 C
3635 12-03-2014 04:30:00 4.4 C 89 % 2.75 C
3636 12-03-2014 04:35:00 4.3 C 90 % 2.81 C
3637 12-03-2014 04:40:00 4.2 C 90 % 2.71 C
3638 12-03-2014 04:45:00 4.2 C 91 % 2.87 C
3639 12-03-2014 04:50:00 4.2 C 91 % 2.87 C
3640 12-03-2014 04:55:00 4.2 C 91 % 2.87 C
3641 12-03-2014 05:00:00 4.2 C 91 % 2.87 C
3642 12-03-2014 05:05:00 4.2 C 91 % 2.87 C
3643 12-03-2014 05:10:00 4.1 C 91 % 2.77 C
3644 12-03-2014 05:15:00 3.9 C 91 % 2.57 C
3645 12-03-2014 05:20:00 3.9 C 92 % 2.72 C
3646 12-03-2014 05:25:00 3.9 C 92 % 2.72 C
3647 12-03-2014 05:30:00 3.8 C 92 % 2.62 C
3648 12-03-2014 05:35:00 3.7 C 92 % 2.52 C
3649 12-03-2014 05:40:00 3.6 C 92 % 2.42 C
3650 12-03-2014 05:45:00 3.4 C 92 % 2.23 C
Sensor: Nr:Datum:Temp:Feuchte:Taupunkt:
Aussen-T/F 3651 12-03-2014 05:50:00 3.3 C 92 % 2.13 C
3652 12-03-2014 05:55:00 3.3 C 92 % 2.13 C
3653 12-03-2014 06:00:00 3.2 C 92 % 2.03 C
3654 12-03-2014 06:05:00 3.1 C 93 % 2.08 C
3655 12-03-2014 06:10:00 3.1 C 93 % 2.08 C
3656 12-03-2014 06:15:00 3.1 C 93 % 2.08 C
3657 12-03-2014 06:20:00 3.1 C 93 % 2.08 C
3658 12-03-2014 06:25:00 3 C 93 % 1.98 C
3659 12-03-2014 06:30:00 3 C 94 % 2.13 C
3660 12-03-2014 06:35:00 2.9 C 94 % 2.03 C
3661 12-03-2014 06:40:00 2.8 C 94 % 1.93 C
3662 12-03-2014 06:45:00 2.8 C 94 % 1.93 C
3663 12-03-2014 06:50:00 2.8 C 94 % 1.93 C
3664 12-03-2014 06:55:00 2.8 C 94 % 1.93 C
3665 12-03-2014 07:00:00 2.7 C 94 % 1.83 C
3666 12-03-2014 07:05:00 2.7 C 94 % 1.83 C
3667 12-03-2014 07:10:00 2.7 C 94 % 1.83 C
3668 12-03-2014 07:15:00 2.6 C 94 % 1.73 C
3669 12-03-2014 07:20:00 2.7 C 95 % 1.98 C
3670 12-03-2014 07:25:00 2.7 C 95 % 1.98 C
3671 12-03-2014 07:30:00 2.6 C 95 % 1.88 C
3672 12-03-2014 07:35:00 2.6 C 95 % 1.88 C
3673 12-03-2014 07:40:00 2.6 C 95 % 1.88 C
3674 12-03-2014 07:45:00 2.6 C 95 % 1.88 C
3675 12-03-2014 07:50:00 2.7 C 95 % 1.98 C
Sensor: Nr:Datum:Temp:Feuchte:Taupunkt:
Aussen-T/F 3676 12-03-2014 07:55:00 2.8 C 95 % 2.08 C
3677 12-03-2014 08:00:00 2.9 C 95 % 2.18 C
3678 12-03-2014 08:05:00 2.9 C 95 % 2.18 C
3679 12-03-2014 08:10:00 2.9 C 95 % 2.18 C
3680 12-03-2014 08:15:00 2.9 C 95 % 2.18 C
3681 12-03-2014 08:20:00 2.9 C 95 % 2.18 C
3682 12-03-2014 08:25:00 2.9 C 95 % 2.18 C
3683 12-03-2014 08:30:00 2.9 C 95 % 2.18 C
3684 12-03-2014 08:35:00 3 C 95 % 2.28 C
3685 12-03-2014 08:40:00 3.1 C 95 % 2.38 C
3686 12-03-2014 08:45:00 3.1 C 95 % 2.38 C
3687 12-03-2014 08:50:00 3.2 C 96 % 2.63 C
3688 12-03-2014 08:55:00 3.3 C 96 % 2.72 C
3689 12-03-2014 09:00:00 3.4 C 96 % 2.82 C
3690 12-03-2014 09:05:00 3.5 C 96 % 2.92 C
3691 12-03-2014 09:10:00 3.6 C 96 % 3.02 C
3692 12-03-2014 09:15:00 3.7 C 96 % 3.12 C
3693 12-03-2014 09:20:00 3.8 C 96 % 3.22 C
3694 12-03-2014 09:25:00 3.9 C 96 % 3.32 C
3695 12-03-2014 09:30:00 4.2 C 96 % 3.62 C
3696 12-03-2014 09:35:00 4.3 C 96 % 3.72 C
3697 12-03-2014 09:40:00 4.8 C 96 % 4.22 C
3698 12-03-2014 09:45:00 5.2 C 97 % 4.76 C
3699 12-03-2014 09:50:00 5.5 C 97 % 5.06 C
3700 12-03-2014 09:55:00 5.8 C 97 % 5.36 C
Sensor: Nr:Datum:Temp:Feuchte:Taupunkt:
Aussen-T/F 3701 12-03-2014 10:00:00 6 C 96 % 5.41 C
3702 12-03-2014 10:05:00 6.2 C 96 % 5.61 C
3703 12-03-2014 10:10:00 6.4 C 96 % 5.81 C
3704 12-03-2014 10:15:00 6.7 C 95 % 5.96 C
3705 12-03-2014 10:20:00 7 C 95 % 6.26 C
3706 12-03-2014 10:25:00 7.2 C 93 % 6.15 C
3707 12-03-2014 10:30:00 7.4 C 92 % 6.19 C
3708 12-03-2014 10:35:00 7.6 C 92 % 6.39 C
3709 12-03-2014 10:40:00 7.8 C 91 % 6.43 C
3710 12-03-2014 10:45:00 7.9 C 90 % 6.36 C
3711 12-03-2014 10:50:00 8.2 C 89 % 6.5 C
3712 12-03-2014 10:55:00 8.4 C 88 % 6.53 C
3713 12-03-2014 11:00:00 8.7 C 87 % 6.66 C
3714 12-03-2014 11:05:00 8.9 C 87 % 6.86 C
3715 12-03-2014 11:10:00 9.2 C 84 % 6.64 C
3716 12-03-2014 11:15:00 9.5 C 83 % 6.76 C
3717 12-03-2014 11:20:00 9.8 C 79 % 6.34 C
3718 12-03-2014 11:25:00 10.2 C 79 % 6.73 C
3719 12-03-2014 11:30:00 10.6 C 78 % 6.93 C
3720 12-03-2014 11:35:00 10.8 C 73 % 6.16 C
3721 12-03-2014 11:40:00 11.3 C 72 % 6.44 C
3722 12-03-2014 11:45:00 11.8 C 68 % 6.09 C
3723 12-03-2014 11:50:00 12.2 C 65 % 5.82 C
3724 12-03-2014 11:55:00 12.6 C 64 % 5.98 C
3725 12-03-2014 12:00:00 12.9 C 65 % 6.49 C
Sensor: Nr:Datum:Temp:Feuchte:Taupunkt:
Aussen-T/F 3726 12-03-2014 12:05:00 13.2 C 66 % 7 C
3727 12-03-2014 12:10:00 13.5 C 63 % 6.6 C
3728 12-03-2014 12:15:00 13.9 C 64 % 7.21 C
3729 12-03-2014 12:20:00 14.3 C 60 % 6.65 C
3730 12-03-2014 12:25:00 14.7 C 59 % 6.78 C
3731 12-03-2014 12:30:00 15.2 C 58 % 7 C
3732 12-03-2014 12:35:00 15.7 C 60 % 7.97 C
3733 12-03-2014 12:40:00 16 C 58 % 7.75 C
3734 12-03-2014 12:45:00 16.2 C 53 % 6.62 C
3735 12-03-2014 12:50:00 16.5 C 52 % 6.62 C
3736 12-03-2014 12:55:00 16.6 C 52 % 6.71 C
3737 12-03-2014 13:00:00 16.7 C 50 % 6.24 C
3738 12-03-2014 13:05:00 16.8 C 50 % 6.33 C
3739 12-03-2014 13:10:00 17 C 49 % 6.22 C
3740 12-03-2014 13:15:00 17.2 C 49 % 6.4 C
3741 12-03-2014 13:20:00 17.3 C 49 % 6.5 C
3742 12-03-2014 13:25:00 17.3 C 48 % 6.2 C
3743 12-03-2014 13:30:00 17.3 C 45 % 5.27 C
3744 12-03-2014 13:35:00 17.3 C 46 % 5.58 C
3745 12-03-2014 13:40:00 17.3 C 46 % 5.58 C
3746 12-03-2014 13:45:00 17.3 C 45 % 5.27 C
3747 12-03-2014 13:50:00 17.3 C 45 % 5.27 C
3748 12-03-2014 13:55:00 17.3 C 44 % 4.94 C
3749 12-03-2014 14:00:00 17.3 C 44 % 4.94 C
3750 12-03-2014 14:05:00 17.3 C 46 % 5.58 C
Sensor: Nr:Datum:Temp:Feuchte:Taupunkt:
Aussen-T/F 3751 12-03-2014 14:10:00 17.4 C 45 % 5.36 C
3752 12-03-2014 14:15:00 17.4 C 42 % 4.37 C
3753 12-03-2014 14:20:00 17.4 C 43 % 4.71 C
3754 12-03-2014 14:25:00 17.5 C 44 % 5.13 C
3755 12-03-2014 14:30:00 17.6 C 44 % 5.22 C
3756 12-03-2014 14:35:00 17.7 C 43 % 4.98 C
3757 12-03-2014 14:40:00 17.8 C 46 % 6.04 C
3758 12-03-2014 14:45:00 17.9 C 40 % 4.12 C
3759 12-03-2014 14:50:00 18.1 C 41 % 4.66 C
3760 12-03-2014 14:55:00 18.3 C 44 % 5.85 C
3761 12-03-2014 15:00:00 18.4 C 41 % 4.92 C
3762 12-03-2014 15:05:00 18.6 C 41 % 5.1 C
3763 12-03-2014 15:10:00 18.7 C 39 % 4.48 C
3764 12-03-2014 15:15:00 18.7 C 37 % 3.73 C
3765 12-03-2014 15:20:00 18.7 C 37 % 3.73 C
3766 12-03-2014 15:25:00 18.8 C 38 % 4.2 C
3767 12-03-2014 15:30:00 19 C 36 % 3.61 C
3768 12-03-2014 15:35:00 19.1 C 35 % 3.3 C
3769 12-03-2014 15:40:00 19.2 C 39 % 4.92 C
3770 12-03-2014 15:45:00 19.2 C 37 % 4.17 C
3771 12-03-2014 15:50:00 19.2 C 36 % 3.78 C
3772 12-03-2014 15:55:00 19.1 C 35 % 3.3 C
3773 12-03-2014 16:00:00 18.9 C 36 % 3.52 C
3774 12-03-2014 16:05:00 18.7 C 39 % 4.48 C
3775 12-03-2014 16:10:00 18.3 C 38 % 3.75 C
Sensor: Nr:Datum:Temp:Feuchte:Taupunkt:
Aussen-T/F 3776 12-03-2014 16:15:00 18.2 C 36 % 2.9 C
3777 12-03-2014 16:20:00 18.1 C 44 % 5.67 C
3778 12-03-2014 16:25:00 17.4 C 44 % 5.03 C
3779 12-03-2014 16:30:00 17.1 C 42 % 4.1 C
3780 12-03-2014 16:35:00 17 C 46 % 5.31 C
3781 12-03-2014 16:40:00 16.7 C 40 % 3.05 C
3782 12-03-2014 16:45:00 16.7 C 48 % 5.65 C
3783 12-03-2014 16:50:00 16.4 C 42 % 3.47 C
3784 12-03-2014 16:55:00 16.6 C 45 % 4.63 C
3785 12-03-2014 17:00:00 16.4 C 46 % 4.76 C
3786 12-03-2014 17:05:00 16.4 C 49 % 5.67 C
3787 12-03-2014 17:10:00 16.1 C 50 % 5.69 C
3788 12-03-2014 17:15:00 15.7 C 50 % 5.32 C
3789 12-03-2014 17:20:00 15.4 C 50 % 5.04 C
3790 12-03-2014 17:25:00 15.2 C 53 % 5.69 C
3791 12-03-2014 17:30:00 14.9 C 55 % 5.95 C
3792 12-03-2014 17:35:00 14.7 C 55 % 5.76 C
3793 12-03-2014 17:40:00 14.5 C 55 % 5.58 C
3794 12-03-2014 17:45:00 14.2 C 56 % 5.56 C
3795 12-03-2014 17:50:00 14.1 C 57 % 5.72 C
3796 12-03-2014 17:55:00 13.8 C 56 % 5.19 C
3797 12-03-2014 18:00:00 13.7 C 56 % 5.09 C
3798 12-03-2014 18:05:00 13.4 C 57 % 5.07 C
3799 12-03-2014 18:10:00 13.2 C 57 % 4.88 C
3800 12-03-2014 18:15:00 12.9 C 57 % 4.6 C
Sensor: Nr:Datum:Temp:Feuchte:Taupunkt:
Aussen-T/F 3801 12-03-2014 18:20:00 12.6 C 58 % 4.57 C
3802 12-03-2014 18:25:00 12.4 C 59 % 4.62 C
3803 12-03-2014 18:30:00 12.2 C 60 % 4.67 C
3804 12-03-2014 18:35:00 12 C 60 % 4.49 C
3805 12-03-2014 18:40:00 11.9 C 60 % 4.39 C
3806 12-03-2014 18:45:00 11.7 C 61 % 4.44 C
3807 12-03-2014 18:50:00 11.5 C 62 % 4.48 C
3808 12-03-2014 18:55:00 11.4 C 62 % 4.39 C
3809 12-03-2014 19:00:00 11.2 C 62 % 4.2 C
3810 12-03-2014 19:05:00 11.2 C 63 % 4.43 C
3811 12-03-2014 19:10:00 11.1 C 67 % 5.21 C
3812 12-03-2014 19:15:00 10.8 C 65 % 4.49 C
3813 12-03-2014 19:20:00 10.6 C 66 % 4.52 C
3814 12-03-2014 19:25:00 10.5 C 67 % 4.64 C
3815 12-03-2014 19:30:00 10.4 C 67 % 4.55 C
3816 12-03-2014 19:35:00 10.3 C 68 % 4.66 C
3817 12-03-2014 19:40:00 10.3 C 67 % 4.45 C
3818 12-03-2014 19:45:00 10.2 C 68 % 4.57 C
3819 12-03-2014 19:50:00 9.9 C 70 % 4.69 C
3820 12-03-2014 19:55:00 9.8 C 69 % 4.39 C
3821 12-03-2014 20:00:00 9.7 C 69 % 4.3 C
3822 12-03-2014 20:05:00 9.6 C 69 % 4.2 C
3823 12-03-2014 20:10:00 9.5 C 69 % 4.11 C
3824 12-03-2014 20:15:00 9.4 C 69 % 4.01 C
3825 12-03-2014 20:20:00 9.2 C 72 % 4.42 C
Sensor: Nr:Datum:Temp:Feuchte:Taupunkt:
Aussen-T/F 3826 12-03-2014 20:25:00 9 C 73 % 4.43 C
3827 12-03-2014 20:30:00 8.9 C 73 % 4.33 C
3828 12-03-2014 20:35:00 8.8 C 73 % 4.24 C
3829 12-03-2014 20:40:00 8.8 C 73 % 4.24 C
3830 12-03-2014 20:45:00 8.8 C 73 % 4.24 C
3831 12-03-2014 20:50:00 8.7 C 72 % 3.94 C
3832 12-03-2014 20:55:00 8.6 C 75 % 4.43 C
3833 12-03-2014 21:00:00 8.4 C 74 % 4.04 C
3834 12-03-2014 21:05:00 8.2 C 75 % 4.04 C
3835 12-03-2014 21:10:00 8 C 76 % 4.04 C
3836 12-03-2014 21:15:00 7.9 C 77 % 4.12 C
3837 12-03-2014 21:20:00 7.8 C 77 % 4.03 C
3838 12-03-2014 21:25:00 7.8 C 77 % 4.03 C
3839 12-03-2014 21:30:00 7.7 C 77 % 3.93 C
3840 12-03-2014 21:35:00 7.6 C 75 % 3.46 C
3841 12-03-2014 21:40:00 7.4 C 76 % 3.45 C
3842 12-03-2014 21:45:00 7.3 C 77 % 3.54 C
3843 12-03-2014 21:50:00 7.2 C 78 % 3.63 C
3844 12-03-2014 21:55:00 7.1 C 78 % 3.53 C
3845 12-03-2014 22:00:00 6.9 C 78 % 3.34 C
3846 12-03-2014 22:05:00 6.8 C 78 % 3.24 C
3847 12-03-2014 22:10:00 6.7 C 78 % 3.14 C
3848 12-03-2014 22:15:00 6.5 C 78 % 2.95 C
3849 12-03-2014 22:20:00 6.3 C 80 % 3.11 C
3850 12-03-2014 22:25:00 6.3 C 80 % 3.11 C
Sensor: Nr:Datum:Temp:Feuchte:Taupunkt:
Aussen-T/F 3851 12-03-2014 22:30:00 6.2 C 80 % 3.01 C
3852 12-03-2014 22:35:00 6.2 C 81 % 3.19 C
3853 12-03-2014 22:40:00 6.1 C 82 % 3.26 C
3854 12-03-2014 22:45:00 6.1 C 82 % 3.26 C
3855 12-03-2014 22:50:00 6 C 82 % 3.17 C
3856 12-03-2014 22:55:00 5.9 C 82 % 3.07 C
3857 12-03-2014 23:00:00 5.9 C 82 % 3.07 C
3858 12-03-2014 23:05:00 5.8 C 82 % 2.97 C
3859 12-03-2014 23:10:00 5.8 C 82 % 2.97 C
3860 12-03-2014 23:15:00 5.8 C 82 % 2.97 C
3861 12-03-2014 23:20:00 5.7 C 83 % 3.04 C
3862 12-03-2014 23:25:00 5.6 C 83 % 2.95 C
3863 12-03-2014 23:30:00 5.6 C 83 % 2.95 C
3864 12-03-2014 23:35:00 5.4 C 83 % 2.75 C
3865 12-03-2014 23:40:00 5.3 C 83 % 2.65 C
3866 12-03-2014 23:45:00 5.2 C 83 % 2.56 C
3867 12-03-2014 23:50:00 5.1 C 84 % 2.63 C
3868 12-03-2014 23:55:00 4.9 C 84 % 2.43 C
3869 13-03-2014 00:00:00 4.8 C 84 % 2.33 C
3870 13-03-2014 00:05:00 4.6 C 85 % 2.3 C
3871 13-03-2014 00:10:00 4.5 C 86 % 2.37 C
3872 13-03-2014 00:15:00 4.5 C 86 % 2.37 C
3873 13-03-2014 00:20:00 4.5 C 86 % 2.37 C
3874 13-03-2014 00:25:00 4.4 C 86 % 2.27 C
3875 13-03-2014 00:30:00 4.4 C 87 % 2.43 C
Sensor: Nr:Datum:Temp:Feuchte:Taupunkt:
Aussen-T/F 3876 13-03-2014 00:35:00 4.4 C 86 % 2.27 C
3877 13-03-2014 00:40:00 4.3 C 87 % 2.33 C
3878 13-03-2014 00:45:00 4.3 C 87 % 2.33 C
3879 13-03-2014 00:50:00 4.3 C 87 % 2.33 C
3880 13-03-2014 00:55:00 4.3 C 86 % 2.17 C
3881 13-03-2014 01:00:00 4.2 C 87 % 2.23 C
3882 13-03-2014 01:05:00 4.2 C 87 % 2.23 C
3883 13-03-2014 01:10:00 4.2 C 87 % 2.23 C
3884 13-03-2014 01:15:00 4.2 C 87 % 2.23 C
3885 13-03-2014 01:20:00 4.2 C 87 % 2.23 C
3886 13-03-2014 01:25:00 4.1 C 88 % 2.3 C
3887 13-03-2014 01:30:00 4.2 C 88 % 2.39 C
3888 13-03-2014 01:35:00 4.2 C 88 % 2.39 C
3889 13-03-2014 01:40:00 4.1 C 87 % 2.14 C
3890 13-03-2014 01:45:00 4.1 C 87 % 2.14 C
3891 13-03-2014 01:50:00 3.9 C 87 % 1.94 C
3892 13-03-2014 01:55:00 3.8 C 88 % 2 C
3893 13-03-2014 02:00:00 3.8 C 88 % 2 C
3894 13-03-2014 02:05:00 3.8 C 88 % 2 C
3895 13-03-2014 02:10:00 3.8 C 89 % 2.16 C
3896 13-03-2014 02:15:00 3.8 C 88 % 2 C
3897 13-03-2014 02:20:00 3.7 C 88 % 1.9 C
3898 13-03-2014 02:25:00 3.7 C 88 % 1.9 C
3899 13-03-2014 02:30:00 3.6 C 88 % 1.8 C
3900 13-03-2014 02:35:00